Darstellungsparameter: Aktuell verwendete Einstellungen:
Skalierung der Graphiken ... ?
xyx+y,   Skalierungsfaktor:      Skalierung: Modus: x, Faktor: 1
Darstellungszeitraum ... ?
Vom - - bis: - -   Zeitraum: 12.01.2020 - 12.07.2020
Min/Max/Avg-Anzeige ... ?
Zeige MMA aktuell
Zeige MMA Monat
Zeige MMA alles
Zeige --A aktuell
Zeige --A Monat
Zeige --A alles
Keine MMA-Anzeige
MMA:
Minimum Maximum Average (ber die Originaldaten)
MMA-Basis: 23.02.2003 - 29.06.2020
Quicknavigation für Darstellung... ?
Tage:      1T, 2T, 3T, 5T -1T -2T -3T -5T +1T +2T +3T +5T
Wochen: 1W, 2W, 3W -1W -2W -3W +1W +2W +3W
Monate: 1M, 3M, 6M -1M -3M -6M +1M +3M +6M
Jahre:    1J, 3J, 5J, 10J -1J -3J -5J -10J +1J +3J +5J +10J
Nutze für die Darstellung ... ?
Originaldaten oder Mittelwerte auf ...
Stundenbasis Tagesbasis Wochenbasis
Monatsbasis Jahresbasis      Datenbasis: Original-Daten
Darstellen als:
Statistik (Auto) Statistik J:M      Darstellung:
Zur Graphik,    zurück zur Übersicht aller Sensoren.
 
Tabellarische Datenbersicht: ?
 
Sensor: Nr:Datum:Temp:Abs-Feuchte:Windchill:Wind:
Aussen-T/F 1 12-01-2020 00:00:00 1.8 C 5.1 g/m*3 1.8 C 3.2 km/h
2 12-01-2020 00:05:00 1.8 C 5.1 g/m*3 -0.1 C 6.4 km/h
3 12-01-2020 00:10:00 1.8 C 5.1 g/m*3 1.8 C 1.6 km/h
4 12-01-2020 00:15:00 1.9 C 5.19 g/m*3 1.9 C 4.8 km/h
5 12-01-2020 00:20:00 2 C 5.17 g/m*3 2 C 3.2 km/h
6 12-01-2020 00:25:00 2 C 5.17 g/m*3 2 C 1.6 km/h
7 12-01-2020 00:30:00 2.1 C 5.2 g/m*3 2.1 C 3.2 km/h
8 12-01-2020 00:35:00 2.1 C 5.2 g/m*3 2.1 C 3.2 km/h
9 12-01-2020 00:40:00 2.1 C 5.2 g/m*3 2.1 C 0 km/h
10 12-01-2020 00:45:00 2 C 5.17 g/m*3 2 C 1.6 km/h
11 12-01-2020 00:50:00 1.9 C 5.13 g/m*3 1.9 C 3.2 km/h
12 12-01-2020 00:55:00 1.9 C 5.13 g/m*3 1.9 C 3.2 km/h
13 12-01-2020 01:00:00 1.9 C 5.13 g/m*3 1.9 C 1.6 km/h
14 12-01-2020 01:05:00 1.9 C 5.13 g/m*3 1.9 C 0 km/h
15 12-01-2020 01:10:00 1.9 C 5.13 g/m*3 1.9 C 4.8 km/h
16 12-01-2020 01:15:00 1.9 C 5.13 g/m*3 1.9 C 1.6 km/h
17 12-01-2020 01:20:00 1.9 C 5.13 g/m*3 1.9 C 1.6 km/h
18 12-01-2020 01:25:00 1.9 C 5.13 g/m*3 1.9 C 3.2 km/h
19 12-01-2020 01:30:00 2 C 5.22 g/m*3 2 C 1.6 km/h
20 12-01-2020 01:35:00 2 C 5.17 g/m*3 2 C 0 km/h
21 12-01-2020 01:40:00 2 C 5.17 g/m*3 2 C 3.2 km/h
22 12-01-2020 01:45:00 2.1 C 5.2 g/m*3 2.1 C 3.2 km/h
23 12-01-2020 01:50:00 2.1 C 5.2 g/m*3 2.1 C 1.6 km/h
24 12-01-2020 01:55:00 2.3 C 5.33 g/m*3 2.3 C 4.8 km/h
25 12-01-2020 02:00:00 2.3 C 5.27 g/m*3 2.3 C 1.6 km/h
Sensor: Nr:Datum:Temp:Abs-Feuchte:Windchill:Wind:
Aussen-T/F 26 12-01-2020 02:05:00 2.3 C 5.27 g/m*3 2.3 C 4.8 km/h
27 12-01-2020 02:10:00 2.4 C 5.31 g/m*3 2.4 C 1.6 km/h
28 12-01-2020 02:15:00 2.4 C 5.31 g/m*3 2.4 C 3.2 km/h
29 12-01-2020 02:20:00 2.5 C 5.35 g/m*3 2.5 C 3.2 km/h
30 12-01-2020 02:25:00 2.4 C 5.25 g/m*3 2.4 C 1.6 km/h
31 12-01-2020 02:30:00 2.4 C 5.25 g/m*3 2.4 C 0 km/h
32 12-01-2020 02:35:00 2.5 C 5.35 g/m*3 2.5 C 1.6 km/h
33 12-01-2020 02:40:00 2.6 C 5.38 g/m*3 2.6 C 4.8 km/h
34 12-01-2020 02:45:00 2.6 C 5.32 g/m*3 2.6 C 4.8 km/h
35 12-01-2020 02:50:00 2.6 C 5.32 g/m*3 2.6 C 1.6 km/h
36 12-01-2020 02:55:00 2.6 C 5.32 g/m*3 2.6 C 0 km/h
37 12-01-2020 03:00:00 2.6 C 5.32 g/m*3 2.6 C 3.2 km/h
38 12-01-2020 03:05:00 2.6 C 5.32 g/m*3 2.6 C 1.6 km/h
39 12-01-2020 03:10:00 2.6 C 5.32 g/m*3 2.6 C 1.6 km/h
40 12-01-2020 03:15:00 2.6 C 5.32 g/m*3 2.6 C 4.8 km/h
41 12-01-2020 03:20:00 2.6 C 5.32 g/m*3 2.6 C 1.6 km/h
42 12-01-2020 03:25:00 2.6 C 5.32 g/m*3 2.6 C 4.8 km/h
43 12-01-2020 03:30:00 2.5 C 5.23 g/m*3 2.5 C 1.6 km/h
44 12-01-2020 03:35:00 2.4 C 5.25 g/m*3 2.4 C 4.8 km/h
45 12-01-2020 03:40:00 2.4 C 5.25 g/m*3 2.4 C 0 km/h
46 12-01-2020 03:45:00 2.3 C 5.22 g/m*3 2.3 C 1.6 km/h
47 12-01-2020 03:50:00 2.3 C 5.22 g/m*3 2.3 C 3.2 km/h
48 12-01-2020 03:55:00 2.3 C 5.22 g/m*3 2.3 C 1.6 km/h
49 12-01-2020 04:00:00 2.3 C 5.27 g/m*3 2.3 C 0 km/h
50 12-01-2020 04:05:00 2.3 C 5.27 g/m*3 2.3 C 1.6 km/h
Sensor: Nr:Datum:Temp:Abs-Feuchte:Windchill:Wind:
Aussen-T/F 51 12-01-2020 04:10:00 2.4 C 5.31 g/m*3 2.4 C 0 km/h
52 12-01-2020 04:15:00 2.4 C 5.31 g/m*3 2.4 C 0 km/h
53 12-01-2020 04:20:00 2.4 C 5.31 g/m*3 2.4 C 0 km/h
54 12-01-2020 04:25:00 2.4 C 5.31 g/m*3 2.4 C 0 km/h
55 12-01-2020 04:30:00 2.6 C 5.38 g/m*3 2.6 C 0 km/h
56 12-01-2020 04:35:00 2.7 C 5.42 g/m*3 2.7 C 1.6 km/h
57 12-01-2020 04:40:00 2.8 C 5.46 g/m*3 2.8 C 0 km/h
58 12-01-2020 04:45:00 2.8 C 5.46 g/m*3 2.8 C 0 km/h
59 12-01-2020 04:50:00 2.9 C 5.49 g/m*3 2.9 C 4.8 km/h
60 12-01-2020 04:55:00 3.1 C 5.57 g/m*3 3.1 C 0 km/h
61 12-01-2020 05:00:00 3.2 C 5.6 g/m*3 3.2 C 1.6 km/h
62 12-01-2020 05:05:00 3.3 C 5.58 g/m*3 3.3 C 1.6 km/h
63 12-01-2020 05:10:00 3.4 C 5.62 g/m*3 3.4 C 3.2 km/h
64 12-01-2020 05:15:00 3.6 C 5.63 g/m*3 3.6 C 3.2 km/h
65 12-01-2020 05:20:00 3.7 C 5.61 g/m*3 3.7 C 3.2 km/h
66 12-01-2020 05:25:00 3.8 C 5.65 g/m*3 3.8 C 1.6 km/h
67 12-01-2020 05:30:00 3.8 C 5.65 g/m*3 3.8 C 0 km/h
68 12-01-2020 05:35:00 3.9 C 5.68 g/m*3 3.9 C 0 km/h
69 12-01-2020 05:40:00 3.9 C 5.62 g/m*3 3.9 C 3.2 km/h
70 12-01-2020 05:45:00 4 C 5.66 g/m*3 4 C 4.8 km/h
71 12-01-2020 05:50:00 4.1 C 5.63 g/m*3 1.65 C 9.7 km/h
72 12-01-2020 05:55:00 4.1 C 5.63 g/m*3 4.1 C 1.6 km/h
73 12-01-2020 06:00:00 4.2 C 5.67 g/m*3 1.77 C 9.7 km/h
74 12-01-2020 06:05:00 4.2 C 5.67 g/m*3 4.2 C 4.8 km/h
75 12-01-2020 06:10:00 4.3 C 5.71 g/m*3 4.3 C 1.6 km/h
Sensor: Nr:Datum:Temp:Abs-Feuchte:Windchill:Wind:
Aussen-T/F 76 12-01-2020 06:15:00 4.3 C 5.64 g/m*3 2.78 C 6.4 km/h
77 12-01-2020 06:20:00 4.3 C 5.64 g/m*3 2.78 C 6.4 km/h
78 12-01-2020 06:25:00 4.3 C 5.64 g/m*3 2.78 C 6.4 km/h
79 12-01-2020 06:30:00 4.2 C 5.61 g/m*3 2.17 C 8.1 km/h
80 12-01-2020 06:35:00 4.3 C 5.64 g/m*3 1.89 C 9.7 km/h
81 12-01-2020 06:40:00 4.3 C 5.64 g/m*3 0.97 C 14.5 km/h
82 12-01-2020 06:45:00 4.3 C 5.64 g/m*3 2.29 C 8.1 km/h
83 12-01-2020 06:50:00 4.3 C 5.64 g/m*3 1.55 C 11.3 km/h
84 12-01-2020 06:55:00 4.3 C 5.64 g/m*3 2.78 C 6.4 km/h
85 12-01-2020 07:00:00 4.3 C 5.64 g/m*3 2.29 C 8.1 km/h
86 12-01-2020 07:05:00 4.3 C 5.64 g/m*3 0.49 C 17.7 km/h
87 12-01-2020 07:10:00 4.3 C 5.64 g/m*3 1.24 C 12.9 km/h
88 12-01-2020 07:15:00 4.3 C 5.64 g/m*3 1.89 C 9.7 km/h
89 12-01-2020 07:20:00 4.3 C 5.64 g/m*3 2.78 C 6.4 km/h
90 12-01-2020 07:25:00 4.3 C 5.64 g/m*3 2.29 C 8.1 km/h
91 12-01-2020 07:30:00 4.3 C 5.64 g/m*3 2.29 C 8.1 km/h
92 12-01-2020 07:35:00 4.3 C 5.64 g/m*3 2.29 C 8.1 km/h
93 12-01-2020 07:40:00 4.3 C 5.64 g/m*3 1.24 C 12.9 km/h
94 12-01-2020 07:45:00 4.4 C 5.62 g/m*3 0.84 C 16.1 km/h
95 12-01-2020 07:50:00 4.4 C 5.62 g/m*3 1.36 C 12.9 km/h
96 12-01-2020 07:55:00 4.4 C 5.62 g/m*3 0.84 C 16.1 km/h
97 12-01-2020 08:00:00 4.4 C 5.62 g/m*3 2.4 C 8.1 km/h
98 12-01-2020 08:05:00 4.3 C 5.58 g/m*3 1.24 C 12.9 km/h
99 12-01-2020 08:10:00 4.3 C 5.58 g/m*3 1.55 C 11.3 km/h
100 12-01-2020 08:15:00 4.3 C 5.58 g/m*3 1.24 C 12.9 km/h
Sensor: Nr:Datum:Temp:Abs-Feuchte:Windchill:Wind:
Aussen-T/F 101 12-01-2020 08:20:00 4.3 C 5.58 g/m*3 2.29 C 8.1 km/h
102 12-01-2020 08:25:00 4.3 C 5.58 g/m*3 2.78 C 6.4 km/h
103 12-01-2020 08:30:00 4.4 C 5.62 g/m*3 1.36 C 12.9 km/h
104 12-01-2020 08:35:00 4.4 C 5.62 g/m*3 2.4 C 8.1 km/h
105 12-01-2020 08:40:00 4.5 C 5.65 g/m*3 0.33 C 20.9 km/h
106 12-01-2020 08:45:00 4.6 C 5.69 g/m*3 1.34 C 14.5 km/h
107 12-01-2020 08:50:00 4.6 C 5.62 g/m*3 1.61 C 12.9 km/h
108 12-01-2020 08:55:00 4.7 C 5.66 g/m*3 0.58 C 20.9 km/h
109 12-01-2020 09:00:00 4.7 C 5.66 g/m*3 0.58 C 20.9 km/h
110 12-01-2020 09:05:00 4.7 C 5.66 g/m*3 1.73 C 12.9 km/h
111 12-01-2020 09:10:00 4.7 C 5.66 g/m*3 2.76 C 8.1 km/h
112 12-01-2020 09:15:00 4.8 C 5.7 g/m*3 1.11 C 17.7 km/h
113 12-01-2020 09:20:00 4.8 C 5.7 g/m*3 2.15 C 11.3 km/h
114 12-01-2020 09:25:00 4.8 C 5.7 g/m*3 2.49 C 9.7 km/h
115 12-01-2020 09:50:00 5 C 5.71 g/m*3 1.36 C 17.7 km/h
116 12-01-2020 09:55:00 5.1 C 5.75 g/m*3 1.09 C 20.9 km/h
117 12-01-2020 10:00:00 5.2 C 5.78 g/m*3 2.63 C 11.3 km/h
118 12-01-2020 10:05:00 5.2 C 5.78 g/m*3 3.34 C 8.1 km/h
119 12-01-2020 10:10:00 5.3 C 5.82 g/m*3 1.34 C 20.9 km/h
120 12-01-2020 10:15:00 5.3 C 5.82 g/m*3 2.2 C 14.5 km/h
121 12-01-2020 10:20:00 5.3 C 5.82 g/m*3 3.08 C 9.7 km/h
122 12-01-2020 10:25:00 5.3 C 5.82 g/m*3 1.96 C 16.1 km/h
123 12-01-2020 10:30:00 5.3 C 5.82 g/m*3 2.75 C 11.3 km/h
124 12-01-2020 10:35:00 5.4 C 5.79 g/m*3 2.08 C 16.1 km/h
125 12-01-2020 10:40:00 5.4 C 5.79 g/m*3 2.87 C 11.3 km/h
Sensor: Nr:Datum:Temp:Abs-Feuchte:Windchill:Wind:
Aussen-T/F 126 12-01-2020 10:45:00 5.4 C 5.79 g/m*3 2.08 C 16.1 km/h
127 12-01-2020 10:50:00 5.4 C 5.79 g/m*3 2.32 C 14.5 km/h
128 12-01-2020 10:55:00 5.4 C 5.79 g/m*3 3.2 C 9.7 km/h
129 12-01-2020 11:00:00 5.5 C 5.83 g/m*3 3.32 C 9.7 km/h
130 12-01-2020 11:05:00 5.6 C 5.87 g/m*3 3.44 C 9.7 km/h
131 12-01-2020 11:10:00 5.6 C 5.87 g/m*3 5.6 C 4.8 km/h
132 12-01-2020 11:15:00 5.6 C 5.87 g/m*3 3.44 C 9.7 km/h
133 12-01-2020 11:20:00 5.7 C 5.91 g/m*3 4.4 C 6.4 km/h
134 12-01-2020 11:25:00 5.7 C 5.84 g/m*3 3.93 C 8.1 km/h
135 12-01-2020 11:30:00 5.7 C 5.84 g/m*3 2.03 C 19.3 km/h
136 12-01-2020 11:35:00 5.7 C 5.84 g/m*3 2.24 C 17.7 km/h
137 12-01-2020 11:40:00 5.8 C 5.87 g/m*3 1.97 C 20.9 km/h
138 12-01-2020 11:45:00 5.8 C 5.87 g/m*3 2.36 C 17.7 km/h
139 12-01-2020 11:50:00 5.8 C 5.87 g/m*3 3.36 C 11.3 km/h
140 12-01-2020 11:55:00 5.9 C 5.91 g/m*3 2.29 C 19.3 km/h
141 12-01-2020 12:00:00 5.9 C 5.91 g/m*3 2.93 C 14.5 km/h
142 12-01-2020 12:05:00 6.1 C 5.99 g/m*3 3.43 C 12.9 km/h
143 12-01-2020 12:10:00 6.1 C 5.99 g/m*3 2.54 C 19.3 km/h
144 12-01-2020 12:15:00 6.1 C 5.99 g/m*3 2.95 C 16.1 km/h
145 12-01-2020 12:20:00 6.2 C 6.03 g/m*3 2.48 C 20.9 km/h
146 12-01-2020 12:25:00 6.2 C 6.03 g/m*3 3.3 C 14.5 km/h
147 12-01-2020 12:30:00 6.3 C 6.07 g/m*3 3.68 C 12.9 km/h
148 12-01-2020 12:35:00 6.4 C 6.04 g/m*3 2.91 C 19.3 km/h
149 12-01-2020 12:40:00 6.4 C 6.04 g/m*3 4.08 C 11.3 km/h
150 12-01-2020 12:45:00 6.5 C 6.07 g/m*3 3.67 C 14.5 km/h
Sensor: Nr:Datum:Temp:Abs-Feuchte:Windchill:Wind:
Aussen-T/F 151 12-01-2020 12:50:00 6.5 C 6.07 g/m*3 3.67 C 14.5 km/h
152 12-01-2020 12:55:00 6.5 C 6.07 g/m*3 3.04 C 19.3 km/h
153 12-01-2020 13:00:00 6.5 C 6.07 g/m*3 4.2 C 11.3 km/h
154 12-01-2020 13:05:00 6.6 C 6.19 g/m*3 4.63 C 9.7 km/h
155 12-01-2020 13:10:00 6.6 C 6.19 g/m*3 3.79 C 14.5 km/h
156 12-01-2020 13:15:00 6.7 C 6.23 g/m*3 3.69 C 16.1 km/h
157 12-01-2020 13:20:00 6.7 C 6.23 g/m*3 3.69 C 16.1 km/h
158 12-01-2020 13:25:00 6.7 C 6.23 g/m*3 3.92 C 14.5 km/h
159 12-01-2020 13:30:00 6.8 C 6.27 g/m*3 5.22 C 8.1 km/h
160 12-01-2020 13:35:00 6.8 C 6.19 g/m*3 4.29 C 12.9 km/h
161 12-01-2020 13:40:00 6.9 C 6.31 g/m*3 5.34 C 8.1 km/h
162 12-01-2020 13:45:00 6.9 C 6.31 g/m*3 4.41 C 12.9 km/h
163 12-01-2020 13:50:00 6.9 C 6.31 g/m*3 4.99 C 9.7 km/h
164 12-01-2020 13:55:00 7 C 6.35 g/m*3 3.17 C 24.1 km/h
165 12-01-2020 14:00:00 7.1 C 6.4 g/m*3 3.98 C 17.7 km/h
166 12-01-2020 14:05:00 7.1 C 6.4 g/m*3 3.3 C 24.1 km/h
167 12-01-2020 14:10:00 7.2 C 6.44 g/m*3 4.77 C 12.9 km/h
168 12-01-2020 14:15:00 7.2 C 6.44 g/m*3 4.53 C 14.5 km/h
169 12-01-2020 14:20:00 7.2 C 6.44 g/m*3 5.04 C 11.3 km/h
170 12-01-2020 14:25:00 7.2 C 6.44 g/m*3 5.04 C 11.3 km/h
171 12-01-2020 14:30:00 7.2 C 6.44 g/m*3 4.53 C 14.5 km/h
172 12-01-2020 14:35:00 7.2 C 6.44 g/m*3 4.53 C 14.5 km/h
173 12-01-2020 14:40:00 7.2 C 6.44 g/m*3 4.77 C 12.9 km/h
174 12-01-2020 14:45:00 7.2 C 6.52 g/m*3 5.04 C 11.3 km/h
175 12-01-2020 14:50:00 7.2 C 6.52 g/m*3 3.92 C 19.3 km/h
Sensor: Nr:Datum:Temp:Abs-Feuchte:Windchill:Wind:
Aussen-T/F 176 12-01-2020 14:55:00 7.2 C 6.52 g/m*3 5.04 C 11.3 km/h
177 12-01-2020 15:00:00 7.2 C 6.52 g/m*3 4.31 C 16.1 km/h
178 12-01-2020 15:05:00 7.2 C 6.52 g/m*3 4.11 C 17.7 km/h
179 12-01-2020 15:10:00 7.2 C 6.52 g/m*3 4.31 C 16.1 km/h
180 12-01-2020 15:15:00 7.2 C 6.59 g/m*3 3.92 C 19.3 km/h
181 12-01-2020 15:20:00 7.2 C 6.59 g/m*3 4.53 C 14.5 km/h
182 12-01-2020 15:25:00 7.2 C 6.59 g/m*3 3.13 C 27.4 km/h
183 12-01-2020 15:30:00 7.2 C 6.59 g/m*3 3.75 C 20.9 km/h
184 12-01-2020 15:35:00 7.2 C 6.59 g/m*3 4.77 C 12.9 km/h
185 12-01-2020 15:40:00 7.2 C 6.59 g/m*3 3.92 C 19.3 km/h
186 12-01-2020 15:45:00 7.2 C 6.59 g/m*3 5.35 C 9.7 km/h
187 12-01-2020 15:50:00 7.1 C 6.55 g/m*3 3.62 C 20.9 km/h
188 12-01-2020 15:55:00 7.1 C 6.55 g/m*3 3.8 C 19.3 km/h
189 12-01-2020 16:00:00 7.1 C 6.55 g/m*3 3.15 C 25.7 km/h
190 12-01-2020 16:05:00 7.1 C 6.55 g/m*3 3.8 C 19.3 km/h
191 12-01-2020 16:10:00 7.1 C 6.55 g/m*3 3.45 C 22.5 km/h
192 12-01-2020 16:15:00 7 C 6.51 g/m*3 3.17 C 24.1 km/h
193 12-01-2020 16:20:00 7 C 6.59 g/m*3 3.86 C 17.7 km/h
194 12-01-2020 16:25:00 6.9 C 6.54 g/m*3 3.2 C 22.5 km/h
195 12-01-2020 16:30:00 6.8 C 6.5 g/m*3 4.56 C 11.3 km/h
196 12-01-2020 16:35:00 6.8 C 6.58 g/m*3 4.04 C 14.5 km/h
197 12-01-2020 16:40:00 6.7 C 6.53 g/m*3 2.94 C 22.5 km/h
198 12-01-2020 16:45:00 6.7 C 6.61 g/m*3 3.69 C 16.1 km/h
199 12-01-2020 16:50:00 6.7 C 6.53 g/m*3 3.11 C 20.9 km/h
200 12-01-2020 16:55:00 6.7 C 6.61 g/m*3 3.29 C 19.3 km/h
Sensor: Nr:Datum:Temp:Abs-Feuchte:Windchill:Wind:
Aussen-T/F 201 12-01-2020 17:00:00 6.6 C 6.57 g/m*3 2.99 C 20.9 km/h
202 12-01-2020 17:05:00 6.6 C 6.57 g/m*3 3.17 C 19.3 km/h
203 12-01-2020 17:10:00 6.6 C 6.57 g/m*3 3.57 C 16.1 km/h
204 12-01-2020 17:15:00 6.6 C 6.57 g/m*3 3.17 C 19.3 km/h
205 12-01-2020 17:20:00 6.6 C 6.57 g/m*3 2.82 C 22.5 km/h
206 12-01-2020 17:25:00 6.6 C 6.64 g/m*3 3.17 C 19.3 km/h
207 12-01-2020 17:30:00 6.6 C 6.57 g/m*3 2.99 C 20.9 km/h
208 12-01-2020 17:35:00 6.5 C 6.6 g/m*3 3.23 C 17.7 km/h
209 12-01-2020 17:40:00 6.5 C 6.6 g/m*3 2.38 C 25.7 km/h
210 12-01-2020 17:45:00 6.4 C 6.56 g/m*3 2.73 C 20.9 km/h
211 12-01-2020 17:50:00 6.4 C 6.56 g/m*3 2.25 C 25.7 km/h
212 12-01-2020 17:55:00 6.3 C 6.51 g/m*3 2.79 C 19.3 km/h
213 12-01-2020 18:00:00 6.3 C 6.51 g/m*3 2.61 C 20.9 km/h
214 12-01-2020 18:05:00 6.2 C 6.47 g/m*3 3.3 C 14.5 km/h
215 12-01-2020 18:10:00 6.2 C 6.55 g/m*3 2.66 C 19.3 km/h
216 12-01-2020 18:15:00 6.1 C 6.5 g/m*3 3.43 C 12.9 km/h
217 12-01-2020 18:20:00 6.1 C 6.5 g/m*3 2.73 C 17.7 km/h
218 12-01-2020 18:25:00 6.1 C 6.5 g/m*3 4.4 C 8.1 km/h
219 12-01-2020 18:30:00 6.1 C 6.5 g/m*3 3.18 C 14.5 km/h
220 12-01-2020 18:35:00 6.1 C 6.5 g/m*3 3.43 C 12.9 km/h
221 12-01-2020 18:40:00 6.1 C 6.5 g/m*3 4.4 C 8.1 km/h
222 12-01-2020 18:45:00 6.1 C 6.5 g/m*3 3.43 C 12.9 km/h
223 12-01-2020 18:50:00 6.2 C 6.55 g/m*3 3.56 C 12.9 km/h
224 12-01-2020 18:55:00 6.3 C 6.59 g/m*3 3.96 C 11.3 km/h
225 12-01-2020 19:00:00 6.2 C 6.55 g/m*3 4.52 C 8.1 km/h
Sensor: Nr:Datum:Temp:Abs-Feuchte:Windchill:Wind:
Aussen-T/F 226 12-01-2020 19:05:00 6.2 C 6.55 g/m*3 4.52 C 8.1 km/h
227 12-01-2020 19:10:00 6.1 C 6.5 g/m*3 4.4 C 8.1 km/h
228 12-01-2020 19:15:00 6.1 C 6.5 g/m*3 4.86 C 6.4 km/h
229 12-01-2020 19:20:00 6 C 6.46 g/m*3 6 C 3.2 km/h
230 12-01-2020 19:25:00 5.9 C 6.49 g/m*3 5.9 C 3.2 km/h
231 12-01-2020 19:30:00 6 C 6.6 g/m*3 4.28 C 8.1 km/h
232 12-01-2020 19:35:00 6.1 C 6.65 g/m*3 6.1 C 4.8 km/h
233 12-01-2020 19:40:00 6.2 C 6.69 g/m*3 4.15 C 9.7 km/h
234 12-01-2020 19:45:00 6.3 C 6.74 g/m*3 4.64 C 8.1 km/h
235 12-01-2020 19:50:00 6.4 C 6.71 g/m*3 3.11 C 17.7 km/h
236 12-01-2020 19:55:00 6.5 C 6.75 g/m*3 4.51 C 9.7 km/h
237 12-01-2020 20:00:00 6.5 C 6.75 g/m*3 3.67 C 14.5 km/h
238 12-01-2020 20:05:00 6.6 C 6.79 g/m*3 4.04 C 12.9 km/h
239 12-01-2020 20:10:00 6.6 C 6.79 g/m*3 4.99 C 8.1 km/h
240 12-01-2020 20:15:00 6.6 C 6.79 g/m*3 4.99 C 8.1 km/h
241 12-01-2020 20:20:00 6.4 C 6.71 g/m*3 4.08 C 11.3 km/h
242 12-01-2020 20:25:00 6.4 C 6.71 g/m*3 3.8 C 12.9 km/h
243 12-01-2020 20:30:00 6.3 C 6.66 g/m*3 4.27 C 9.7 km/h
244 12-01-2020 20:35:00 6.3 C 6.66 g/m*3 3.96 C 11.3 km/h
245 12-01-2020 20:40:00 6.3 C 6.74 g/m*3 3.68 C 12.9 km/h
246 12-01-2020 20:45:00 6.2 C 6.69 g/m*3 4.52 C 8.1 km/h
247 12-01-2020 20:50:00 6.3 C 6.74 g/m*3 3.96 C 11.3 km/h
248 12-01-2020 20:55:00 6.3 C 6.74 g/m*3 4.27 C 9.7 km/h
249 12-01-2020 21:00:00 6.4 C 6.78 g/m*3 3.55 C 14.5 km/h
250 12-01-2020 21:05:00 6.4 C 6.78 g/m*3 4.75 C 8.1 km/h
Sensor: Nr:Datum:Temp:Abs-Feuchte:Windchill:Wind:
Aussen-T/F 251 12-01-2020 21:10:00 6.4 C 6.78 g/m*3 6.4 C 4.8 km/h
252 12-01-2020 21:15:00 6.5 C 6.82 g/m*3 4.2 C 11.3 km/h
253 12-01-2020 21:20:00 6.6 C 6.87 g/m*3 3.79 C 14.5 km/h
254 12-01-2020 21:25:00 6.7 C 6.91 g/m*3 4.44 C 11.3 km/h
255 12-01-2020 21:30:00 6.7 C 6.91 g/m*3 5.56 C 6.4 km/h
256 12-01-2020 21:35:00 6.7 C 6.91 g/m*3 3.92 C 14.5 km/h
257 12-01-2020 21:40:00 6.7 C 6.91 g/m*3 3.92 C 14.5 km/h
258 12-01-2020 21:45:00 6.8 C 6.96 g/m*3 4.87 C 9.7 km/h
259 12-01-2020 21:50:00 6.9 C 7.01 g/m*3 4.41 C 12.9 km/h
260 12-01-2020 21:55:00 7 C 7.05 g/m*3 4.29 C 14.5 km/h
261 12-01-2020 22:00:00 7 C 7.05 g/m*3 4.53 C 12.9 km/h
262 12-01-2020 22:05:00 7 C 6.97 g/m*3 5.11 C 9.7 km/h
263 12-01-2020 22:10:00 6.9 C 6.93 g/m*3 4.68 C 11.3 km/h
264 12-01-2020 22:15:00 6.8 C 6.88 g/m*3 4.56 C 11.3 km/h
265 12-01-2020 22:20:00 6.8 C 6.88 g/m*3 4.56 C 11.3 km/h
266 12-01-2020 22:25:00 6.7 C 6.91 g/m*3 5.56 C 6.4 km/h
267 12-01-2020 22:30:00 6.7 C 6.91 g/m*3 5.11 C 8.1 km/h
268 12-01-2020 22:35:00 6.7 C 6.91 g/m*3 4.17 C 12.9 km/h
269 12-01-2020 22:40:00 6.8 C 6.96 g/m*3 5.67 C 6.4 km/h
270 12-01-2020 22:45:00 6.8 C 6.96 g/m*3 4.87 C 9.7 km/h
271 12-01-2020 22:50:00 6.8 C 6.96 g/m*3 5.67 C 6.4 km/h
272 12-01-2020 22:55:00 6.7 C 6.91 g/m*3 6.7 C 4.8 km/h
273 12-01-2020 23:00:00 6.7 C 6.91 g/m*3 5.56 C 6.4 km/h
274 12-01-2020 23:05:00 6.6 C 6.87 g/m*3 5.44 C 6.4 km/h
275 12-01-2020 23:10:00 6.5 C 6.82 g/m*3 5.33 C 6.4 km/h
Sensor: Nr:Datum:Temp:Abs-Feuchte:Windchill:Wind:
Aussen-T/F 276 12-01-2020 23:15:00 6.4 C 6.78 g/m*3 6.4 C 1.6 km/h
277 12-01-2020 23:20:00 6.2 C 6.62 g/m*3 6.2 C 1.6 km/h
278 12-01-2020 23:25:00 6.1 C 6.72 g/m*3 4.4 C 8.1 km/h
279 12-01-2020 23:30:00 6.1 C 6.72 g/m*3 4.86 C 6.4 km/h
280 12-01-2020 23:35:00 6.2 C 6.77 g/m*3 4.98 C 6.4 km/h
281 12-01-2020 23:40:00 6.4 C 6.85 g/m*3 3.8 C 12.9 km/h
282 12-01-2020 23:45:00 6.4 C 6.85 g/m*3 6.4 C 3.2 km/h
283 12-01-2020 23:50:00 6.3 C 6.74 g/m*3 5.1 C 6.4 km/h
284 12-01-2020 23:55:00 6.3 C 6.81 g/m*3 3.43 C 14.5 km/h
285 13-01-2020 00:00:00 6.4 C 6.78 g/m*3 3.55 C 14.5 km/h
286 13-01-2020 00:05:00 6.6 C 6.95 g/m*3 4.32 C 11.3 km/h
287 13-01-2020 00:10:00 6.7 C 6.91 g/m*3 4.75 C 9.7 km/h
288 13-01-2020 00:15:00 6.7 C 6.91 g/m*3 6.7 C 4.8 km/h
289 13-01-2020 00:20:00 6.7 C 6.91 g/m*3 4.17 C 12.9 km/h
290 13-01-2020 00:25:00 6.7 C 6.91 g/m*3 4.75 C 9.7 km/h
291 13-01-2020 00:30:00 6.8 C 6.96 g/m*3 4.87 C 9.7 km/h
292 13-01-2020 00:35:00 6.9 C 7.01 g/m*3 5.34 C 8.1 km/h
293 13-01-2020 00:40:00 7 C 7.05 g/m*3 5.11 C 9.7 km/h
294 13-01-2020 00:45:00 7.1 C 7.1 g/m*3 4.19 C 16.1 km/h
295 13-01-2020 00:50:00 7.1 C 7.1 g/m*3 5.58 C 8.1 km/h
296 13-01-2020 00:55:00 7.1 C 7.1 g/m*3 5.58 C 8.1 km/h
297 13-01-2020 01:00:00 7.1 C 7.1 g/m*3 7.1 C 3.2 km/h
298 13-01-2020 01:05:00 7.1 C 7.1 g/m*3 6.02 C 6.4 km/h
299 13-01-2020 01:10:00 7 C 7.13 g/m*3 5.11 C 9.7 km/h
300 13-01-2020 01:15:00 6.9 C 7.08 g/m*3 5.34 C 8.1 km/h
Sensor: Nr:Datum:Temp:Abs-Feuchte:Windchill:Wind:
Aussen-T/F 301 13-01-2020 01:20:00 6.9 C 7.08 g/m*3 6.9 C 0 km/h
302 13-01-2020 01:25:00 6.8 C 7.04 g/m*3 6.8 C 3.2 km/h
303 13-01-2020 01:30:00 6.7 C 6.99 g/m*3 6.7 C 3.2 km/h
304 13-01-2020 01:35:00 6.7 C 6.99 g/m*3 6.7 C 1.6 km/h
305 13-01-2020 01:40:00 6.6 C 7.02 g/m*3 6.6 C 3.2 km/h
306 13-01-2020 01:45:00 6.6 C 7.02 g/m*3 6.6 C 3.2 km/h
307 13-01-2020 01:50:00 6.5 C 6.97 g/m*3 6.5 C 1.6 km/h
308 13-01-2020 01:55:00 6.4 C 6.93 g/m*3 6.4 C 3.2 km/h
309 13-01-2020 02:00:00 6.4 C 6.93 g/m*3 6.4 C 4.8 km/h
310 13-01-2020 02:05:00 6.5 C 7.05 g/m*3 6.5 C 4.8 km/h
311 13-01-2020 02:10:00 6.5 C 7.05 g/m*3 6.5 C 4.8 km/h
312 13-01-2020 02:15:00 6.6 C 7.1 g/m*3 5.44 C 6.4 km/h
313 13-01-2020 02:20:00 6.6 C 7.1 g/m*3 6.6 C 4.8 km/h
314 13-01-2020 02:25:00 6.6 C 7.1 g/m*3 6.6 C 4.8 km/h
315 13-01-2020 02:30:00 6.6 C 7.1 g/m*3 6.6 C 4.8 km/h
316 13-01-2020 02:35:00 6.6 C 7.1 g/m*3 6.6 C 3.2 km/h
317 13-01-2020 02:40:00 6.6 C 7.1 g/m*3 6.6 C 3.2 km/h
318 13-01-2020 02:45:00 6.6 C 7.1 g/m*3 6.6 C 1.6 km/h
319 13-01-2020 02:50:00 6.6 C 7.1 g/m*3 6.6 C 0 km/h
320 13-01-2020 02:55:00 6.6 C 7.1 g/m*3 6.6 C 1.6 km/h
321 13-01-2020 03:00:00 6.5 C 7.05 g/m*3 6.5 C 1.6 km/h
322 13-01-2020 03:05:00 6.4 C 7 g/m*3 6.4 C 1.6 km/h
323 13-01-2020 03:10:00 6.4 C 7 g/m*3 6.4 C 1.6 km/h
324 13-01-2020 03:15:00 6.4 C 7 g/m*3 6.4 C 1.6 km/h
325 13-01-2020 03:20:00 6.4 C 7 g/m*3 6.4 C 1.6 km/h
Sensor: Nr:Datum:Temp:Abs-Feuchte:Windchill:Wind:
Aussen-T/F 326 13-01-2020 03:25:00 6.3 C 6.96 g/m*3 6.3 C 0 km/h
327 13-01-2020 03:30:00 6.2 C 6.84 g/m*3 6.2 C 1.6 km/h
328 13-01-2020 03:35:00 5.9 C 6.71 g/m*3 5.9 C 0 km/h
329 13-01-2020 03:40:00 5.7 C 6.62 g/m*3 5.7 C 0 km/h
330 13-01-2020 03:45:00 5.6 C 6.57 g/m*3 5.6 C 0 km/h
331 13-01-2020 03:50:00 5.4 C 6.49 g/m*3 5.4 C 0 km/h
332 13-01-2020 03:55:00 5.2 C 6.4 g/m*3 5.2 C 0 km/h
333 13-01-2020 04:00:00 5.1 C 6.36 g/m*3 5.1 C 0 km/h
334 13-01-2020 04:05:00 5 C 6.39 g/m*3 5 C 0 km/h
335 13-01-2020 04:10:00 4.9 C 6.35 g/m*3 4.9 C 3.2 km/h
336 13-01-2020 04:15:00 4.8 C 6.3 g/m*3 4.8 C 1.6 km/h
337 13-01-2020 04:20:00 4.8 C 6.3 g/m*3 3.36 C 6.4 km/h
338 13-01-2020 04:25:00 4.8 C 6.3 g/m*3 4.8 C 3.2 km/h
339 13-01-2020 04:30:00 4.8 C 6.3 g/m*3 4.8 C 3.2 km/h
340 13-01-2020 04:35:00 4.7 C 6.26 g/m*3 4.7 C 3.2 km/h
341 13-01-2020 04:40:00 4.7 C 6.33 g/m*3 4.7 C 3.2 km/h
342 13-01-2020 04:45:00 4.7 C 6.33 g/m*3 4.7 C 3.2 km/h
343 13-01-2020 04:50:00 4.7 C 6.33 g/m*3 4.7 C 1.6 km/h
344 13-01-2020 04:55:00 4.7 C 6.33 g/m*3 4.7 C 1.6 km/h
345 13-01-2020 05:00:00 4.7 C 6.33 g/m*3 4.7 C 1.6 km/h
346 13-01-2020 05:05:00 4.8 C 6.37 g/m*3 4.8 C 3.2 km/h
347 13-01-2020 05:10:00 4.9 C 6.48 g/m*3 4.9 C 1.6 km/h
348 13-01-2020 05:15:00 5 C 6.52 g/m*3 5 C 1.6 km/h
349 13-01-2020 05:20:00 5 C 6.46 g/m*3 5 C 1.6 km/h
350 13-01-2020 05:25:00 5.1 C 6.5 g/m*3 5.1 C 1.6 km/h
Sensor: Nr:Datum:Temp:Abs-Feuchte:Windchill:Wind:
Aussen-T/F 351 13-01-2020 05:30:00 5.1 C 6.57 g/m*3 5.1 C 1.6 km/h
352 13-01-2020 05:35:00 5.2 C 6.61 g/m*3 5.2 C 0 km/h
353 13-01-2020 05:40:00 5.2 C 6.61 g/m*3 5.2 C 1.6 km/h
354 13-01-2020 05:45:00 5.3 C 6.65 g/m*3 5.3 C 1.6 km/h
355 13-01-2020 05:50:00 5.3 C 6.65 g/m*3 5.3 C 0 km/h
356 13-01-2020 05:55:00 5.4 C 6.7 g/m*3 5.4 C 0 km/h
357 13-01-2020 06:00:00 5.4 C 6.7 g/m*3 5.4 C 0 km/h
358 13-01-2020 06:05:00 5.5 C 6.74 g/m*3 5.5 C 0 km/h
359 13-01-2020 06:10:00 5.6 C 6.79 g/m*3 5.6 C 0 km/h
360 13-01-2020 06:15:00 5.6 C 6.79 g/m*3 5.6 C 0 km/h
361 13-01-2020 06:20:00 5.5 C 6.74 g/m*3 5.5 C 3.2 km/h
362 13-01-2020 06:25:00 5.4 C 6.63 g/m*3 5.4 C 0 km/h
363 13-01-2020 06:30:00 5.3 C 6.58 g/m*3 5.3 C 0 km/h
364 13-01-2020 06:35:00 5.2 C 6.54 g/m*3 5.2 C 0 km/h
365 13-01-2020 06:40:00 5.1 C 6.5 g/m*3 5.1 C 0 km/h
366 13-01-2020 06:45:00 5 C 6.46 g/m*3 5 C 0 km/h
367 13-01-2020 06:50:00 4.9 C 6.41 g/m*3 4.9 C 0 km/h
368 13-01-2020 06:55:00 4.9 C 6.41 g/m*3 2.99 C 8.1 km/h
369 13-01-2020 07:00:00 4.9 C 6.41 g/m*3 4.9 C 4.8 km/h
370 13-01-2020 07:05:00 4.9 C 6.41 g/m*3 3.48 C 6.4 km/h
371 13-01-2020 07:10:00 4.8 C 6.37 g/m*3 4.8 C 4.8 km/h
372 13-01-2020 07:15:00 4.8 C 6.37 g/m*3 4.8 C 4.8 km/h
373 13-01-2020 07:20:00 4.8 C 6.37 g/m*3 2.87 C 8.1 km/h
374 13-01-2020 07:25:00 4.8 C 6.37 g/m*3 4.8 C 1.6 km/h
375 13-01-2020 07:30:00 4.7 C 6.33 g/m*3 4.7 C 1.6 km/h
Sensor: Nr:Datum:Temp:Abs-Feuchte:Windchill:Wind:
Aussen-T/F 376 13-01-2020 07:35:00 4.7 C 6.33 g/m*3 4.7 C 0 km/h
377 13-01-2020 07:40:00 4.7 C 6.33 g/m*3 4.7 C 0 km/h
378 13-01-2020 07:45:00 4.7 C 6.33 g/m*3 4.7 C 0 km/h
379 13-01-2020 07:50:00 4.7 C 6.33 g/m*3 4.7 C 0 km/h
380 13-01-2020 07:55:00 4.7 C 6.33 g/m*3 4.7 C 0 km/h
381 13-01-2020 08:00:00 4.7 C 6.33 g/m*3 4.7 C 0 km/h
382 13-01-2020 08:05:00 4.7 C 6.33 g/m*3 4.7 C 0 km/h
383 13-01-2020 08:10:00 4.7 C 6.33 g/m*3 4.7 C 1.6 km/h
384 13-01-2020 08:15:00 4.7 C 6.33 g/m*3 4.7 C 0 km/h
385 13-01-2020 08:20:00 4.8 C 6.37 g/m*3 4.8 C 0 km/h
386 13-01-2020 08:25:00 4.8 C 6.37 g/m*3 4.8 C 1.6 km/h
387 13-01-2020 08:30:00 4.8 C 6.37 g/m*3 4.8 C 0 km/h
388 13-01-2020 08:35:00 4.9 C 6.48 g/m*3 4.9 C 3.2 km/h
389 13-01-2020 08:40:00 5 C 6.46 g/m*3 5 C 3.2 km/h
390 13-01-2020 08:45:00 5.1 C 6.57 g/m*3 5.1 C 3.2 km/h
391 13-01-2020 08:50:00 5.2 C 6.61 g/m*3 5.2 C 1.6 km/h
392 13-01-2020 08:55:00 5.2 C 6.61 g/m*3 5.2 C 0 km/h
393 13-01-2020 09:00:00 5.3 C 6.65 g/m*3 5.3 C 3.2 km/h
394 13-01-2020 09:05:00 5.3 C 6.58 g/m*3 5.3 C 1.6 km/h
395 13-01-2020 09:10:00 5.4 C 6.7 g/m*3 5.4 C 1.6 km/h
396 13-01-2020 09:15:00 5.5 C 6.67 g/m*3 5.5 C 1.6 km/h
397 13-01-2020 09:20:00 5.6 C 6.72 g/m*3 5.6 C 1.6 km/h
398 13-01-2020 09:25:00 5.6 C 6.72 g/m*3 5.6 C 3.2 km/h
399 13-01-2020 09:30:00 5.6 C 6.72 g/m*3 5.6 C 3.2 km/h
400 13-01-2020 09:35:00 5.8 C 6.81 g/m*3 4.52 C 6.4 km/h
Sensor: Nr:Datum:Temp:Abs-Feuchte:Windchill:Wind:
Aussen-T/F 401 13-01-2020 09:40:00 5.8 C 6.81 g/m*3 5.8 C 4.8 km/h
402 13-01-2020 09:45:00 5.9 C 6.85 g/m*3 5.9 C 3.2 km/h
403 13-01-2020 09:50:00 6 C 6.82 g/m*3 6 C 3.2 km/h
404 13-01-2020 09:55:00 6.1 C 6.87 g/m*3 6.1 C 3.2 km/h
405 13-01-2020 10:00:00 6.2 C 6.91 g/m*3 6.2 C 1.6 km/h
406 13-01-2020 10:05:00 6.2 C 6.91 g/m*3 6.2 C 1.6 km/h
407 13-01-2020 10:10:00 6.3 C 6.96 g/m*3 6.3 C 4.8 km/h
408 13-01-2020 10:15:00 6.3 C 6.96 g/m*3 6.3 C 3.2 km/h
409 13-01-2020 10:20:00 6.4 C 7 g/m*3 6.4 C 3.2 km/h
410 13-01-2020 10:25:00 6.5 C 6.97 g/m*3 6.5 C 4.8 km/h
411 13-01-2020 10:30:00 6.7 C 7.07 g/m*3 6.7 C 4.8 km/h
412 13-01-2020 10:35:00 6.8 C 7.11 g/m*3 6.8 C 3.2 km/h
413 13-01-2020 10:40:00 6.9 C 7.08 g/m*3 6.9 C 4.8 km/h
414 13-01-2020 10:45:00 7 C 7.13 g/m*3 5.9 C 6.4 km/h
415 13-01-2020 10:50:00 7.1 C 7.1 g/m*3 4.92 C 11.3 km/h
416 13-01-2020 10:55:00 7.2 C 7.14 g/m*3 5.35 C 9.7 km/h
417 13-01-2020 11:00:00 7.2 C 7.14 g/m*3 5.35 C 9.7 km/h
418 13-01-2020 11:05:00 7.3 C 7.19 g/m*3 6.25 C 6.4 km/h
419 13-01-2020 11:10:00 7.3 C 7.19 g/m*3 6.25 C 6.4 km/h
420 13-01-2020 11:15:00 7.4 C 7.24 g/m*3 7.4 C 4.8 km/h
421 13-01-2020 11:20:00 7.5 C 7.2 g/m*3 6.48 C 6.4 km/h
422 13-01-2020 11:25:00 7.6 C 7.25 g/m*3 6.6 C 6.4 km/h
423 13-01-2020 11:30:00 7.7 C 7.3 g/m*3 7.7 C 0 km/h
424 13-01-2020 11:35:00 7.8 C 7.35 g/m*3 7.8 C 4.8 km/h
425 13-01-2020 11:40:00 7.9 C 7.31 g/m*3 7.9 C 3.2 km/h
Sensor: Nr:Datum:Temp:Abs-Feuchte:Windchill:Wind:
Aussen-T/F 426 13-01-2020 11:45:00 7.9 C 7.31 g/m*3 7.9 C 4.8 km/h
427 13-01-2020 11:50:00 8.1 C 7.41 g/m*3 8.1 C 3.2 km/h
428 13-01-2020 11:55:00 8.1 C 7.41 g/m*3 8.1 C 4.8 km/h
429 13-01-2020 12:00:00 8.2 C 7.45 g/m*3 8.2 C 1.6 km/h
430 13-01-2020 12:05:00 8.2 C 7.45 g/m*3 8.2 C 0 km/h
431 13-01-2020 12:10:00 8.2 C 7.45 g/m*3 8.2 C 3.2 km/h
432 13-01-2020 12:15:00 8.2 C 7.37 g/m*3 7.29 C 6.4 km/h
433 13-01-2020 12:20:00 8.2 C 7.37 g/m*3 8.2 C 3.2 km/h
434 13-01-2020 12:25:00 8.3 C 7.42 g/m*3 8.3 C 1.6 km/h
435 13-01-2020 12:30:00 8.3 C 7.33 g/m*3 8.3 C 4.8 km/h
436 13-01-2020 12:35:00 8.3 C 7.33 g/m*3 8.3 C 3.2 km/h
437 13-01-2020 12:40:00 8.3 C 7.33 g/m*3 8.3 C 3.2 km/h
438 13-01-2020 12:45:00 8.3 C 7.33 g/m*3 8.3 C 0 km/h
439 13-01-2020 12:50:00 8.3 C 7.33 g/m*3 8.3 C 0 km/h
440 13-01-2020 12:55:00 8.3 C 7.33 g/m*3 8.3 C 4.8 km/h
441 13-01-2020 13:00:00 8.3 C 7.42 g/m*3 8.3 C 3.2 km/h
442 13-01-2020 13:05:00 8.3 C 7.5 g/m*3 8.3 C 0 km/h
443 13-01-2020 13:10:00 8.2 C 7.37 g/m*3 8.2 C 4.8 km/h
444 13-01-2020 13:15:00 8.2 C 7.37 g/m*3 8.2 C 4.8 km/h
445 13-01-2020 13:20:00 8.2 C 7.37 g/m*3 8.2 C 1.6 km/h
446 13-01-2020 13:25:00 8.1 C 7.32 g/m*3 8.1 C 3.2 km/h
447 13-01-2020 13:30:00 8.1 C 7.32 g/m*3 8.1 C 3.2 km/h
448 13-01-2020 13:35:00 8.1 C 7.41 g/m*3 8.1 C 3.2 km/h
449 13-01-2020 13:40:00 8.1 C 7.41 g/m*3 7.17 C 6.4 km/h
450 13-01-2020 13:45:00 8.1 C 7.41 g/m*3 8.1 C 3.2 km/h
Sensor: Nr:Datum:Temp:Abs-Feuchte:Windchill:Wind:
Aussen-T/F 451 13-01-2020 13:50:00 8.1 C 7.41 g/m*3 8.1 C 3.2 km/h
452 13-01-2020 13:55:00 8.1 C 7.49 g/m*3 6.75 C 8.1 km/h
453 13-01-2020 14:00:00 7.9 C 7.39 g/m*3 7.9 C 1.6 km/h
454 13-01-2020 14:05:00 7.9 C 7.47 g/m*3 7.9 C 0 km/h
455 13-01-2020 14:10:00 7.9 C 7.47 g/m*3 7.9 C 0 km/h
456 13-01-2020 14:15:00 7.9 C 7.47 g/m*3 7.9 C 0 km/h
457 13-01-2020 14:20:00 7.8 C 7.43 g/m*3 7.8 C 3.2 km/h
458 13-01-2020 14:25:00 7.9 C 7.56 g/m*3 7.9 C 0 km/h
459 13-01-2020 14:30:00 7.9 C 7.56 g/m*3 7.9 C 0 km/h
460 13-01-2020 14:35:00 7.9 C 7.56 g/m*3 7.9 C 0 km/h
461 13-01-2020 14:40:00 7.9 C 7.47 g/m*3 7.9 C 0 km/h
462 13-01-2020 14:45:00 7.9 C 7.47 g/m*3 7.9 C 1.6 km/h
463 13-01-2020 14:50:00 7.8 C 7.26 g/m*3 7.8 C 1.6 km/h
464 13-01-2020 14:55:00 7.8 C 7.18 g/m*3 7.8 C 4.8 km/h
465 13-01-2020 15:00:00 7.9 C 7.31 g/m*3 7.9 C 4.8 km/h
466 13-01-2020 15:05:00 7.9 C 7.31 g/m*3 7.9 C 1.6 km/h
467 13-01-2020 15:10:00 7.9 C 7.31 g/m*3 7.9 C 3.2 km/h
468 13-01-2020 15:15:00 7.9 C 7.23 g/m*3 7.9 C 4.8 km/h
469 13-01-2020 15:20:00 8 C 7.28 g/m*3 8 C 1.6 km/h
470 13-01-2020 15:25:00 7.9 C 7.15 g/m*3 7.9 C 0 km/h
471 13-01-2020 15:30:00 8 C 7.19 g/m*3 8 C 1.6 km/h
472 13-01-2020 15:35:00 8 C 7.19 g/m*3 8 C 0 km/h
473 13-01-2020 15:40:00 8 C 7.19 g/m*3 8 C 0 km/h
474 13-01-2020 15:45:00 8 C 7.11 g/m*3 8 C 0 km/h
475 13-01-2020 15:50:00 8 C 7.11 g/m*3 8 C 0 km/h
Sensor: Nr:Datum:Temp:Abs-Feuchte:Windchill:Wind:
Aussen-T/F 476 13-01-2020 15:55:00 8 C 7.03 g/m*3 7.06 C 6.4 km/h
477 13-01-2020 16:00:00 8 C 7.03 g/m*3 8 C 1.6 km/h
478 13-01-2020 16:05:00 8 C 7.11 g/m*3 8 C 0 km/h
479 13-01-2020 16:10:00 7.9 C 7.06 g/m*3 7.9 C 0 km/h
480 13-01-2020 16:15:00 7.9 C 6.98 g/m*3 7.9 C 0 km/h
481 13-01-2020 16:20:00 7.9 C 7.06 g/m*3 7.9 C 0 km/h
482 13-01-2020 16:25:00 7.9 C 7.06 g/m*3 7.9 C 4.8 km/h
483 13-01-2020 16:30:00 7.8 C 7.02 g/m*3 7.8 C 4.8 km/h
484 13-01-2020 16:35:00 7.8 C 7.02 g/m*3 7.8 C 0 km/h
485 13-01-2020 16:40:00 7.8 C 7.1 g/m*3 7.8 C 0 km/h
486 13-01-2020 16:45:00 7.7 C 7.05 g/m*3 7.7 C 0 km/h
487 13-01-2020 16:50:00 7.6 C 7.01 g/m*3 7.6 C 3.2 km/h
488 13-01-2020 16:55:00 7.5 C 6.96 g/m*3 7.5 C 1.6 km/h
489 13-01-2020 17:00:00 7.4 C 6.92 g/m*3 7.4 C 0 km/h
490 13-01-2020 17:05:00 7.4 C 6.92 g/m*3 7.4 C 1.6 km/h
491 13-01-2020 17:10:00 7.4 C 6.92 g/m*3 7.4 C 1.6 km/h
492 13-01-2020 17:15:00 7.4 C 7 g/m*3 7.4 C 0 km/h
493 13-01-2020 17:20:00 7.3 C 6.87 g/m*3 7.3 C 0 km/h
494 13-01-2020 17:25:00 7.3 C 6.87 g/m*3 7.3 C 0 km/h
495 13-01-2020 17:30:00 7.2 C 6.83 g/m*3 7.2 C 0 km/h
496 13-01-2020 17:35:00 7.2 C 6.91 g/m*3 7.2 C 0 km/h
497 13-01-2020 17:40:00 7 C 6.74 g/m*3 7 C 0 km/h
498 13-01-2020 17:45:00 6.8 C 6.65 g/m*3 6.8 C 0 km/h
499 13-01-2020 17:50:00 6.7 C 6.69 g/m*3 6.7 C 0 km/h
500 13-01-2020 17:55:00 6.6 C 6.72 g/m*3 6.6 C 1.6 km/h
Sensor: Nr:Datum:Temp:Abs-Feuchte:Windchill:Wind:
Aussen-T/F 501 13-01-2020 18:00:00 6.5 C 6.67 g/m*3 6.5 C 0 km/h
502 13-01-2020 18:05:00 6.4 C 6.71 g/m*3 6.4 C 0 km/h
503 13-01-2020 18:10:00 6.3 C 6.66 g/m*3 6.3 C 0 km/h
504 13-01-2020 18:15:00 6.3 C 6.66 g/m*3 6.3 C 3.2 km/h
505 13-01-2020 18:20:00 6.3 C 6.66 g/m*3 6.3 C 3.2 km/h
506 13-01-2020 18:25:00 6.3 C 6.74 g/m*3 6.3 C 0 km/h
507 13-01-2020 18:30:00 6.4 C 6.78 g/m*3 6.4 C 3.2 km/h
508 13-01-2020 18:35:00 6.4 C 6.78 g/m*3 6.4 C 3.2 km/h
509 13-01-2020 18:40:00 6.4 C 6.71 g/m*3 6.4 C 0 km/h
510 13-01-2020 18:45:00 6.4 C 6.71 g/m*3 6.4 C 0 km/h
511 13-01-2020 18:50:00 6.3 C 6.66 g/m*3 6.3 C 0 km/h
512 13-01-2020 18:55:00 6.3 C 6.66 g/m*3 6.3 C 0 km/h
513 13-01-2020 19:00:00 6.3 C 6.66 g/m*3 6.3 C 0 km/h
514 13-01-2020 19:05:00 6.2 C 6.62 g/m*3 6.2 C 0 km/h
515 13-01-2020 19:10:00 6.3 C 6.74 g/m*3 6.3 C 0 km/h
516 13-01-2020 19:15:00 6.3 C 6.74 g/m*3 6.3 C 0 km/h
517 13-01-2020 19:20:00 6.4 C 6.78 g/m*3 6.4 C 0 km/h
518 13-01-2020 19:25:00 6.4 C 6.78 g/m*3 6.4 C 0 km/h
519 13-01-2020 19:30:00 6.6 C 6.87 g/m*3 5.44 C 6.4 km/h
520 13-01-2020 19:35:00 6.7 C 6.84 g/m*3 6.7 C 4.8 km/h
521 13-01-2020 19:40:00 6.8 C 6.88 g/m*3 6.8 C 1.6 km/h
522 13-01-2020 19:45:00 6.8 C 6.88 g/m*3 6.8 C 0 km/h
523 13-01-2020 19:50:00 6.8 C 6.88 g/m*3 6.8 C 0 km/h
524 13-01-2020 19:55:00 6.7 C 6.84 g/m*3 6.7 C 0 km/h
525 13-01-2020 20:00:00 6.6 C 6.79 g/m*3 6.6 C 0 km/h
Sensor: Nr:Datum:Temp:Abs-Feuchte:Windchill:Wind:
Aussen-T/F 526 13-01-2020 20:05:00 6.6 C 6.79 g/m*3 6.6 C 0 km/h
527 13-01-2020 20:10:00 6.5 C 6.82 g/m*3 6.5 C 0 km/h
528 13-01-2020 20:15:00 6.4 C 6.78 g/m*3 6.4 C 0 km/h
529 13-01-2020 20:20:00 6.4 C 6.78 g/m*3 6.4 C 0 km/h
530 13-01-2020 20:25:00 6.4 C 6.78 g/m*3 6.4 C 0 km/h
531 13-01-2020 20:30:00 6.3 C 6.74 g/m*3 6.3 C 0 km/h
532 13-01-2020 20:35:00 6.3 C 6.74 g/m*3 6.3 C 0 km/h
533 13-01-2020 20:40:00 6.3 C 6.81 g/m*3 6.3 C 0 km/h
534 13-01-2020 20:45:00 6.3 C 6.81 g/m*3 6.3 C 0 km/h
535 13-01-2020 20:50:00 6.3 C 6.81 g/m*3 6.3 C 0 km/h
536 13-01-2020 20:55:00 6.3 C 6.81 g/m*3 6.3 C 0 km/h
537 13-01-2020 21:00:00 6.3 C 6.81 g/m*3 6.3 C 0 km/h
538 13-01-2020 21:05:00 6.4 C 6.85 g/m*3 6.4 C 0 km/h
539 13-01-2020 21:10:00 6.4 C 6.85 g/m*3 6.4 C 0 km/h
540 13-01-2020 21:15:00 6.4 C 6.85 g/m*3 6.4 C 0 km/h
541 13-01-2020 21:20:00 6.4 C 6.85 g/m*3 6.4 C 0 km/h
542 13-01-2020 21:25:00 6.3 C 6.81 g/m*3 6.3 C 0 km/h
543 13-01-2020 21:30:00 6.2 C 6.77 g/m*3 6.2 C 0 km/h
544 13-01-2020 21:35:00 6.2 C 6.77 g/m*3 6.2 C 0 km/h
545 13-01-2020 21:40:00 6.3 C 6.81 g/m*3 6.3 C 0 km/h
546 13-01-2020 21:45:00 6.3 C 6.81 g/m*3 6.3 C 0 km/h
547 13-01-2020 21:50:00 6.2 C 6.77 g/m*3 6.2 C 0 km/h
548 13-01-2020 21:55:00 6.2 C 6.77 g/m*3 6.2 C 0 km/h
549 13-01-2020 22:00:00 6.2 C 6.84 g/m*3 6.2 C 0 km/h
550 13-01-2020 22:05:00 6.2 C 6.84 g/m*3 6.2 C 0 km/h
Sensor: Nr:Datum:Temp:Abs-Feuchte:Windchill:Wind:
Aussen-T/F 551 13-01-2020 22:10:00 6.2 C 6.84 g/m*3 6.2 C 0 km/h
552 13-01-2020 22:15:00 6.3 C 6.88 g/m*3 6.3 C 0 km/h
553 13-01-2020 22:20:00 6.3 C 6.88 g/m*3 6.3 C 0 km/h
554 13-01-2020 22:25:00 6.4 C 6.93 g/m*3 6.4 C 1.6 km/h
555 13-01-2020 22:30:00 6.4 C 6.93 g/m*3 6.4 C 3.2 km/h
556 13-01-2020 22:35:00 6.5 C 6.97 g/m*3 6.5 C 0 km/h
557 13-01-2020 22:40:00 6.6 C 7.02 g/m*3 6.6 C 0 km/h
558 13-01-2020 22:45:00 6.6 C 7.02 g/m*3 6.6 C 0 km/h
559 13-01-2020 22:50:00 6.7 C 7.07 g/m*3 6.7 C 3.2 km/h
560 13-01-2020 22:55:00 6.7 C 7.07 g/m*3 6.7 C 0 km/h
561 13-01-2020 23:00:00 6.8 C 7.11 g/m*3 6.8 C 0 km/h
562 13-01-2020 23:05:00 6.8 C 7.11 g/m*3 6.8 C 0 km/h
563 13-01-2020 23:10:00 6.8 C 7.04 g/m*3 6.8 C 0 km/h
564 13-01-2020 23:15:00 6.8 C 7.04 g/m*3 6.8 C 0 km/h
565 13-01-2020 23:20:00 6.8 C 7.11 g/m*3 6.8 C 0 km/h
566 13-01-2020 23:25:00 6.8 C 7.11 g/m*3 6.8 C 0 km/h
567 13-01-2020 23:30:00 6.8 C 7.11 g/m*3 5.22 C 8.1 km/h
568 13-01-2020 23:35:00 6.8 C 7.11 g/m*3 6.8 C 3.2 km/h
569 13-01-2020 23:40:00 6.9 C 7.16 g/m*3 6.9 C 0 km/h
570 13-01-2020 23:45:00 6.9 C 7.16 g/m*3 6.9 C 1.6 km/h
571 13-01-2020 23:50:00 6.9 C 7.16 g/m*3 6.9 C 0 km/h
572 13-01-2020 23:55:00 7 C 7.21 g/m*3 7 C 3.2 km/h
573 14-01-2020 00:00:00 7.1 C 7.25 g/m*3 7.1 C 0 km/h
574 14-01-2020 00:05:00 7.1 C 7.25 g/m*3 7.1 C 3.2 km/h
575 14-01-2020 00:10:00 7.1 C 7.25 g/m*3 7.1 C 1.6 km/h
Sensor: Nr:Datum:Temp:Abs-Feuchte:Windchill:Wind:
Aussen-T/F 576 14-01-2020 00:15:00 7.1 C 7.25 g/m*3 7.1 C 1.6 km/h
577 14-01-2020 00:20:00 7.1 C 7.25 g/m*3 7.1 C 1.6 km/h
578 14-01-2020 00:25:00 7.2 C 7.3 g/m*3 7.2 C 4.8 km/h
579 14-01-2020 00:30:00 7.2 C 7.3 g/m*3 7.2 C 0 km/h
580 14-01-2020 00:35:00 7.2 C 7.3 g/m*3 7.2 C 1.6 km/h
581 14-01-2020 00:40:00 7.2 C 7.3 g/m*3 7.2 C 0 km/h
582 14-01-2020 00:45:00 7.2 C 7.3 g/m*3 7.2 C 1.6 km/h
583 14-01-2020 00:50:00 7.2 C 7.3 g/m*3 7.2 C 0 km/h
584 14-01-2020 00:55:00 7.2 C 7.3 g/m*3 7.2 C 0 km/h
585 14-01-2020 01:00:00 7.1 C 7.25 g/m*3 7.1 C 0 km/h
586 14-01-2020 01:05:00 7.1 C 7.25 g/m*3 7.1 C 0 km/h
587 14-01-2020 01:10:00 7 C 7.13 g/m*3 7 C 0 km/h
588 14-01-2020 01:15:00 6.9 C 7.08 g/m*3 6.9 C 0 km/h
589 14-01-2020 01:20:00 6.8 C 7.04 g/m*3 6.8 C 0 km/h
590 14-01-2020 01:25:00 6.7 C 6.99 g/m*3 6.7 C 0 km/h
591 14-01-2020 01:30:00 6.7 C 6.99 g/m*3 6.7 C 0 km/h
592 14-01-2020 01:35:00 6.6 C 7.02 g/m*3 6.6 C 0 km/h
593 14-01-2020 01:40:00 6.5 C 6.97 g/m*3 6.5 C 4.8 km/h
594 14-01-2020 01:45:00 6.6 C 7.02 g/m*3 6.6 C 1.6 km/h
595 14-01-2020 01:50:00 6.6 C 7.02 g/m*3 6.6 C 0 km/h
596 14-01-2020 01:55:00 6.6 C 7.02 g/m*3 6.6 C 1.6 km/h
597 14-01-2020 02:00:00 6.7 C 7.07 g/m*3 6.7 C 1.6 km/h
598 14-01-2020 02:05:00 6.7 C 7.07 g/m*3 6.7 C 1.6 km/h
599 14-01-2020 02:10:00 6.8 C 7.11 g/m*3 6.8 C 1.6 km/h
600 14-01-2020 02:15:00 6.8 C 7.04 g/m*3 6.8 C 1.6 km/h
Sensor: Nr:Datum:Temp:Abs-Feuchte:Windchill:Wind:
Aussen-T/F 601 14-01-2020 02:20:00 6.9 C 7.08 g/m*3 6.9 C 1.6 km/h
602 14-01-2020 02:25:00 6.9 C 7.08 g/m*3 6.9 C 0 km/h
603 14-01-2020 02:30:00 7 C 7.05 g/m*3 7 C 1.6 km/h
604 14-01-2020 02:35:00 7.1 C 7.1 g/m*3 7.1 C 0 km/h
605 14-01-2020 02:40:00 7.1 C 7.1 g/m*3 7.1 C 4.8 km/h
606 14-01-2020 02:45:00 7.1 C 7.1 g/m*3 7.1 C 4.8 km/h
607 14-01-2020 02:50:00 7 C 7.05 g/m*3 7 C 3.2 km/h
608 14-01-2020 02:55:00 7 C 7.05 g/m*3 7 C 3.2 km/h
609 14-01-2020 03:00:00 7 C 7.05 g/m*3 7 C 1.6 km/h
610 14-01-2020 03:05:00 7.1 C 7.1 g/m*3 7.1 C 0 km/h
611 14-01-2020 03:10:00 7.1 C 7.02 g/m*3 7.1 C 1.6 km/h
612 14-01-2020 03:15:00 7.2 C 7.06 g/m*3 7.2 C 3.2 km/h
613 14-01-2020 03:20:00 7.3 C 7.11 g/m*3 7.3 C 1.6 km/h
614 14-01-2020 03:25:00 7.3 C 7.03 g/m*3 7.3 C 0 km/h
615 14-01-2020 03:30:00 7.2 C 6.99 g/m*3 7.2 C 0 km/h
616 14-01-2020 03:35:00 7.2 C 6.99 g/m*3 7.2 C 1.6 km/h
617 14-01-2020 03:40:00 7.3 C 7.03 g/m*3 7.3 C 3.2 km/h
618 14-01-2020 03:45:00 7.4 C 7 g/m*3 7.4 C 0 km/h
619 14-01-2020 03:50:00 7.4 C 7 g/m*3 7.4 C 0 km/h
620 14-01-2020 03:55:00 7.5 C 7.04 g/m*3 7.5 C 1.6 km/h
621 14-01-2020 04:00:00 7.5 C 7.04 g/m*3 7.5 C 1.6 km/h
622 14-01-2020 04:05:00 7.5 C 7.04 g/m*3 6.48 C 6.4 km/h
623 14-01-2020 04:10:00 7.6 C 7.09 g/m*3 7.6 C 0 km/h
624 14-01-2020 04:15:00 7.6 C 7.09 g/m*3 7.6 C 0 km/h
625 14-01-2020 04:20:00 7.5 C 7.04 g/m*3 7.5 C 3.2 km/h
Sensor: Nr:Datum:Temp:Abs-Feuchte:Windchill:Wind:
Aussen-T/F 626 14-01-2020 04:25:00 7.5 C 6.96 g/m*3 6.48 C 6.4 km/h
627 14-01-2020 04:30:00 7.4 C 6.92 g/m*3 7.4 C 0 km/h
628 14-01-2020 04:35:00 7.4 C 7 g/m*3 7.4 C 3.2 km/h
629 14-01-2020 04:40:00 7.5 C 7.04 g/m*3 7.5 C 1.6 km/h
630 14-01-2020 04:45:00 7.6 C 7.17 g/m*3 7.6 C 3.2 km/h
631 14-01-2020 04:50:00 7.6 C 7.17 g/m*3 7.6 C 1.6 km/h
632 14-01-2020 04:55:00 7.7 C 7.22 g/m*3 6.71 C 6.4 km/h
633 14-01-2020 05:00:00 7.8 C 7.18 g/m*3 7.8 C 3.2 km/h
634 14-01-2020 05:05:00 7.9 C 7.15 g/m*3 6.52 C 8.1 km/h
635 14-01-2020 05:10:00 8 C 7.11 g/m*3 6.01 C 11.3 km/h
636 14-01-2020 05:15:00 8.2 C 7.2 g/m*3 8.2 C 4.8 km/h
637 14-01-2020 05:20:00 8.2 C 7.2 g/m*3 7.29 C 6.4 km/h
638 14-01-2020 05:25:00 8.3 C 7.16 g/m*3 7.41 C 6.4 km/h
639 14-01-2020 05:30:00 8.3 C 7.16 g/m*3 8.3 C 3.2 km/h
640 14-01-2020 05:35:00 8.3 C 7.16 g/m*3 8.3 C 4.8 km/h
641 14-01-2020 05:40:00 8.3 C 7.08 g/m*3 8.3 C 4.8 km/h
642 14-01-2020 05:45:00 8.3 C 7 g/m*3 8.3 C 4.8 km/h
643 14-01-2020 05:50:00 8.3 C 7 g/m*3 8.3 C 1.6 km/h
644 14-01-2020 05:55:00 8.3 C 7 g/m*3 8.3 C 4.8 km/h
645 14-01-2020 06:00:00 8.3 C 7 g/m*3 8.3 C 4.8 km/h
646 14-01-2020 06:05:00 8.3 C 7 g/m*3 8.3 C 0 km/h
647 14-01-2020 06:10:00 8.3 C 7.08 g/m*3 8.3 C 1.6 km/h
648 14-01-2020 06:15:00 8.4 C 7.04 g/m*3 6.78 C 9.7 km/h
649 14-01-2020 06:20:00 8.4 C 7.04 g/m*3 8.4 C 0 km/h
650 14-01-2020 06:25:00 8.3 C 7 g/m*3 8.3 C 3.2 km/h
Sensor: Nr:Datum:Temp:Abs-Feuchte:Windchill:Wind:
Aussen-T/F 651 14-01-2020 06:30:00 8.2 C 6.95 g/m*3 8.2 C 4.8 km/h
652 14-01-2020 06:35:00 8.1 C 6.99 g/m*3 6.75 C 8.1 km/h
653 14-01-2020 06:40:00 8 C 6.94 g/m*3 8 C 3.2 km/h
654 14-01-2020 06:45:00 7.9 C 6.9 g/m*3 7.9 C 4.8 km/h
655 14-01-2020 06:50:00 7.9 C 6.9 g/m*3 7.9 C 4.8 km/h
656 14-01-2020 06:55:00 8 C 6.86 g/m*3 6.64 C 8.1 km/h
657 14-01-2020 07:00:00 8.1 C 6.91 g/m*3 7.17 C 6.4 km/h
658 14-01-2020 07:05:00 8.2 C 6.95 g/m*3 8.2 C 3.2 km/h
659 14-01-2020 07:10:00 8.2 C 6.95 g/m*3 8.2 C 3.2 km/h
660 14-01-2020 07:15:00 8.1 C 6.91 g/m*3 8.1 C 1.6 km/h
661 14-01-2020 07:20:00 8 C 6.86 g/m*3 8 C 1.6 km/h
662 14-01-2020 07:25:00 7.8 C 6.77 g/m*3 7.8 C 3.2 km/h
663 14-01-2020 07:30:00 7.8 C 6.86 g/m*3 7.8 C 1.6 km/h
664 14-01-2020 07:35:00 7.8 C 6.77 g/m*3 6.4 C 8.1 km/h
665 14-01-2020 07:40:00 7.9 C 6.82 g/m*3 6.94 C 6.4 km/h
666 14-01-2020 07:45:00 8.1 C 6.82 g/m*3 6.75 C 8.1 km/h
667 14-01-2020 07:50:00 8.1 C 6.82 g/m*3 7.17 C 6.4 km/h
668 14-01-2020 07:55:00 8.1 C 6.74 g/m*3 7.17 C 6.4 km/h
669 14-01-2020 08:00:00 8.2 C 6.78 g/m*3 6.87 C 8.1 km/h
670 14-01-2020 08:05:00 8.2 C 6.78 g/m*3 6.87 C 8.1 km/h
671 14-01-2020 08:10:00 8.3 C 6.83 g/m*3 5.89 C 14.5 km/h
672 14-01-2020 08:15:00 8.4 C 6.79 g/m*3 6.49 C 11.3 km/h
673 14-01-2020 08:20:00 8.4 C 6.79 g/m*3 6.78 C 9.7 km/h
674 14-01-2020 08:25:00 8.5 C 6.83 g/m*3 6.61 C 11.3 km/h
675 14-01-2020 08:30:00 8.6 C 6.87 g/m*3 7.34 C 8.1 km/h
Sensor: Nr:Datum:Temp:Abs-Feuchte:Windchill:Wind:
Aussen-T/F 676 14-01-2020 08:35:00 8.6 C 6.87 g/m*3 7.75 C 6.4 km/h
677 14-01-2020 08:40:00 8.6 C 6.87 g/m*3 6.48 C 12.9 km/h
678 14-01-2020 08:45:00 8.6 C 6.87 g/m*3 7.34 C 8.1 km/h
679 14-01-2020 08:50:00 8.6 C 6.87 g/m*3 7.01 C 9.7 km/h
680 14-01-2020 08:55:00 8.6 C 6.96 g/m*3 6.73 C 11.3 km/h
681 14-01-2020 09:00:00 8.6 C 6.96 g/m*3 6.25 C 14.5 km/h
682 14-01-2020 09:05:00 8.7 C 6.92 g/m*3 7.13 C 9.7 km/h
683 14-01-2020 09:10:00 8.7 C 6.92 g/m*3 6.85 C 11.3 km/h
684 14-01-2020 09:15:00 8.8 C 6.96 g/m*3 7.25 C 9.7 km/h
685 14-01-2020 09:20:00 8.8 C 6.96 g/m*3 7.25 C 9.7 km/h
686 14-01-2020 09:25:00 8.9 C 7.1 g/m*3 6.85 C 12.9 km/h
687 14-01-2020 09:30:00 8.9 C 7.1 g/m*3 8.1 C 6.4 km/h
688 14-01-2020 09:35:00 8.9 C 7.1 g/m*3 7.37 C 9.7 km/h
689 14-01-2020 09:40:00 8.9 C 7.1 g/m*3 7.69 C 8.1 km/h
690 14-01-2020 09:45:00 9.1 C 7.1 g/m*3 7.61 C 9.7 km/h
691 14-01-2020 09:50:00 9.2 C 7.23 g/m*3 7.21 C 12.9 km/h
692 14-01-2020 09:55:00 9.2 C 7.14 g/m*3 7.46 C 11.3 km/h
693 14-01-2020 10:00:00 9.3 C 7.19 g/m*3 6.12 C 24.1 km/h
694 14-01-2020 10:05:00 9.5 C 7.28 g/m*3 7.16 C 16.1 km/h
695 14-01-2020 10:10:00 9.6 C 7.33 g/m*3 8.91 C 6.4 km/h
696 14-01-2020 10:15:00 9.7 C 7.28 g/m*3 7.82 C 12.9 km/h
697 14-01-2020 10:20:00 9.6 C 7.24 g/m*3 7.94 C 11.3 km/h
698 14-01-2020 10:25:00 9.6 C 7.24 g/m*3 7.7 C 12.9 km/h
699 14-01-2020 10:30:00 9.5 C 7.19 g/m*3 8.4 C 8.1 km/h
700 14-01-2020 10:35:00 9.4 C 7.15 g/m*3 7.97 C 9.7 km/h
Sensor: Nr:Datum:Temp:Abs-Feuchte:Windchill:Wind:
Aussen-T/F 701 14-01-2020 10:40:00 9.4 C 7.15 g/m*3 8.28 C 8.1 km/h
702 14-01-2020 10:45:00 9.4 C 7.15 g/m*3 8.68 C 6.4 km/h
703 14-01-2020 10:50:00 9.4 C 7.15 g/m*3 8.28 C 8.1 km/h
704 14-01-2020 10:55:00 9.4 C 7.15 g/m*3 9.4 C 1.6 km/h
705 14-01-2020 11:00:00 9.5 C 7.19 g/m*3 8.79 C 6.4 km/h
706 14-01-2020 11:05:00 9.6 C 7.15 g/m*3 8.91 C 6.4 km/h
707 14-01-2020 11:10:00 9.7 C 7.19 g/m*3 8.63 C 8.1 km/h
708 14-01-2020 11:15:00 9.7 C 7.1 g/m*3 8.06 C 11.3 km/h
709 14-01-2020 11:20:00 9.8 C 7.14 g/m*3 9.14 C 6.4 km/h
710 14-01-2020 11:25:00 9.8 C 7.05 g/m*3 8.18 C 11.3 km/h
711 14-01-2020 11:30:00 9.9 C 7.1 g/m*3 8.87 C 8.1 km/h
712 14-01-2020 11:35:00 9.9 C 7.1 g/m*3 9.9 C 4.8 km/h
713 14-01-2020 11:40:00 10 C 7.05 g/m*3 9.37 C 6.4 km/h
714 14-01-2020 11:45:00 10 C 7.05 g/m*3 9.37 C 6.4 km/h
715 14-01-2020 11:50:00 10.1 C 7.09 g/m*3 10.1 C 4.8 km/h
716 14-01-2020 11:55:00 10.1 C 7 g/m*3 10.1 C 3.2 km/h
717 14-01-2020 12:00:00 10.1 C 7 g/m*3 9.1 C 8.1 km/h
718 14-01-2020 12:05:00 10.1 C 7 g/m*3 8.54 C 11.3 km/h
719 14-01-2020 12:10:00 10.1 C 7 g/m*3 9.48 C 6.4 km/h
720 14-01-2020 12:15:00 10.1 C 7 g/m*3 9.48 C 6.4 km/h
721 14-01-2020 12:20:00 10.1 C 6.9 g/m*3 10.1 C 3.2 km/h
722 14-01-2020 12:25:00 10.2 C 6.95 g/m*3 8.92 C 9.7 km/h
723 14-01-2020 12:30:00 10.2 C 6.95 g/m*3 9.6 C 6.4 km/h
724 14-01-2020 12:35:00 10.3 C 6.99 g/m*3 8.78 C 11.3 km/h
725 14-01-2020 12:40:00 10.3 C 7.09 g/m*3 10.3 C 4.8 km/h
Sensor: Nr:Datum:Temp:Abs-Feuchte:Windchill:Wind:
Aussen-T/F 726 14-01-2020 12:45:00 10.3 C 6.9 g/m*3 10.3 C 4.8 km/h
727 14-01-2020 12:50:00 10.3 C 6.99 g/m*3 9.34 C 8.1 km/h
728 14-01-2020 12:55:00 10.4 C 7.04 g/m*3 10.4 C 4.8 km/h
729 14-01-2020 13:00:00 10.4 C 7.04 g/m*3 10.4 C 0 km/h
730 14-01-2020 13:05:00 10.5 C 7.08 g/m*3 10.5 C 1.6 km/h
731 14-01-2020 13:10:00 10.5 C 7.27 g/m*3 10.5 C 0 km/h
732 14-01-2020 13:15:00 10.6 C 7.42 g/m*3 10.6 C 0 km/h
733 14-01-2020 13:20:00 10.5 C 7.18 g/m*3 10.5 C 3.2 km/h
734 14-01-2020 13:25:00 10.6 C 7.03 g/m*3 10.6 C 3.2 km/h
735 14-01-2020 13:30:00 10.7 C 7.37 g/m*3 10.7 C 0 km/h
736 14-01-2020 13:35:00 10.7 C 7.27 g/m*3 10.7 C 0 km/h
737 14-01-2020 13:40:00 10.8 C 7.31 g/m*3 10.8 C 0 km/h
738 14-01-2020 13:45:00 10.8 C 7.02 g/m*3 8.3 C 20.9 km/h
739 14-01-2020 13:50:00 11.1 C 7.25 g/m*3 11.1 C 4.8 km/h
740 14-01-2020 13:55:00 11.2 C 7.3 g/m*3 11.2 C 12.9 km/h
741 14-01-2020 14:00:00 11.4 C 7.08 g/m*3 11.4 C 9.7 km/h
742 14-01-2020 14:05:00 11.7 C 7.22 g/m*3 11.7 C 8.1 km/h
743 14-01-2020 14:10:00 11.8 C 7.26 g/m*3 11.8 C 8.1 km/h
744 14-01-2020 14:15:00 11.9 C 7.2 g/m*3 11.9 C 11.3 km/h
745 14-01-2020 14:20:00 12 C 7.03 g/m*3 12 C 12.9 km/h
746 14-01-2020 14:25:00 12.1 C 7.18 g/m*3 12.1 C 9.7 km/h
747 14-01-2020 14:30:00 12.1 C 7.08 g/m*3 12.1 C 16.1 km/h
748 14-01-2020 14:35:00 12.1 C 7.08 g/m*3 12.1 C 6.4 km/h
749 14-01-2020 14:40:00 12.1 C 7.29 g/m*3 12.1 C 9.7 km/h
750 14-01-2020 14:45:00 12.1 C 7.29 g/m*3 12.1 C 0 km/h
Sensor: Nr:Datum:Temp:Abs-Feuchte:Windchill:Wind:
Aussen-T/F 751 14-01-2020 14:50:00 12.1 C 7.18 g/m*3 12.1 C 0 km/h
752 14-01-2020 14:55:00 12.1 C 7.18 g/m*3 12.1 C 6.4 km/h
753 14-01-2020 15:00:00 12.2 C 7.12 g/m*3 12.2 C 12.9 km/h
754 14-01-2020 15:05:00 12.2 C 7.12 g/m*3 12.2 C 19.3 km/h
755 14-01-2020 15:10:00 12.2 C 7.12 g/m*3 12.2 C 17.7 km/h
756 14-01-2020 15:15:00 12.2 C 7.12 g/m*3 12.2 C 4.8 km/h
757 14-01-2020 15:20:00 12.2 C 7.01 g/m*3 12.2 C 14.5 km/h
758 14-01-2020 15:25:00 12.2 C 7.01 g/m*3 12.2 C 9.7 km/h
759 14-01-2020 15:30:00 12.2 C 6.91 g/m*3 12.2 C 6.4 km/h
760 14-01-2020 15:35:00 12.2 C 7.12 g/m*3 12.2 C 4.8 km/h
761 14-01-2020 15:40:00 12.1 C 7.08 g/m*3 12.1 C 3.2 km/h
762 14-01-2020 15:45:00 12 C 7.14 g/m*3 12 C 4.8 km/h
763 14-01-2020 15:50:00 11.9 C 6.99 g/m*3 11.9 C 1.6 km/h
764 14-01-2020 15:55:00 11.8 C 7.16 g/m*3 11.8 C 0 km/h
765 14-01-2020 16:00:00 11.8 C 6.95 g/m*3 11.8 C 8.1 km/h
766 14-01-2020 16:05:00 11.7 C 7.11 g/m*3 11.7 C 3.2 km/h
767 14-01-2020 16:10:00 11.5 C 7.02 g/m*3 11.5 C 8.1 km/h
768 14-01-2020 16:15:00 11.4 C 7.08 g/m*3 11.4 C 8.1 km/h
769 14-01-2020 16:20:00 11.4 C 6.88 g/m*3 11.4 C 4.8 km/h
770 14-01-2020 16:25:00 11.4 C 6.88 g/m*3 11.4 C 0 km/h
771 14-01-2020 16:30:00 11.3 C 6.73 g/m*3 11.3 C 3.2 km/h
772 14-01-2020 16:35:00 11.3 C 6.73 g/m*3 11.3 C 4.8 km/h
773 14-01-2020 16:40:00 11.3 C 6.73 g/m*3 11.3 C 11.3 km/h
774 14-01-2020 16:45:00 11.3 C 6.73 g/m*3 11.3 C 12.9 km/h
775 14-01-2020 16:50:00 11.4 C 6.77 g/m*3 11.4 C 8.1 km/h
Sensor: Nr:Datum:Temp:Abs-Feuchte:Windchill:Wind:
Aussen-T/F 776 14-01-2020 16:55:00 11.3 C 6.63 g/m*3 11.3 C 6.4 km/h
777 14-01-2020 17:00:00 11.3 C 6.83 g/m*3 11.3 C 6.4 km/h
778 14-01-2020 17:05:00 11.3 C 6.73 g/m*3 11.3 C 12.9 km/h
779 14-01-2020 17:10:00 11.3 C 6.73 g/m*3 11.3 C 8.1 km/h
780 14-01-2020 17:15:00 11.2 C 6.79 g/m*3 11.2 C 11.3 km/h
781 14-01-2020 17:20:00 11.2 C 6.79 g/m*3 11.2 C 6.4 km/h
782 14-01-2020 17:25:00 11.2 C 6.79 g/m*3 11.2 C 14.5 km/h
783 14-01-2020 17:30:00 11.2 C 6.89 g/m*3 11.2 C 4.8 km/h
784 14-01-2020 17:35:00 11.1 C 6.85 g/m*3 11.1 C 11.3 km/h
785 14-01-2020 17:40:00 11.2 C 6.89 g/m*3 11.2 C 12.9 km/h
786 14-01-2020 17:45:00 11.2 C 6.89 g/m*3 11.2 C 11.3 km/h
787 14-01-2020 17:50:00 11.3 C 6.94 g/m*3 11.3 C 11.3 km/h
788 14-01-2020 17:55:00 11.3 C 6.94 g/m*3 11.3 C 9.7 km/h
789 14-01-2020 18:00:00 11.3 C 7.04 g/m*3 11.3 C 6.4 km/h
790 14-01-2020 18:05:00 11.3 C 7.04 g/m*3 11.3 C 8.1 km/h
791 14-01-2020 18:10:00 11.3 C 7.14 g/m*3 11.3 C 6.4 km/h
792 14-01-2020 18:15:00 11.3 C 7.14 g/m*3 11.3 C 11.3 km/h
793 14-01-2020 18:20:00 11.3 C 7.14 g/m*3 11.3 C 8.1 km/h
794 14-01-2020 18:25:00 11.3 C 7.14 g/m*3 11.3 C 6.4 km/h
795 14-01-2020 18:30:00 11.3 C 7.14 g/m*3 11.3 C 6.4 km/h
796 14-01-2020 18:35:00 11.3 C 7.24 g/m*3 11.3 C 6.4 km/h
797 14-01-2020 18:40:00 11.3 C 7.34 g/m*3 11.3 C 14.5 km/h
798 14-01-2020 18:45:00 11.3 C 7.34 g/m*3 11.3 C 12.9 km/h
799 14-01-2020 18:50:00 11.4 C 7.49 g/m*3 11.4 C 14.5 km/h
800 14-01-2020 18:55:00 11.4 C 7.6 g/m*3 11.4 C 9.7 km/h
Sensor: Nr:Datum:Temp:Abs-Feuchte:Windchill:Wind:
Aussen-T/F 801 14-01-2020 19:00:00 11.5 C 7.64 g/m*3 11.5 C 16.1 km/h
802 14-01-2020 19:05:00 11.6 C 7.8 g/m*3 11.6 C 19.3 km/h
803 14-01-2020 19:10:00 11.6 C 7.8 g/m*3 11.6 C 12.9 km/h
804 14-01-2020 19:15:00 11.6 C 7.8 g/m*3 11.6 C 12.9 km/h
805 14-01-2020 19:20:00 11.5 C 7.75 g/m*3 11.5 C 16.1 km/h
806 14-01-2020 19:25:00 11.5 C 7.85 g/m*3 11.5 C 12.9 km/h
807 14-01-2020 19:30:00 11.4 C 7.8 g/m*3 11.4 C 4.8 km/h
808 14-01-2020 19:35:00 11.4 C 7.7 g/m*3 11.4 C 14.5 km/h
809 14-01-2020 19:40:00 11.4 C 7.8 g/m*3 11.4 C 9.7 km/h
810 14-01-2020 19:45:00 11.4 C 7.7 g/m*3 11.4 C 9.7 km/h
811 14-01-2020 19:50:00 11.4 C 7.7 g/m*3 11.4 C 16.1 km/h
812 14-01-2020 19:55:00 11.3 C 7.75 g/m*3 11.3 C 11.3 km/h
813 14-01-2020 20:00:00 11.3 C 7.75 g/m*3 11.3 C 11.3 km/h
814 14-01-2020 20:05:00 11.3 C 7.75 g/m*3 11.3 C 8.1 km/h
815 14-01-2020 20:10:00 11.2 C 7.7 g/m*3 11.2 C 11.3 km/h
816 14-01-2020 20:15:00 11.2 C 7.6 g/m*3 11.2 C 17.7 km/h
817 14-01-2020 20:20:00 11.3 C 7.65 g/m*3 11.3 C 9.7 km/h
818 14-01-2020 20:25:00 11.3 C 7.65 g/m*3 11.3 C 14.5 km/h
819 14-01-2020 20:30:00 11.4 C 7.6 g/m*3 11.4 C 19.3 km/h
820 14-01-2020 20:35:00 11.6 C 7.59 g/m*3 11.6 C 14.5 km/h
821 14-01-2020 20:40:00 11.7 C 7.53 g/m*3 11.7 C 17.7 km/h
822 14-01-2020 20:45:00 11.8 C 7.58 g/m*3 11.8 C 11.3 km/h
823 14-01-2020 20:50:00 11.8 C 7.47 g/m*3 11.8 C 14.5 km/h
824 14-01-2020 20:55:00 11.8 C 7.47 g/m*3 11.8 C 17.7 km/h
825 14-01-2020 21:00:00 11.8 C 7.37 g/m*3 11.8 C 17.7 km/h
Sensor: Nr:Datum:Temp:Abs-Feuchte:Windchill:Wind:
Aussen-T/F 826 14-01-2020 21:05:00 11.8 C 7.37 g/m*3 11.8 C 12.9 km/h
827 14-01-2020 21:10:00 11.8 C 7.47 g/m*3 11.8 C 19.3 km/h
828 14-01-2020 21:15:00 11.8 C 7.37 g/m*3 11.8 C 11.3 km/h
829 14-01-2020 21:20:00 11.8 C 7.37 g/m*3 11.8 C 9.7 km/h
830 14-01-2020 21:25:00 11.9 C 7.41 g/m*3 11.9 C 14.5 km/h
831 14-01-2020 21:30:00 11.9 C 7.41 g/m*3 11.9 C 14.5 km/h
832 14-01-2020 21:35:00 12.1 C 7.4 g/m*3 12.1 C 16.1 km/h
833 14-01-2020 21:40:00 12.2 C 7.34 g/m*3 12.2 C 22.5 km/h
834 14-01-2020 21:45:00 12.2 C 7.45 g/m*3 12.2 C 9.7 km/h
835 14-01-2020 21:50:00 12.1 C 7.4 g/m*3 12.1 C 12.9 km/h
836 14-01-2020 21:55:00 12.1 C 7.4 g/m*3 12.1 C 3.2 km/h
837 14-01-2020 22:00:00 11.9 C 7.41 g/m*3 11.9 C 3.2 km/h
838 14-01-2020 22:05:00 11.8 C 7.37 g/m*3 11.8 C 6.4 km/h
839 14-01-2020 22:10:00 11.9 C 7.41 g/m*3 11.9 C 12.9 km/h
840 14-01-2020 22:15:00 12 C 7.57 g/m*3 12 C 3.2 km/h
841 14-01-2020 22:20:00 12 C 7.57 g/m*3 12 C 4.8 km/h
842 14-01-2020 22:25:00 12 C 7.46 g/m*3 12 C 8.1 km/h
843 14-01-2020 22:30:00 12.1 C 7.51 g/m*3 12.1 C 3.2 km/h
844 14-01-2020 22:35:00 12.1 C 7.61 g/m*3 12.1 C 14.5 km/h
845 14-01-2020 22:40:00 12.1 C 7.61 g/m*3 12.1 C 12.9 km/h
846 14-01-2020 22:45:00 11.9 C 7.52 g/m*3 11.9 C 3.2 km/h
847 14-01-2020 22:50:00 11.9 C 7.52 g/m*3 11.9 C 4.8 km/h
848 14-01-2020 22:55:00 11.9 C 7.63 g/m*3 11.9 C 6.4 km/h
849 14-01-2020 23:00:00 11.9 C 7.73 g/m*3 11.9 C 12.9 km/h
850 14-01-2020 23:05:00 12 C 7.67 g/m*3 12 C 9.7 km/h
Sensor: Nr:Datum:Temp:Abs-Feuchte:Windchill:Wind:
Aussen-T/F 851 14-01-2020 23:10:00 12.1 C 7.83 g/m*3 12.1 C 9.7 km/h
852 14-01-2020 23:15:00 12 C 7.67 g/m*3 12 C 3.2 km/h
853 14-01-2020 23:20:00 11.9 C 7.73 g/m*3 11.9 C 9.7 km/h
854 14-01-2020 23:25:00 11.9 C 7.84 g/m*3 11.9 C 11.3 km/h
855 14-01-2020 23:30:00 12.1 C 7.83 g/m*3 12.1 C 9.7 km/h
856 14-01-2020 23:35:00 12.1 C 7.83 g/m*3 12.1 C 6.4 km/h
857 14-01-2020 23:40:00 12.1 C 7.83 g/m*3 12.1 C 6.4 km/h
858 14-01-2020 23:45:00 12 C 7.67 g/m*3 12 C 8.1 km/h
859 14-01-2020 23:50:00 12 C 7.67 g/m*3 12 C 11.3 km/h
860 14-01-2020 23:55:00 11.9 C 7.63 g/m*3 11.9 C 8.1 km/h
861 15-01-2020 00:00:00 12 C 7.57 g/m*3 12 C 8.1 km/h
862 15-01-2020 00:05:00 12.1 C 7.72 g/m*3 12.1 C 6.4 km/h
863 15-01-2020 00:10:00 11.9 C 7.63 g/m*3 11.9 C 8.1 km/h
864 15-01-2020 00:15:00 11.8 C 7.58 g/m*3 11.8 C 4.8 km/h
865 15-01-2020 00:20:00 11.8 C 7.47 g/m*3 11.8 C 8.1 km/h
866 15-01-2020 00:25:00 11.9 C 7.52 g/m*3 11.9 C 9.7 km/h
867 15-01-2020 00:30:00 11.8 C 7.47 g/m*3 11.8 C 3.2 km/h
868 15-01-2020 00:35:00 11.9 C 7.52 g/m*3 11.9 C 11.3 km/h
869 15-01-2020 00:40:00 11.9 C 7.52 g/m*3 11.9 C 0 km/h
870 15-01-2020 00:45:00 11.8 C 7.37 g/m*3 11.8 C 9.7 km/h
871 15-01-2020 00:50:00 11.8 C 7.37 g/m*3 11.8 C 14.5 km/h
872 15-01-2020 00:55:00 11.8 C 7.37 g/m*3 11.8 C 14.5 km/h
873 15-01-2020 01:00:00 11.8 C 7.47 g/m*3 11.8 C 9.7 km/h
874 15-01-2020 01:05:00 11.8 C 7.47 g/m*3 11.8 C 6.4 km/h
875 15-01-2020 01:10:00 11.8 C 7.47 g/m*3 11.8 C 4.8 km/h
Sensor: Nr:Datum:Temp:Abs-Feuchte:Windchill:Wind:
Aussen-T/F 876 15-01-2020 01:15:00 11.7 C 7.43 g/m*3 11.7 C 4.8 km/h
877 15-01-2020 01:20:00 11.7 C 7.53 g/m*3 11.7 C 12.9 km/h
878 15-01-2020 01:25:00 11.6 C 7.48 g/m*3 11.6 C 6.4 km/h
879 15-01-2020 01:30:00 11.5 C 7.44 g/m*3 11.5 C 6.4 km/h
880 15-01-2020 01:35:00 11.4 C 7.39 g/m*3 11.4 C 8.1 km/h
881 15-01-2020 01:40:00 11.3 C 7.45 g/m*3 11.3 C 3.2 km/h
882 15-01-2020 01:45:00 11.3 C 7.45 g/m*3 11.3 C 4.8 km/h
883 15-01-2020 01:50:00 11.3 C 7.45 g/m*3 11.3 C 8.1 km/h
884 15-01-2020 01:55:00 11.3 C 7.45 g/m*3 11.3 C 4.8 km/h
885 15-01-2020 02:00:00 11.3 C 7.55 g/m*3 11.3 C 6.4 km/h
886 15-01-2020 02:05:00 11.2 C 7.5 g/m*3 11.2 C 8.1 km/h
887 15-01-2020 02:10:00 11.1 C 7.55 g/m*3 11.1 C 8.1 km/h
888 15-01-2020 02:15:00 11 C 7.61 g/m*3 11 C 4.8 km/h
889 15-01-2020 02:20:00 10.9 C 7.56 g/m*3 10.41 C 6.4 km/h
890 15-01-2020 02:25:00 10.9 C 7.66 g/m*3 10.41 C 6.4 km/h
891 15-01-2020 02:30:00 10.8 C 7.61 g/m*3 10.8 C 3.2 km/h
892 15-01-2020 02:35:00 10.8 C 7.71 g/m*3 10.29 C 6.4 km/h
893 15-01-2020 02:40:00 10.8 C 7.71 g/m*3 10.8 C 1.6 km/h
894 15-01-2020 02:45:00 10.8 C 7.71 g/m*3 9.93 C 8.1 km/h
895 15-01-2020 02:50:00 10.9 C 7.76 g/m*3 10.9 C 3.2 km/h
896 15-01-2020 02:55:00 10.9 C 7.86 g/m*3 10.9 C 1.6 km/h
897 15-01-2020 03:00:00 10.8 C 7.81 g/m*3 10.8 C 3.2 km/h
898 15-01-2020 03:05:00 10.6 C 7.81 g/m*3 10.6 C 1.6 km/h
899 15-01-2020 03:10:00 10.5 C 7.76 g/m*3 9.57 C 8.1 km/h
900 15-01-2020 03:15:00 10.4 C 7.81 g/m*3 10.4 C 4.8 km/h
Sensor: Nr:Datum:Temp:Abs-Feuchte:Windchill:Wind:
Aussen-T/F 901 15-01-2020 03:20:00 10.6 C 7.91 g/m*3 10.6 C 4.8 km/h
902 15-01-2020 03:25:00 10.7 C 7.86 g/m*3 10.7 C 3.2 km/h
903 15-01-2020 03:30:00 10.6 C 7.81 g/m*3 10.6 C 1.6 km/h
904 15-01-2020 03:35:00 10.6 C 7.91 g/m*3 10.6 C 4.8 km/h
905 15-01-2020 03:40:00 10.4 C 7.81 g/m*3 10.4 C 0 km/h
906 15-01-2020 03:45:00 10.3 C 7.85 g/m*3 10.3 C 0 km/h
907 15-01-2020 03:50:00 10.2 C 7.8 g/m*3 10.2 C 0 km/h
908 15-01-2020 03:55:00 10.1 C 7.85 g/m*3 10.1 C 0 km/h
909 15-01-2020 04:00:00 9.9 C 7.75 g/m*3 9.9 C 0 km/h
910 15-01-2020 04:05:00 9.9 C 7.84 g/m*3 9.9 C 3.2 km/h
911 15-01-2020 04:10:00 9.8 C 7.79 g/m*3 9.8 C 0 km/h
912 15-01-2020 04:15:00 9.8 C 7.79 g/m*3 9.8 C 0 km/h
913 15-01-2020 04:20:00 9.8 C 7.79 g/m*3 9.8 C 1.6 km/h
914 15-01-2020 04:25:00 9.7 C 7.74 g/m*3 9.7 C 1.6 km/h
915 15-01-2020 04:30:00 9.7 C 7.84 g/m*3 9.7 C 1.6 km/h
916 15-01-2020 04:35:00 9.6 C 7.79 g/m*3 9.6 C 3.2 km/h
917 15-01-2020 04:40:00 9.6 C 7.79 g/m*3 9.6 C 3.2 km/h
918 15-01-2020 04:45:00 9.5 C 7.65 g/m*3 9.5 C 0 km/h
919 15-01-2020 04:50:00 9.5 C 7.65 g/m*3 9.5 C 0 km/h
920 15-01-2020 04:55:00 9.4 C 7.51 g/m*3 9.4 C 0 km/h
921 15-01-2020 05:00:00 9.4 C 7.6 g/m*3 9.4 C 4.8 km/h
922 15-01-2020 05:05:00 9.3 C 7.55 g/m*3 9.3 C 0 km/h
923 15-01-2020 05:10:00 9.3 C 7.55 g/m*3 9.3 C 0 km/h
924 15-01-2020 05:15:00 9.3 C 7.55 g/m*3 9.3 C 1.6 km/h
925 15-01-2020 05:20:00 9.4 C 7.6 g/m*3 9.4 C 3.2 km/h
Sensor: Nr:Datum:Temp:Abs-Feuchte:Windchill:Wind:
Aussen-T/F 926 15-01-2020 05:25:00 9.6 C 7.6 g/m*3 8.52 C 8.1 km/h
927 15-01-2020 05:30:00 9.8 C 7.61 g/m*3 9.8 C 4.8 km/h
928 15-01-2020 05:35:00 9.9 C 7.66 g/m*3 9.9 C 4.8 km/h
929 15-01-2020 05:40:00 10 C 7.61 g/m*3 10 C 4.8 km/h
930 15-01-2020 05:45:00 10 C 7.52 g/m*3 8.68 C 9.7 km/h
931 15-01-2020 05:50:00 10.1 C 7.56 g/m*3 9.48 C 6.4 km/h
932 15-01-2020 05:55:00 10.2 C 7.52 g/m*3 10.2 C 3.2 km/h
933 15-01-2020 06:00:00 10.3 C 7.57 g/m*3 10.3 C 1.6 km/h
934 15-01-2020 06:05:00 10.3 C 7.57 g/m*3 9.72 C 6.4 km/h
935 15-01-2020 06:10:00 10.3 C 7.57 g/m*3 10.3 C 3.2 km/h
936 15-01-2020 06:15:00 10.3 C 7.47 g/m*3 10.3 C 3.2 km/h
937 15-01-2020 06:20:00 10.3 C 7.47 g/m*3 9.72 C 6.4 km/h
938 15-01-2020 06:25:00 10.3 C 7.28 g/m*3 9.04 C 9.7 km/h
939 15-01-2020 06:30:00 10.4 C 7.32 g/m*3 9.16 C 9.7 km/h
940 15-01-2020 06:35:00 10.5 C 7.27 g/m*3 9.28 C 9.7 km/h
941 15-01-2020 06:40:00 10.3 C 7.18 g/m*3 9.72 C 6.4 km/h
942 15-01-2020 06:45:00 10.2 C 7.23 g/m*3 10.2 C 0 km/h
943 15-01-2020 06:50:00 9.9 C 7.1 g/m*3 9.9 C 0 km/h
944 15-01-2020 06:55:00 9.6 C 7.15 g/m*3 9.6 C 4.8 km/h
945 15-01-2020 07:00:00 9.3 C 7.01 g/m*3 9.3 C 0 km/h
946 15-01-2020 07:05:00 9.1 C 7.01 g/m*3 9.1 C 0 km/h
947 15-01-2020 07:10:00 8.9 C 7.01 g/m*3 8.9 C 0 km/h
948 15-01-2020 07:15:00 8.7 C 6.92 g/m*3 8.7 C 0 km/h
949 15-01-2020 07:20:00 8.4 C 6.87 g/m*3 8.4 C 3.2 km/h
950 15-01-2020 07:25:00 8.3 C 6.91 g/m*3 8.3 C 1.6 km/h
Sensor: Nr:Datum:Temp:Abs-Feuchte:Windchill:Wind:
Aussen-T/F 951 15-01-2020 07:30:00 8.1 C 6.82 g/m*3 8.1 C 3.2 km/h
952 15-01-2020 07:35:00 8.1 C 6.91 g/m*3 8.1 C 1.6 km/h
953 15-01-2020 07:40:00 8.1 C 6.91 g/m*3 8.1 C 4.8 km/h
954 15-01-2020 07:45:00 8.1 C 6.91 g/m*3 8.1 C 0 km/h
955 15-01-2020 07:50:00 7.9 C 6.82 g/m*3 7.9 C 0 km/h
956 15-01-2020 07:55:00 7.7 C 6.73 g/m*3 7.7 C 0 km/h
957 15-01-2020 08:00:00 7.4 C 6.68 g/m*3 7.4 C 0 km/h
958 15-01-2020 08:05:00 7.2 C 6.59 g/m*3 7.2 C 0 km/h
959 15-01-2020 08:10:00 7 C 6.59 g/m*3 7 C 0 km/h
960 15-01-2020 08:15:00 6.9 C 6.62 g/m*3 6.9 C 0 km/h
961 15-01-2020 08:20:00 6.9 C 6.7 g/m*3 6.9 C 0 km/h
962 15-01-2020 08:25:00 6.9 C 6.7 g/m*3 6.9 C 0 km/h
963 15-01-2020 08:30:00 6.8 C 6.65 g/m*3 6.8 C 0 km/h
964 15-01-2020 08:35:00 6.8 C 6.65 g/m*3 6.8 C 0 km/h
965 15-01-2020 08:40:00 6.8 C 6.65 g/m*3 6.8 C 0 km/h
966 15-01-2020 08:45:00 6.9 C 6.77 g/m*3 6.9 C 1.6 km/h
967 15-01-2020 08:50:00 7 C 6.74 g/m*3 7 C 0 km/h
968 15-01-2020 08:55:00 7.2 C 6.83 g/m*3 6.13 C 6.4 km/h
969 15-01-2020 09:00:00 7.2 C 6.83 g/m*3 7.2 C 1.6 km/h
970 15-01-2020 09:05:00 7.3 C 6.87 g/m*3 7.3 C 1.6 km/h
971 15-01-2020 09:10:00 7.3 C 6.79 g/m*3 7.3 C 3.2 km/h
972 15-01-2020 09:15:00 7.4 C 6.84 g/m*3 7.4 C 1.6 km/h
973 15-01-2020 09:20:00 7.5 C 6.88 g/m*3 7.5 C 1.6 km/h
974 15-01-2020 09:25:00 7.6 C 6.85 g/m*3 7.6 C 1.6 km/h
975 15-01-2020 09:30:00 7.6 C 6.85 g/m*3 7.6 C 0 km/h
Sensor: Nr:Datum:Temp:Abs-Feuchte:Windchill:Wind:
Aussen-T/F 976 15-01-2020 09:35:00 7.6 C 6.93 g/m*3 7.6 C 0 km/h
977 15-01-2020 09:40:00 7.6 C 6.93 g/m*3 7.6 C 1.6 km/h
978 15-01-2020 09:45:00 7.5 C 6.88 g/m*3 7.5 C 0 km/h
979 15-01-2020 09:50:00 7.6 C 7.01 g/m*3 7.6 C 4.8 km/h
980 15-01-2020 09:55:00 7.7 C 7.05 g/m*3 7.7 C 3.2 km/h
981 15-01-2020 10:00:00 7.7 C 7.05 g/m*3 7.7 C 0 km/h
982 15-01-2020 10:05:00 7.8 C 7.02 g/m*3 7.8 C 1.6 km/h
983 15-01-2020 10:10:00 7.9 C 7.06 g/m*3 7.9 C 1.6 km/h
984 15-01-2020 10:15:00 7.9 C 7.06 g/m*3 7.9 C 1.6 km/h
985 15-01-2020 10:20:00 8 C 7.11 g/m*3 8 C 3.2 km/h
986 15-01-2020 10:25:00 8.1 C 7.16 g/m*3 8.1 C 0 km/h
987 15-01-2020 10:30:00 8.1 C 7.16 g/m*3 8.1 C 3.2 km/h
988 15-01-2020 10:35:00 8.1 C 7.07 g/m*3 8.1 C 0 km/h
989 15-01-2020 10:40:00 8.1 C 7.16 g/m*3 8.1 C 3.2 km/h
990 15-01-2020 10:45:00 8.1 C 7.16 g/m*3 8.1 C 4.8 km/h
991 15-01-2020 10:50:00 8.1 C 7.16 g/m*3 8.1 C 1.6 km/h
992 15-01-2020 10:55:00 8.3 C 7.25 g/m*3 8.3 C 0 km/h
993 15-01-2020 11:00:00 8.4 C 7.13 g/m*3 8.4 C 3.2 km/h
994 15-01-2020 11:05:00 8.7 C 7.26 g/m*3 8.7 C 1.6 km/h
995 15-01-2020 11:10:00 9 C 7.41 g/m*3 9 C 4.8 km/h
996 15-01-2020 11:15:00 9.3 C 7.28 g/m*3 8.16 C 8.1 km/h
997 15-01-2020 11:20:00 9.6 C 7.42 g/m*3 9.6 C 0 km/h
998 15-01-2020 11:25:00 9.8 C 7.33 g/m*3 9.8 C 3.2 km/h
999 15-01-2020 11:30:00 10.2 C 7.33 g/m*3 9.6 C 6.4 km/h
1000 15-01-2020 11:35:00 10.6 C 7.42 g/m*3 10.6 C 4.8 km/h
Sensor: Nr:Datum:Temp:Abs-Feuchte:Windchill:Wind:
Aussen-T/F 1001 15-01-2020 11:40:00 10.8 C 7.61 g/m*3 10.8 C 0 km/h
1002 15-01-2020 11:45:00 10.9 C 7.46 g/m*3 10.9 C 3.2 km/h
1003 15-01-2020 11:50:00 11.1 C 7.45 g/m*3 11.1 C 6.4 km/h
1004 15-01-2020 11:55:00 11.2 C 7.5 g/m*3 11.2 C 0 km/h
1005 15-01-2020 12:00:00 11.2 C 7.5 g/m*3 11.2 C 0 km/h
1006 15-01-2020 12:05:00 11.3 C 7.55 g/m*3 11.3 C 4.8 km/h
1007 15-01-2020 12:10:00 11.4 C 7.49 g/m*3 11.4 C 1.6 km/h
1008 15-01-2020 12:15:00 11.5 C 7.33 g/m*3 11.5 C 8.1 km/h
1009 15-01-2020 12:20:00 11.7 C 7.53 g/m*3 11.7 C 4.8 km/h
1010 15-01-2020 12:25:00 11.8 C 7.47 g/m*3 11.8 C 3.2 km/h
1011 15-01-2020 12:30:00 11.8 C 7.37 g/m*3 11.8 C 3.2 km/h
1012 15-01-2020 12:35:00 11.9 C 7.31 g/m*3 11.9 C 8.1 km/h
1013 15-01-2020 12:40:00 12 C 7.35 g/m*3 12 C 4.8 km/h
1014 15-01-2020 12:45:00 12 C 7.46 g/m*3 12 C 6.4 km/h
1015 15-01-2020 12:50:00 12 C 7.35 g/m*3 12 C 8.1 km/h
1016 15-01-2020 12:55:00 12.1 C 7.4 g/m*3 12.1 C 6.4 km/h
1017 15-01-2020 13:00:00 12.1 C 7.61 g/m*3 12.1 C 6.4 km/h
1018 15-01-2020 13:05:00 12.2 C 7.45 g/m*3 12.2 C 8.1 km/h
1019 15-01-2020 13:10:00 12.3 C 7.6 g/m*3 12.3 C 4.8 km/h
1020 15-01-2020 13:15:00 12.4 C 7.54 g/m*3 12.4 C 1.6 km/h
1021 15-01-2020 13:20:00 12.5 C 7.59 g/m*3 12.5 C 8.1 km/h
1022 15-01-2020 13:25:00 12.7 C 7.46 g/m*3 12.7 C 9.7 km/h
1023 15-01-2020 13:30:00 12.8 C 7.28 g/m*3 12.8 C 14.5 km/h
1024 15-01-2020 13:35:00 12.9 C 7.44 g/m*3 12.9 C 6.4 km/h
1025 15-01-2020 13:40:00 12.8 C 7.39 g/m*3 12.8 C 8.1 km/h
Sensor: Nr:Datum:Temp:Abs-Feuchte:Windchill:Wind:
Aussen-T/F 1026 15-01-2020 13:45:00 12.8 C 7.5 g/m*3 12.8 C 8.1 km/h
1027 15-01-2020 13:50:00 12.7 C 7.46 g/m*3 12.7 C 6.4 km/h
1028 15-01-2020 13:55:00 12.7 C 7.46 g/m*3 12.7 C 4.8 km/h
1029 15-01-2020 14:00:00 12.6 C 7.63 g/m*3 12.6 C 1.6 km/h
1030 15-01-2020 14:05:00 12.4 C 7.54 g/m*3 12.4 C 3.2 km/h
1031 15-01-2020 14:10:00 12.3 C 7.49 g/m*3 12.3 C 4.8 km/h
1032 15-01-2020 14:15:00 12.1 C 7.4 g/m*3 12.1 C 1.6 km/h
1033 15-01-2020 14:20:00 12.1 C 7.51 g/m*3 12.1 C 9.7 km/h
1034 15-01-2020 14:25:00 12.1 C 7.51 g/m*3 12.1 C 4.8 km/h
1035 15-01-2020 14:30:00 12.2 C 7.55 g/m*3 12.2 C 3.2 km/h
1036 15-01-2020 14:35:00 12.2 C 7.55 g/m*3 12.2 C 9.7 km/h
1037 15-01-2020 14:40:00 12.2 C 7.55 g/m*3 12.2 C 4.8 km/h
1038 15-01-2020 14:45:00 12.3 C 7.6 g/m*3 12.3 C 6.4 km/h
1039 15-01-2020 14:50:00 12.5 C 7.7 g/m*3 12.5 C 6.4 km/h
1040 15-01-2020 14:55:00 12.6 C 7.85 g/m*3 12.6 C 11.3 km/h
1041 15-01-2020 15:00:00 12.9 C 7.55 g/m*3 12.9 C 16.1 km/h
1042 15-01-2020 15:05:00 13.1 C 7.53 g/m*3 13.1 C 9.7 km/h
1043 15-01-2020 15:10:00 13.1 C 7.53 g/m*3 13.1 C 4.8 km/h
1044 15-01-2020 15:15:00 13.2 C 7.46 g/m*3 13.2 C 19.3 km/h
1045 15-01-2020 15:20:00 13.3 C 7.51 g/m*3 13.3 C 19.3 km/h
1046 15-01-2020 15:25:00 13.3 C 7.51 g/m*3 13.3 C 11.3 km/h
1047 15-01-2020 15:30:00 13.3 C 7.51 g/m*3 13.3 C 22.5 km/h
1048 15-01-2020 15:35:00 13.3 C 7.51 g/m*3 13.3 C 16.1 km/h
1049 15-01-2020 15:40:00 13.3 C 7.39 g/m*3 13.3 C 11.3 km/h
1050 15-01-2020 15:45:00 13.3 C 7.51 g/m*3 13.3 C 6.4 km/h
Sensor: Nr:Datum:Temp:Abs-Feuchte:Windchill:Wind:
Aussen-T/F 1051 15-01-2020 15:50:00 13.2 C 7.46 g/m*3 13.2 C 9.7 km/h
1052 15-01-2020 15:55:00 13.2 C 7.46 g/m*3 13.2 C 16.1 km/h
1053 15-01-2020 16:00:00 13.3 C 7.51 g/m*3 13.3 C 3.2 km/h
1054 15-01-2020 16:05:00 13.3 C 7.51 g/m*3 13.3 C 3.2 km/h
1055 15-01-2020 16:10:00 13.3 C 7.63 g/m*3 13.3 C 8.1 km/h
1056 15-01-2020 16:15:00 13.2 C 7.58 g/m*3 13.2 C 14.5 km/h
1057 15-01-2020 16:20:00 13.2 C 7.69 g/m*3 13.2 C 4.8 km/h
1058 15-01-2020 16:25:00 13.1 C 7.65 g/m*3 13.1 C 4.8 km/h
1059 15-01-2020 16:30:00 13.1 C 7.53 g/m*3 13.1 C 9.7 km/h
1060 15-01-2020 16:35:00 13.1 C 7.65 g/m*3 13.1 C 3.2 km/h
1061 15-01-2020 16:40:00 13 C 7.48 g/m*3 13 C 9.7 km/h
1062 15-01-2020 16:45:00 12.9 C 7.55 g/m*3 12.9 C 3.2 km/h
1063 15-01-2020 16:50:00 12.8 C 7.5 g/m*3 12.8 C 3.2 km/h
1064 15-01-2020 16:55:00 12.8 C 7.73 g/m*3 12.8 C 0 km/h
1065 15-01-2020 17:00:00 12.6 C 7.63 g/m*3 12.6 C 1.6 km/h
1066 15-01-2020 17:05:00 12.6 C 7.63 g/m*3 12.6 C 4.8 km/h
1067 15-01-2020 17:10:00 12.5 C 7.59 g/m*3 12.5 C 4.8 km/h
1068 15-01-2020 17:15:00 12.4 C 7.65 g/m*3 12.4 C 8.1 km/h
1069 15-01-2020 17:20:00 12.4 C 7.76 g/m*3 12.4 C 4.8 km/h
1070 15-01-2020 17:25:00 12.3 C 7.6 g/m*3 12.3 C 4.8 km/h
1071 15-01-2020 17:30:00 12.4 C 7.65 g/m*3 12.4 C 6.4 km/h
1072 15-01-2020 17:35:00 12.4 C 7.65 g/m*3 12.4 C 3.2 km/h
1073 15-01-2020 17:40:00 12.4 C 7.76 g/m*3 12.4 C 0 km/h
1074 15-01-2020 17:45:00 12.3 C 7.71 g/m*3 12.3 C 0 km/h
1075 15-01-2020 17:50:00 12.2 C 7.77 g/m*3 12.2 C 0 km/h
Sensor: Nr:Datum:Temp:Abs-Feuchte:Windchill:Wind:
Aussen-T/F 1076 15-01-2020 17:55:00 12.1 C 7.83 g/m*3 12.1 C 0 km/h
1077 15-01-2020 18:00:00 11.9 C 7.73 g/m*3 11.9 C 0 km/h
1078 15-01-2020 18:05:00 11.8 C 7.68 g/m*3 11.8 C 0 km/h
1079 15-01-2020 18:10:00 11.8 C 7.58 g/m*3 11.8 C 0 km/h
1080 15-01-2020 18:15:00 11.9 C 7.73 g/m*3 11.9 C 0 km/h
1081 15-01-2020 18:20:00 11.8 C 7.68 g/m*3 11.8 C 0 km/h
1082 15-01-2020 18:25:00 11.8 C 7.58 g/m*3 11.8 C 4.8 km/h
1083 15-01-2020 18:30:00 11.9 C 7.73 g/m*3 11.9 C 6.4 km/h
1084 15-01-2020 18:35:00 12 C 7.67 g/m*3 12 C 6.4 km/h
1085 15-01-2020 18:40:00 12.1 C 7.72 g/m*3 12.1 C 1.6 km/h
1086 15-01-2020 18:45:00 12.2 C 7.66 g/m*3 12.2 C 4.8 km/h
1087 15-01-2020 18:50:00 12.3 C 7.6 g/m*3 12.3 C 8.1 km/h
1088 15-01-2020 18:55:00 12.5 C 7.7 g/m*3 12.5 C 4.8 km/h
1089 15-01-2020 19:00:00 12.6 C 7.85 g/m*3 12.6 C 4.8 km/h
1090 15-01-2020 19:05:00 12.6 C 7.74 g/m*3 12.6 C 3.2 km/h
1091 15-01-2020 19:10:00 12.6 C 7.63 g/m*3 12.6 C 4.8 km/h
1092 15-01-2020 19:15:00 12.7 C 7.79 g/m*3 12.7 C 3.2 km/h
1093 15-01-2020 19:20:00 12.7 C 7.68 g/m*3 12.7 C 4.8 km/h
1094 15-01-2020 19:25:00 12.6 C 7.85 g/m*3 12.6 C 1.6 km/h
1095 15-01-2020 19:30:00 12.5 C 7.7 g/m*3 12.5 C 4.8 km/h
1096 15-01-2020 19:35:00 12.6 C 7.85 g/m*3 12.6 C 14.5 km/h
1097 15-01-2020 19:40:00 12.7 C 7.79 g/m*3 12.7 C 11.3 km/h
1098 15-01-2020 19:45:00 12.8 C 7.73 g/m*3 12.8 C 8.1 km/h
1099 15-01-2020 19:50:00 12.9 C 7.78 g/m*3 12.9 C 16.1 km/h
1100 15-01-2020 19:55:00 12.9 C 7.78 g/m*3 12.9 C 11.3 km/h
Sensor: Nr:Datum:Temp:Abs-Feuchte:Windchill:Wind:
Aussen-T/F 1101 15-01-2020 20:00:00 13 C 7.83 g/m*3 13 C 11.3 km/h
1102 15-01-2020 20:05:00 13 C 7.94 g/m*3 13 C 16.1 km/h
1103 15-01-2020 20:10:00 13.1 C 7.99 g/m*3 13.1 C 19.3 km/h
1104 15-01-2020 20:15:00 13 C 7.94 g/m*3 13 C 16.1 km/h
1105 15-01-2020 20:20:00 13.1 C 7.99 g/m*3 13.1 C 12.9 km/h
1106 15-01-2020 20:25:00 12.9 C 8 g/m*3 12.9 C 11.3 km/h
1107 15-01-2020 20:30:00 12.9 C 8 g/m*3 12.9 C 9.7 km/h
1108 15-01-2020 20:35:00 12.8 C 7.95 g/m*3 12.8 C 11.3 km/h
1109 15-01-2020 20:40:00 12.8 C 7.95 g/m*3 12.8 C 17.7 km/h
1110 15-01-2020 20:45:00 12.8 C 7.95 g/m*3 12.8 C 11.3 km/h
1111 15-01-2020 20:50:00 12.8 C 7.95 g/m*3 12.8 C 9.7 km/h
1112 15-01-2020 20:55:00 12.8 C 7.95 g/m*3 12.8 C 11.3 km/h
1113 15-01-2020 21:00:00 12.8 C 7.95 g/m*3 12.8 C 9.7 km/h
1114 15-01-2020 21:05:00 12.8 C 7.95 g/m*3 12.8 C 14.5 km/h
1115 15-01-2020 21:10:00 12.8 C 7.95 g/m*3 12.8 C 14.5 km/h
1116 15-01-2020 21:15:00 12.9 C 8 g/m*3 12.9 C 19.3 km/h
1117 15-01-2020 21:20:00 12.8 C 8.06 g/m*3 12.8 C 16.1 km/h
1118 15-01-2020 21:25:00 12.8 C 8.06 g/m*3 12.8 C 11.3 km/h
1119 15-01-2020 21:30:00 12.8 C 8.06 g/m*3 12.8 C 14.5 km/h
1120 15-01-2020 21:35:00 12.7 C 8.01 g/m*3 12.7 C 14.5 km/h
1121 15-01-2020 21:40:00 12.7 C 8.35 g/m*3 12.7 C 12.9 km/h
1122 15-01-2020 21:45:00 12.6 C 8.63 g/m*3 12.6 C 11.3 km/h
1123 15-01-2020 21:50:00 12.3 C 8.69 g/m*3 12.3 C 6.4 km/h
1124 15-01-2020 21:55:00 12 C 8.74 g/m*3 12 C 4.8 km/h
1125 15-01-2020 22:00:00 11.7 C 8.68 g/m*3 11.7 C 4.8 km/h
Sensor: Nr:Datum:Temp:Abs-Feuchte:Windchill:Wind:
Aussen-T/F 1126 15-01-2020 22:05:00 11.4 C 8.62 g/m*3 11.4 C 4.8 km/h
1127 15-01-2020 22:10:00 11.3 C 8.67 g/m*3 11.3 C 3.2 km/h
1128 15-01-2020 22:15:00 11.1 C 8.76 g/m*3 11.1 C 4.8 km/h
1129 15-01-2020 22:20:00 10.9 C 8.65 g/m*3 10.9 C 1.6 km/h
1130 15-01-2020 22:25:00 10.8 C 8.7 g/m*3 10.8 C 3.2 km/h
1131 15-01-2020 22:30:00 10.7 C 8.74 g/m*3 10.7 C 1.6 km/h
1132 15-01-2020 22:35:00 10.6 C 8.69 g/m*3 10.6 C 1.6 km/h
1133 15-01-2020 22:40:00 10.4 C 8.67 g/m*3 10.4 C 1.6 km/h
1134 15-01-2020 22:45:00 10.3 C 8.71 g/m*3 10.3 C 4.8 km/h
1135 15-01-2020 22:50:00 10.3 C 8.71 g/m*3 10.3 C 1.6 km/h
1136 15-01-2020 22:55:00 10.2 C 8.66 g/m*3 10.2 C 0 km/h
1137 15-01-2020 23:00:00 10.1 C 8.61 g/m*3 10.1 C 3.2 km/h
1138 15-01-2020 23:05:00 10 C 8.55 g/m*3 10 C 4.8 km/h
1139 15-01-2020 23:10:00 10 C 8.64 g/m*3 10 C 3.2 km/h
1140 15-01-2020 23:15:00 9.9 C 8.59 g/m*3 9.9 C 4.8 km/h
1141 15-01-2020 23:20:00 9.8 C 8.54 g/m*3 9.8 C 4.8 km/h
1142 15-01-2020 23:25:00 9.8 C 8.54 g/m*3 9.8 C 4.8 km/h
1143 15-01-2020 23:30:00 9.8 C 8.54 g/m*3 9.8 C 3.2 km/h
1144 15-01-2020 23:35:00 9.7 C 8.39 g/m*3 9.7 C 3.2 km/h
1145 15-01-2020 23:40:00 9.6 C 8.34 g/m*3 9.6 C 4.8 km/h
1146 15-01-2020 23:45:00 9.4 C 8.32 g/m*3 9.4 C 3.2 km/h
1147 15-01-2020 23:50:00 9.3 C 8.27 g/m*3 8.56 C 6.4 km/h
1148 15-01-2020 23:55:00 9.2 C 8.22 g/m*3 9.2 C 4.8 km/h
1149 16-01-2020 00:00:00 9.2 C 8.22 g/m*3 8.05 C 8.1 km/h
1150 16-01-2020 00:05:00 9.3 C 8.27 g/m*3 7.58 C 11.3 km/h
Sensor: Nr:Datum:Temp:Abs-Feuchte:Windchill:Wind:
Aussen-T/F 1151 16-01-2020 00:10:00 9.2 C 8.13 g/m*3 9.2 C 3.2 km/h
1152 16-01-2020 00:15:00 9.1 C 8.07 g/m*3 9.1 C 1.6 km/h
1153 16-01-2020 00:20:00 9.1 C 8.16 g/m*3 9.1 C 3.2 km/h
1154 16-01-2020 00:25:00 9.3 C 8.27 g/m*3 8.16 C 8.1 km/h
1155 16-01-2020 00:30:00 9.3 C 8.27 g/m*3 9.3 C 0 km/h
1156 16-01-2020 00:35:00 9.3 C 8.27 g/m*3 9.3 C 0 km/h
1157 16-01-2020 00:40:00 9.3 C 8.27 g/m*3 9.3 C 0 km/h
1158 16-01-2020 00:45:00 9.3 C 8.27 g/m*3 9.3 C 0 km/h
1159 16-01-2020 00:50:00 9.3 C 8.27 g/m*3 9.3 C 0 km/h
1160 16-01-2020 00:55:00 9.4 C 8.32 g/m*3 9.4 C 0 km/h
1161 16-01-2020 01:00:00 9.4 C 8.41 g/m*3 9.4 C 0 km/h
1162 16-01-2020 01:05:00 9.4 C 8.41 g/m*3 9.4 C 1.6 km/h
1163 16-01-2020 01:10:00 9.4 C 8.41 g/m*3 9.4 C 0 km/h
1164 16-01-2020 01:15:00 9.4 C 8.41 g/m*3 9.4 C 4.8 km/h
1165 16-01-2020 01:20:00 9.5 C 8.47 g/m*3 9.5 C 3.2 km/h
1166 16-01-2020 01:25:00 9.5 C 8.47 g/m*3 9.5 C 1.6 km/h
1167 16-01-2020 01:30:00 9.5 C 8.47 g/m*3 9.5 C 1.6 km/h
1168 16-01-2020 01:35:00 9.6 C 8.52 g/m*3 9.6 C 1.6 km/h
1169 16-01-2020 01:40:00 9.6 C 8.52 g/m*3 9.6 C 0 km/h
1170 16-01-2020 01:45:00 9.6 C 8.52 g/m*3 9.6 C 0 km/h
1171 16-01-2020 01:50:00 9.6 C 8.52 g/m*3 9.6 C 0 km/h
1172 16-01-2020 01:55:00 9.5 C 8.47 g/m*3 9.5 C 0 km/h
1173 16-01-2020 02:00:00 9.4 C 8.41 g/m*3 9.4 C 0 km/h
1174 16-01-2020 02:05:00 9.4 C 8.41 g/m*3 9.4 C 0 km/h
1175 16-01-2020 02:10:00 9.4 C 8.41 g/m*3 9.4 C 0 km/h
Sensor: Nr:Datum:Temp:Abs-Feuchte:Windchill:Wind:
Aussen-T/F 1176 16-01-2020 02:15:00 9.4 C 8.41 g/m*3 9.4 C 0 km/h
1177 16-01-2020 02:20:00 9.3 C 8.36 g/m*3 9.3 C 1.6 km/h
1178 16-01-2020 02:25:00 9.3 C 8.36 g/m*3 9.3 C 0 km/h
1179 16-01-2020 02:30:00 9.3 C 8.36 g/m*3 9.3 C 0 km/h
1180 16-01-2020 02:35:00 9.3 C 8.36 g/m*3 9.3 C 0 km/h
1181 16-01-2020 02:40:00 9.3 C 8.45 g/m*3 9.3 C 0 km/h
1182 16-01-2020 02:45:00 9.4 C 8.5 g/m*3 9.4 C 0 km/h
1183 16-01-2020 02:50:00 9.4 C 8.5 g/m*3 9.4 C 1.6 km/h
1184 16-01-2020 02:55:00 9.4 C 8.5 g/m*3 9.4 C 0 km/h
1185 16-01-2020 03:00:00 9.4 C 8.5 g/m*3 9.4 C 0 km/h
1186 16-01-2020 03:05:00 9.4 C 8.5 g/m*3 9.4 C 0 km/h
1187 16-01-2020 03:10:00 9.4 C 8.5 g/m*3 9.4 C 0 km/h
1188 16-01-2020 03:15:00 9.4 C 8.5 g/m*3 9.4 C 0 km/h
1189 16-01-2020 03:20:00 9.4 C 8.59 g/m*3 9.4 C 3.2 km/h
1190 16-01-2020 03:25:00 9.4 C 8.59 g/m*3 9.4 C 0 km/h
1191 16-01-2020 03:30:00 9.4 C 8.59 g/m*3 9.4 C 0 km/h
1192 16-01-2020 03:35:00 9.4 C 8.59 g/m*3 9.4 C 0 km/h
1193 16-01-2020 03:40:00 9.4 C 8.59 g/m*3 9.4 C 0 km/h
1194 16-01-2020 03:45:00 9.4 C 8.59 g/m*3 9.4 C 3.2 km/h
1195 16-01-2020 03:50:00 9.4 C 8.59 g/m*3 9.4 C 3.2 km/h
1196 16-01-2020 03:55:00 9.4 C 8.59 g/m*3 9.4 C 0 km/h
1197 16-01-2020 04:00:00 9.4 C 8.59 g/m*3 9.4 C 0 km/h
1198 16-01-2020 04:05:00 9.4 C 8.59 g/m*3 9.4 C 0 km/h
1199 16-01-2020 04:10:00 9.3 C 8.54 g/m*3 9.3 C 0 km/h
1200 16-01-2020 04:15:00 9.3 C 8.54 g/m*3 9.3 C 0 km/h
Sensor: Nr:Datum:Temp:Abs-Feuchte:Windchill:Wind:
Aussen-T/F 1201 16-01-2020 04:20:00 9.3 C 8.54 g/m*3 9.3 C 0 km/h
1202 16-01-2020 04:25:00 9.3 C 8.54 g/m*3 9.3 C 0 km/h
1203 16-01-2020 04:30:00 9.3 C 8.54 g/m*3 9.3 C 0 km/h
1204 16-01-2020 04:35:00 9.3 C 8.54 g/m*3 9.3 C 0 km/h
1205 16-01-2020 04:40:00 9.3 C 8.54 g/m*3 9.3 C 0 km/h
1206 16-01-2020 04:45:00 9.2 C 8.48 g/m*3 9.2 C 0 km/h
1207 16-01-2020 04:50:00 9.1 C 8.43 g/m*3 9.1 C 0 km/h
1208 16-01-2020 04:55:00 9.1 C 8.43 g/m*3 9.1 C 0 km/h
1209 16-01-2020 05:00:00 9.1 C 8.43 g/m*3 9.1 C 0 km/h
1210 16-01-2020 05:05:00 9.1 C 8.52 g/m*3 9.1 C 3.2 km/h
1211 16-01-2020 05:10:00 9.2 C 8.57 g/m*3 9.2 C 0 km/h
1212 16-01-2020 05:15:00 9.1 C 8.52 g/m*3 9.1 C 0 km/h
1213 16-01-2020 05:20:00 9.1 C 8.43 g/m*3 9.1 C 0 km/h
1214 16-01-2020 05:25:00 9 C 8.38 g/m*3 9 C 0 km/h
1215 16-01-2020 05:30:00 8.9 C 8.32 g/m*3 8.9 C 0 km/h
1216 16-01-2020 05:35:00 8.8 C 8.27 g/m*3 8.8 C 0 km/h
1217 16-01-2020 05:40:00 8.6 C 8.16 g/m*3 8.6 C 0 km/h
1218 16-01-2020 05:45:00 8.4 C 8.06 g/m*3 8.4 C 0 km/h
1219 16-01-2020 05:50:00 8.3 C 8.01 g/m*3 8.3 C 0 km/h
1220 16-01-2020 05:55:00 8.4 C 8.14 g/m*3 8.4 C 0 km/h
1221 16-01-2020 06:00:00 8.4 C 8.14 g/m*3 8.4 C 0 km/h
1222 16-01-2020 06:05:00 8.6 C 8.25 g/m*3 8.6 C 0 km/h
1223 16-01-2020 06:10:00 8.6 C 8.25 g/m*3 8.6 C 0 km/h
1224 16-01-2020 06:15:00 8.6 C 8.25 g/m*3 8.6 C 0 km/h
1225 16-01-2020 06:20:00 8.4 C 8.14 g/m*3 8.4 C 1.6 km/h
Sensor: Nr:Datum:Temp:Abs-Feuchte:Windchill:Wind:
Aussen-T/F 1226 16-01-2020 06:25:00 8.3 C 8.09 g/m*3 8.3 C 0 km/h
1227 16-01-2020 06:30:00 8.1 C 7.9 g/m*3 8.1 C 0 km/h
1228 16-01-2020 06:35:00 7.9 C 7.8 g/m*3 7.9 C 0 km/h
1229 16-01-2020 06:40:00 7.9 C 7.8 g/m*3 7.9 C 0 km/h
1230 16-01-2020 06:45:00 7.9 C 7.89 g/m*3 7.9 C 0 km/h
1231 16-01-2020 06:50:00 7.9 C 7.89 g/m*3 7.9 C 0 km/h
1232 16-01-2020 06:55:00 7.9 C 7.89 g/m*3 7.9 C 0 km/h
1233 16-01-2020 07:00:00 7.8 C 7.83 g/m*3 7.8 C 0 km/h
1234 16-01-2020 07:05:00 7.6 C 7.65 g/m*3 7.6 C 0 km/h
1235 16-01-2020 07:10:00 7.5 C 7.6 g/m*3 7.5 C 0 km/h
1236 16-01-2020 07:15:00 7.3 C 7.51 g/m*3 7.3 C 0 km/h
1237 16-01-2020 07:20:00 7.1 C 7.41 g/m*3 7.1 C 0 km/h
1238 16-01-2020 07:25:00 7 C 7.36 g/m*3 7 C 0 km/h
1239 16-01-2020 07:30:00 7.1 C 7.49 g/m*3 7.1 C 0 km/h
1240 16-01-2020 07:35:00 7.2 C 7.54 g/m*3 7.2 C 0 km/h
1241 16-01-2020 07:40:00 7.3 C 7.58 g/m*3 7.3 C 0 km/h
1242 16-01-2020 07:45:00 7.4 C 7.63 g/m*3 7.4 C 0 km/h
1243 16-01-2020 07:50:00 7.6 C 7.73 g/m*3 7.6 C 0 km/h
1244 16-01-2020 07:55:00 7.6 C 7.73 g/m*3 7.6 C 0 km/h
1245 16-01-2020 08:00:00 7.6 C 7.73 g/m*3 7.6 C 0 km/h
1246 16-01-2020 08:05:00 7.6 C 7.73 g/m*3 7.6 C 0 km/h
1247 16-01-2020 08:10:00 7.4 C 7.63 g/m*3 7.4 C 0 km/h
1248 16-01-2020 08:15:00 7.3 C 7.58 g/m*3 7.3 C 0 km/h
1249 16-01-2020 08:20:00 7.2 C 7.54 g/m*3 7.2 C 0 km/h
1250 16-01-2020 08:25:00 7.1 C 7.49 g/m*3 7.1 C 0 km/h
Sensor: Nr:Datum:Temp:Abs-Feuchte:Windchill:Wind:
Aussen-T/F 1251 16-01-2020 08:30:00 6.9 C 7.39 g/m*3 6.9 C 0 km/h
1252 16-01-2020 08:35:00 6.9 C 7.39 g/m*3 6.9 C 0 km/h
1253 16-01-2020 08:40:00 6.8 C 7.34 g/m*3 6.8 C 0 km/h
1254 16-01-2020 08:45:00 6.6 C 7.25 g/m*3 6.6 C 0 km/h
1255 16-01-2020 08:50:00 6.4 C 7.15 g/m*3 6.4 C 0 km/h
1256 16-01-2020 08:55:00 6.3 C 7.11 g/m*3 6.3 C 0 km/h
1257 16-01-2020 09:00:00 6.2 C 7.06 g/m*3 6.2 C 0 km/h
1258 16-01-2020 09:05:00 6.2 C 7.06 g/m*3 6.2 C 0 km/h
1259 16-01-2020 09:10:00 6.1 C 7.01 g/m*3 6.1 C 0 km/h
1260 16-01-2020 09:15:00 6.1 C 7.01 g/m*3 6.1 C 0 km/h
1261 16-01-2020 09:20:00 6.1 C 7.01 g/m*3 6.1 C 0 km/h
1262 16-01-2020 09:25:00 6.2 C 7.06 g/m*3 6.2 C 0 km/h
1263 16-01-2020 09:30:00 6.3 C 7.11 g/m*3 6.3 C 0 km/h
1264 16-01-2020 09:35:00 6.3 C 7.11 g/m*3 6.3 C 0 km/h
1265 16-01-2020 09:40:00 6.2 C 7.06 g/m*3 6.2 C 0 km/h
1266 16-01-2020 09:45:00 6.3 C 7.11 g/m*3 6.3 C 0 km/h
1267 16-01-2020 09:50:00 6.4 C 7.23 g/m*3 6.4 C 0 km/h
1268 16-01-2020 09:55:00 6.5 C 7.27 g/m*3 6.5 C 0 km/h
1269 16-01-2020 10:00:00 6.7 C 7.37 g/m*3 6.7 C 0 km/h
1270 16-01-2020 10:05:00 6.8 C 7.42 g/m*3 6.8 C 0 km/h
1271 16-01-2020 10:10:00 6.9 C 7.47 g/m*3 6.9 C 0 km/h
1272 16-01-2020 10:15:00 6.9 C 7.47 g/m*3 6.9 C 0 km/h
1273 16-01-2020 10:20:00 7.1 C 7.57 g/m*3 7.1 C 0 km/h
1274 16-01-2020 10:25:00 7.1 C 7.57 g/m*3 7.1 C 0 km/h
1275 16-01-2020 10:30:00 7.2 C 7.61 g/m*3 7.2 C 0 km/h
Sensor: Nr:Datum:Temp:Abs-Feuchte:Windchill:Wind:
Aussen-T/F 1276 16-01-2020 10:35:00 7.3 C 7.66 g/m*3 7.3 C 0 km/h
1277 16-01-2020 10:40:00 7.3 C 7.66 g/m*3 7.3 C 0 km/h
1278 16-01-2020 10:45:00 7.3 C 7.66 g/m*3 7.3 C 0 km/h
1279 16-01-2020 10:50:00 7.3 C 7.66 g/m*3 7.3 C 0 km/h
1280 16-01-2020 10:55:00 7.3 C 7.66 g/m*3 7.3 C 0 km/h
1281 16-01-2020 11:00:00 7.3 C 7.66 g/m*3 7.3 C 0 km/h
1282 16-01-2020 11:05:00 7.4 C 7.71 g/m*3 7.4 C 0 km/h
1283 16-01-2020 11:10:00 7.4 C 7.71 g/m*3 7.4 C 0 km/h
1284 16-01-2020 11:15:00 7.5 C 7.76 g/m*3 7.5 C 0 km/h
1285 16-01-2020 11:20:00 7.5 C 7.76 g/m*3 7.5 C 0 km/h
1286 16-01-2020 11:25:00 7.5 C 7.76 g/m*3 7.5 C 0 km/h
1287 16-01-2020 11:30:00 7.5 C 7.76 g/m*3 7.5 C 0 km/h
1288 16-01-2020 11:35:00 7.5 C 7.76 g/m*3 7.5 C 0 km/h
1289 16-01-2020 11:40:00 7.6 C 7.81 g/m*3 7.6 C 0 km/h
1290 16-01-2020 11:45:00 7.5 C 7.76 g/m*3 7.5 C 0 km/h
1291 16-01-2020 11:50:00 7.5 C 7.76 g/m*3 7.5 C 0 km/h
1292 16-01-2020 11:55:00 7.5 C 7.76 g/m*3 7.5 C 0 km/h
1293 16-01-2020 12:00:00 7.5 C 7.76 g/m*3 7.5 C 0 km/h
1294 16-01-2020 12:05:00 7.4 C 7.71 g/m*3 7.4 C 0 km/h
1295 16-01-2020 12:10:00 7.4 C 7.71 g/m*3 7.4 C 1.6 km/h
1296 16-01-2020 12:15:00 7.3 C 7.66 g/m*3 7.3 C 3.2 km/h
1297 16-01-2020 12:20:00 7.3 C 7.66 g/m*3 7.3 C 0 km/h
1298 16-01-2020 12:25:00 7.2 C 7.61 g/m*3 7.2 C 0 km/h
1299 16-01-2020 12:30:00 7.1 C 7.57 g/m*3 7.1 C 1.6 km/h
1300 16-01-2020 12:35:00 7.1 C 7.57 g/m*3 7.1 C 0 km/h
Sensor: Nr:Datum:Temp:Abs-Feuchte:Windchill:Wind:
Aussen-T/F 1301 16-01-2020 12:40:00 7.1 C 7.57 g/m*3 7.1 C 1.6 km/h
1302 16-01-2020 12:45:00 7.2 C 7.61 g/m*3 7.2 C 3.2 km/h
1303 16-01-2020 12:50:00 7.3 C 7.66 g/m*3 7.3 C 1.6 km/h
1304 16-01-2020 12:55:00 7.5 C 7.76 g/m*3 7.5 C 1.6 km/h
1305 16-01-2020 13:00:00 7.7 C 7.87 g/m*3 7.7 C 0 km/h
1306 16-01-2020 13:05:00 7.9 C 8.05 g/m*3 7.9 C 1.6 km/h
1307 16-01-2020 13:10:00 8.1 C 8.15 g/m*3 7.17 C 6.4 km/h
1308 16-01-2020 13:15:00 8.2 C 8.12 g/m*3 8.2 C 3.2 km/h
1309 16-01-2020 13:20:00 8.3 C 8.26 g/m*3 8.3 C 4.8 km/h
1310 16-01-2020 13:25:00 8.3 C 8.26 g/m*3 8.3 C 0 km/h
1311 16-01-2020 13:30:00 8.3 C 8.26 g/m*3 8.3 C 3.2 km/h
1312 16-01-2020 13:35:00 8.3 C 8.18 g/m*3 6.99 C 8.1 km/h
1313 16-01-2020 13:40:00 8.3 C 8.18 g/m*3 8.3 C 1.6 km/h
1314 16-01-2020 13:45:00 8.3 C 8.18 g/m*3 8.3 C 0 km/h
1315 16-01-2020 13:50:00 8.3 C 8.18 g/m*3 7.41 C 6.4 km/h
1316 16-01-2020 13:55:00 8.3 C 8.18 g/m*3 8.3 C 4.8 km/h
1317 16-01-2020 14:00:00 8.3 C 8.18 g/m*3 8.3 C 3.2 km/h
1318 16-01-2020 14:05:00 8.4 C 8.23 g/m*3 8.4 C 3.2 km/h
1319 16-01-2020 14:10:00 8.4 C 8.23 g/m*3 8.4 C 1.6 km/h
1320 16-01-2020 14:15:00 8.5 C 8.28 g/m*3 8.5 C 3.2 km/h
1321 16-01-2020 14:20:00 8.6 C 8.34 g/m*3 8.6 C 1.6 km/h
1322 16-01-2020 14:25:00 8.7 C 8.39 g/m*3 8.7 C 4.8 km/h
1323 16-01-2020 14:30:00 8.8 C 8.44 g/m*3 8.8 C 0 km/h
1324 16-01-2020 14:35:00 9 C 8.55 g/m*3 9 C 0 km/h
1325 16-01-2020 14:40:00 9.1 C 8.61 g/m*3 9.1 C 0 km/h
Sensor: Nr:Datum:Temp:Abs-Feuchte:Windchill:Wind:
Aussen-T/F 1326 16-01-2020 14:45:00 9.1 C 8.61 g/m*3 9.1 C 3.2 km/h
1327 16-01-2020 14:50:00 9 C 8.55 g/m*3 9 C 1.6 km/h
1328 16-01-2020 14:55:00 9 C 8.55 g/m*3 9 C 1.6 km/h
1329 16-01-2020 15:00:00 8.9 C 8.5 g/m*3 8.9 C 1.6 km/h
1330 16-01-2020 15:05:00 8.9 C 8.41 g/m*3 8.9 C 4.8 km/h
1331 16-01-2020 15:10:00 8.9 C 8.41 g/m*3 8.9 C 1.6 km/h
1332 16-01-2020 15:15:00 8.8 C 8.36 g/m*3 8.8 C 0 km/h
1333 16-01-2020 15:20:00 8.8 C 8.36 g/m*3 8.8 C 1.6 km/h
1334 16-01-2020 15:25:00 8.8 C 8.36 g/m*3 8.8 C 4.8 km/h
1335 16-01-2020 15:30:00 8.8 C 8.27 g/m*3 8.8 C 3.2 km/h
1336 16-01-2020 15:35:00 8.8 C 8.27 g/m*3 8.8 C 1.6 km/h
1337 16-01-2020 15:40:00 8.8 C 8.27 g/m*3 8.8 C 4.8 km/h
1338 16-01-2020 15:45:00 8.8 C 8.27 g/m*3 8.8 C 4.8 km/h
1339 16-01-2020 15:50:00 8.7 C 8.22 g/m*3 8.7 C 3.2 km/h
1340 16-01-2020 15:55:00 8.7 C 8.22 g/m*3 8.7 C 1.6 km/h
1341 16-01-2020 16:00:00 8.7 C 8.22 g/m*3 8.7 C 1.6 km/h
1342 16-01-2020 16:05:00 8.7 C 8.22 g/m*3 8.7 C 3.2 km/h
1343 16-01-2020 16:10:00 8.6 C 8.08 g/m*3 8.6 C 1.6 km/h
1344 16-01-2020 16:15:00 8.4 C 7.97 g/m*3 8.4 C 1.6 km/h
1345 16-01-2020 16:20:00 8.4 C 7.97 g/m*3 8.4 C 0 km/h
1346 16-01-2020 16:25:00 8.4 C 8.06 g/m*3 8.4 C 0 km/h
1347 16-01-2020 16:30:00 8.3 C 7.92 g/m*3 8.3 C 0 km/h
1348 16-01-2020 16:35:00 8.3 C 8.01 g/m*3 8.3 C 0 km/h
1349 16-01-2020 16:40:00 8.2 C 7.96 g/m*3 8.2 C 0 km/h
1350 16-01-2020 16:45:00 8.2 C 7.96 g/m*3 8.2 C 0 km/h
Sensor: Nr:Datum:Temp:Abs-Feuchte:Windchill:Wind:
Aussen-T/F 1351 16-01-2020 16:50:00 8.2 C 7.96 g/m*3 8.2 C 0 km/h
1352 16-01-2020 16:55:00 8.1 C 7.82 g/m*3 8.1 C 0 km/h
1353 16-01-2020 17:00:00 8 C 7.85 g/m*3 8 C 0 km/h
1354 16-01-2020 17:05:00 7.9 C 7.8 g/m*3 7.9 C 4.8 km/h
1355 16-01-2020 17:10:00 7.8 C 7.75 g/m*3 7.8 C 4.8 km/h
1356 16-01-2020 17:15:00 7.8 C 7.75 g/m*3 7.8 C 3.2 km/h
1357 16-01-2020 17:20:00 7.7 C 7.7 g/m*3 7.7 C 3.2 km/h
1358 16-01-2020 17:25:00 7.7 C 7.7 g/m*3 7.7 C 4.8 km/h
1359 16-01-2020 17:30:00 7.6 C 7.65 g/m*3 7.6 C 4.8 km/h
1360 16-01-2020 17:35:00 7.6 C 7.65 g/m*3 7.6 C 4.8 km/h
1361 16-01-2020 17:40:00 7.5 C 7.6 g/m*3 7.5 C 3.2 km/h
1362 16-01-2020 17:45:00 7.4 C 7.55 g/m*3 7.4 C 3.2 km/h
1363 16-01-2020 17:50:00 7.4 C 7.55 g/m*3 7.4 C 3.2 km/h
1364 16-01-2020 17:55:00 7.3 C 7.51 g/m*3 7.3 C 4.8 km/h
1365 16-01-2020 18:00:00 7.3 C 7.51 g/m*3 7.3 C 3.2 km/h
1366 16-01-2020 18:05:00 7.3 C 7.51 g/m*3 7.3 C 0 km/h
1367 16-01-2020 18:10:00 7.2 C 7.46 g/m*3 7.2 C 0 km/h
1368 16-01-2020 18:15:00 7.2 C 7.46 g/m*3 7.2 C 4.8 km/h
1369 16-01-2020 18:20:00 7.2 C 7.46 g/m*3 7.2 C 0 km/h
1370 16-01-2020 18:25:00 7.1 C 7.41 g/m*3 7.1 C 3.2 km/h
1371 16-01-2020 18:30:00 7.1 C 7.41 g/m*3 7.1 C 1.6 km/h
1372 16-01-2020 18:35:00 7.1 C 7.41 g/m*3 7.1 C 3.2 km/h
1373 16-01-2020 18:40:00 7 C 7.36 g/m*3 7 C 3.2 km/h
1374 16-01-2020 18:45:00 6.9 C 7.31 g/m*3 6.9 C 3.2 km/h
1375 16-01-2020 18:50:00 6.9 C 7.31 g/m*3 6.9 C 3.2 km/h
Sensor: Nr:Datum:Temp:Abs-Feuchte:Windchill:Wind:
Aussen-T/F 1376 16-01-2020 18:55:00 6.8 C 7.27 g/m*3 6.8 C 1.6 km/h
1377 16-01-2020 19:00:00 6.8 C 7.34 g/m*3 6.8 C 0 km/h
1378 16-01-2020 19:05:00 6.8 C 7.34 g/m*3 6.8 C 0 km/h
1379 16-01-2020 19:10:00 6.8 C 7.34 g/m*3 6.8 C 0 km/h
1380 16-01-2020 19:15:00 6.8 C 7.34 g/m*3 6.8 C 3.2 km/h
1381 16-01-2020 19:20:00 6.7 C 7.29 g/m*3 6.7 C 3.2 km/h
1382 16-01-2020 19:25:00 6.7 C 7.22 g/m*3 6.7 C 3.2 km/h
1383 16-01-2020 19:30:00 6.6 C 7.25 g/m*3 6.6 C 1.6 km/h
1384 16-01-2020 19:35:00 6.6 C 7.25 g/m*3 6.6 C 3.2 km/h
1385 16-01-2020 19:40:00 6.6 C 7.25 g/m*3 6.6 C 1.6 km/h
1386 16-01-2020 19:45:00 6.5 C 7.2 g/m*3 6.5 C 0 km/h
1387 16-01-2020 19:50:00 6.5 C 7.2 g/m*3 6.5 C 1.6 km/h
1388 16-01-2020 19:55:00 6.4 C 7.15 g/m*3 6.4 C 0 km/h
1389 16-01-2020 20:00:00 6.4 C 7.15 g/m*3 6.4 C 3.2 km/h
1390 16-01-2020 20:05:00 6.4 C 7.15 g/m*3 6.4 C 1.6 km/h
1391 16-01-2020 20:10:00 6.4 C 7.15 g/m*3 6.4 C 3.2 km/h
1392 16-01-2020 20:15:00 6.4 C 7.15 g/m*3 6.4 C 3.2 km/h
1393 16-01-2020 20:20:00 6.4 C 7.15 g/m*3 6.4 C 3.2 km/h
1394 16-01-2020 20:25:00 6.5 C 7.2 g/m*3 6.5 C 3.2 km/h
1395 16-01-2020 20:30:00 6.6 C 7.25 g/m*3 6.6 C 3.2 km/h
1396 16-01-2020 20:35:00 6.7 C 7.37 g/m*3 6.7 C 1.6 km/h
1397 16-01-2020 20:40:00 6.8 C 7.34 g/m*3 6.8 C 1.6 km/h
1398 16-01-2020 20:45:00 6.7 C 7.29 g/m*3 6.7 C 1.6 km/h
1399 16-01-2020 20:50:00 6.6 C 7.25 g/m*3 6.6 C 0 km/h
1400 16-01-2020 20:55:00 6.5 C 7.2 g/m*3 6.5 C 1.6 km/h
Sensor: Nr:Datum:Temp:Abs-Feuchte:Windchill:Wind:
Aussen-T/F 1401 16-01-2020 21:00:00 6.4 C 7.15 g/m*3 6.4 C 3.2 km/h
1402 16-01-2020 21:05:00 6.4 C 7.15 g/m*3 6.4 C 0 km/h
1403 16-01-2020 21:10:00 6.3 C 7.11 g/m*3 6.3 C 0 km/h
1404 16-01-2020 21:15:00 6.3 C 7.11 g/m*3 6.3 C 0 km/h
1405 16-01-2020 21:20:00 6.2 C 7.06 g/m*3 6.2 C 0 km/h
1406 16-01-2020 21:25:00 6.2 C 7.06 g/m*3 6.2 C 0 km/h
1407 16-01-2020 21:30:00 6.2 C 7.06 g/m*3 6.2 C 3.2 km/h
1408 16-01-2020 21:35:00 6.2 C 7.06 g/m*3 6.2 C 0 km/h
1409 16-01-2020 21:40:00 6.2 C 7.06 g/m*3 6.2 C 0 km/h
1410 16-01-2020 21:45:00 6.2 C 7.06 g/m*3 6.2 C 0 km/h
1411 16-01-2020 21:50:00 6.1 C 7.01 g/m*3 6.1 C 3.2 km/h
1412 16-01-2020 21:55:00 6.1 C 7.01 g/m*3 6.1 C 3.2 km/h
1413 16-01-2020 22:00:00 6.1 C 7.01 g/m*3 6.1 C 0 km/h
1414 16-01-2020 22:05:00 6 C 6.97 g/m*3 6 C 0 km/h
1415 16-01-2020 22:10:00 6.1 C 7.01 g/m*3 6.1 C 3.2 km/h
1416 16-01-2020 22:15:00 6.1 C 7.01 g/m*3 6.1 C 1.6 km/h
1417 16-01-2020 22:20:00 6.1 C 7.01 g/m*3 6.1 C 4.8 km/h
1418 16-01-2020 22:25:00 6.1 C 7.01 g/m*3 6.1 C 3.2 km/h
1419 16-01-2020 22:30:00 6.1 C 7.01 g/m*3 6.1 C 4.8 km/h
1420 16-01-2020 22:35:00 6.1 C 7.01 g/m*3 6.1 C 3.2 km/h
1421 16-01-2020 22:40:00 6.1 C 7.01 g/m*3 6.1 C 3.2 km/h
1422 16-01-2020 22:45:00 6.2 C 7.06 g/m*3 6.2 C 1.6 km/h
1423 16-01-2020 22:50:00 6.2 C 7.06 g/m*3 6.2 C 1.6 km/h
1424 16-01-2020 22:55:00 6.1 C 7.01 g/m*3 6.1 C 1.6 km/h
1425 16-01-2020 23:00:00 6.1 C 7.01 g/m*3 6.1 C 3.2 km/h
Sensor: Nr:Datum:Temp:Abs-Feuchte:Windchill:Wind:
Aussen-T/F 1426 16-01-2020 23:05:00 6.2 C 7.06 g/m*3 6.2 C 4.8 km/h
1427 16-01-2020 23:10:00 6.3 C 7.11 g/m*3 6.3 C 1.6 km/h
1428 16-01-2020 23:15:00 6.4 C 7.15 g/m*3 6.4 C 4.8 km/h
1429 16-01-2020 23:20:00 6.4 C 7.15 g/m*3 5.21 C 6.4 km/h
1430 16-01-2020 23:25:00 6.8 C 7.34 g/m*3 5.67 C 6.4 km/h
1431 16-01-2020 23:30:00 7.2 C 7.54 g/m*3 5.69 C 8.1 km/h
1432 16-01-2020 23:35:00 7.3 C 7.51 g/m*3 6.25 C 6.4 km/h
1433 16-01-2020 23:40:00 7.4 C 7.48 g/m*3 7.4 C 4.8 km/h
1434 16-01-2020 23:45:00 7.3 C 7.35 g/m*3 7.3 C 4.8 km/h
1435 16-01-2020 23:50:00 7.2 C 7.3 g/m*3 7.2 C 0 km/h
1436 16-01-2020 23:55:00 6.9 C 7.08 g/m*3 6.9 C 4.8 km/h
1437 17-01-2020 00:00:00 6.8 C 7.11 g/m*3 6.8 C 1.6 km/h
1438 17-01-2020 00:05:00 6.7 C 7.07 g/m*3 6.7 C 0 km/h
1439 17-01-2020 00:10:00 6.6 C 7.02 g/m*3 6.6 C 3.2 km/h
1440 17-01-2020 00:15:00 6.5 C 6.97 g/m*3 6.5 C 1.6 km/h
1441 17-01-2020 00:20:00 6.5 C 6.97 g/m*3 6.5 C 3.2 km/h
1442 17-01-2020 00:25:00 6.4 C 6.93 g/m*3 6.4 C 3.2 km/h
1443 17-01-2020 00:30:00 6.4 C 7 g/m*3 6.4 C 3.2 km/h
1444 17-01-2020 00:35:00 6.3 C 6.96 g/m*3 6.3 C 3.2 km/h
1445 17-01-2020 00:40:00 6.2 C 6.91 g/m*3 6.2 C 3.2 km/h
1446 17-01-2020 00:45:00 6.2 C 6.91 g/m*3 6.2 C 1.6 km/h
1447 17-01-2020 00:50:00 6.1 C 6.87 g/m*3 6.1 C 1.6 km/h
1448 17-01-2020 00:55:00 6.1 C 6.87 g/m*3 6.1 C 3.2 km/h
1449 17-01-2020 01:00:00 6 C 6.82 g/m*3 6 C 3.2 km/h
1450 17-01-2020 01:05:00 5.9 C 6.78 g/m*3 5.9 C 3.2 km/h
Sensor: Nr:Datum:Temp:Abs-Feuchte:Windchill:Wind:
Aussen-T/F 1451 17-01-2020 01:10:00 5.9 C 6.78 g/m*3 5.9 C 3.2 km/h
1452 17-01-2020 01:15:00 5.8 C 6.73 g/m*3 5.8 C 3.2 km/h
1453 17-01-2020 01:20:00 5.8 C 6.73 g/m*3 5.8 C 0 km/h
1454 17-01-2020 01:25:00 5.7 C 6.69 g/m*3 5.7 C 0 km/h
1455 17-01-2020 01:30:00 5.7 C 6.69 g/m*3 5.7 C 0 km/h
1456 17-01-2020 01:35:00 5.6 C 6.65 g/m*3 5.6 C 0 km/h
1457 17-01-2020 01:40:00 5.6 C 6.72 g/m*3 5.6 C 0 km/h
1458 17-01-2020 01:45:00 5.5 C 6.67 g/m*3 5.5 C 0 km/h
1459 17-01-2020 01:50:00 5.5 C 6.67 g/m*3 5.5 C 0 km/h
1460 17-01-2020 01:55:00 5.4 C 6.63 g/m*3 5.4 C 0 km/h
1461 17-01-2020 02:00:00 5.7 C 6.76 g/m*3 3.56 C 9.7 km/h
1462 17-01-2020 02:05:00 6.2 C 7.06 g/m*3 4.15 C 9.7 km/h
1463 17-01-2020 02:10:00 6.1 C 6.94 g/m*3 6.1 C 1.6 km/h
1464 17-01-2020 02:15:00 5.8 C 6.73 g/m*3 5.8 C 1.6 km/h
1465 17-01-2020 02:20:00 5.6 C 6.65 g/m*3 5.6 C 3.2 km/h
1466 17-01-2020 02:25:00 5.4 C 6.56 g/m*3 5.4 C 0 km/h
1467 17-01-2020 02:30:00 5.3 C 6.52 g/m*3 5.3 C 3.2 km/h
1468 17-01-2020 02:35:00 5.1 C 6.43 g/m*3 5.1 C 0 km/h
1469 17-01-2020 02:40:00 5.1 C 6.43 g/m*3 5.1 C 1.6 km/h
1470 17-01-2020 02:45:00 4.9 C 6.35 g/m*3 4.9 C 0 km/h
1471 17-01-2020 02:50:00 4.9 C 6.41 g/m*3 4.9 C 3.2 km/h
1472 17-01-2020 02:55:00 4.9 C 6.41 g/m*3 4.9 C 3.2 km/h
1473 17-01-2020 03:00:00 4.9 C 6.41 g/m*3 4.9 C 1.6 km/h
1474 17-01-2020 03:05:00 4.8 C 6.37 g/m*3 4.8 C 1.6 km/h
1475 17-01-2020 03:10:00 4.8 C 6.37 g/m*3 4.8 C 0 km/h
Sensor: Nr:Datum:Temp:Abs-Feuchte:Windchill:Wind:
Aussen-T/F 1476 17-01-2020 03:15:00 4.7 C 6.33 g/m*3 4.7 C 3.2 km/h
1477 17-01-2020 03:20:00 4.7 C 6.33 g/m*3 4.7 C 1.6 km/h
1478 17-01-2020 03:25:00 4.6 C 6.29 g/m*3 4.6 C 1.6 km/h
1479 17-01-2020 03:30:00 4.6 C 6.29 g/m*3 4.6 C 1.6 km/h
1480 17-01-2020 03:35:00 4.7 C 6.33 g/m*3 4.7 C 1.6 km/h
1481 17-01-2020 03:40:00 4.7 C 6.33 g/m*3 4.7 C 1.6 km/h
1482 17-01-2020 03:45:00 4.6 C 6.29 g/m*3 4.6 C 0 km/h
1483 17-01-2020 03:50:00 4.5 C 6.24 g/m*3 4.5 C 1.6 km/h
1484 17-01-2020 03:55:00 4.5 C 6.31 g/m*3 4.5 C 1.6 km/h
1485 17-01-2020 04:00:00 4.6 C 6.35 g/m*3 4.6 C 0 km/h
1486 17-01-2020 04:05:00 4.7 C 6.39 g/m*3 4.7 C 0 km/h
1487 17-01-2020 04:10:00 4.7 C 6.39 g/m*3 4.7 C 3.2 km/h
1488 17-01-2020 04:15:00 4.7 C 6.39 g/m*3 4.7 C 0 km/h
1489 17-01-2020 04:20:00 4.6 C 6.35 g/m*3 4.6 C 0 km/h
1490 17-01-2020 04:25:00 4.6 C 6.35 g/m*3 4.6 C 3.2 km/h
1491 17-01-2020 04:30:00 4.6 C 6.35 g/m*3 4.6 C 1.6 km/h
1492 17-01-2020 04:35:00 4.6 C 6.35 g/m*3 4.6 C 3.2 km/h
1493 17-01-2020 04:40:00 4.6 C 6.35 g/m*3 4.6 C 1.6 km/h
1494 17-01-2020 04:45:00 4.5 C 6.31 g/m*3 4.5 C 0 km/h
1495 17-01-2020 04:50:00 4.4 C 6.27 g/m*3 4.4 C 0 km/h
1496 17-01-2020 04:55:00 4.4 C 6.27 g/m*3 4.4 C 0 km/h
1497 17-01-2020 05:00:00 4.3 C 6.23 g/m*3 4.3 C 0 km/h
1498 17-01-2020 05:05:00 4.3 C 6.23 g/m*3 4.3 C 0 km/h
1499 17-01-2020 05:10:00 4.1 C 6.14 g/m*3 4.1 C 0 km/h
1500 17-01-2020 05:15:00 4.1 C 6.14 g/m*3 4.1 C 0 km/h
Sensor: Nr:Datum:Temp:Abs-Feuchte:Windchill:Wind:
Aussen-T/F 1501 17-01-2020 05:20:00 3.9 C 6.06 g/m*3 3.9 C 0 km/h
1502 17-01-2020 05:25:00 3.9 C 6.06 g/m*3 3.9 C 0 km/h
1503 17-01-2020 05:30:00 3.8 C 6.02 g/m*3 3.8 C 0 km/h
1504 17-01-2020 05:35:00 3.8 C 6.02 g/m*3 3.8 C 0 km/h
1505 17-01-2020 05:40:00 3.7 C 5.98 g/m*3 3.7 C 0 km/h
1506 17-01-2020 05:45:00 3.6 C 5.94 g/m*3 3.6 C 0 km/h
1507 17-01-2020 05:50:00 3.5 C 5.9 g/m*3 3.5 C 0 km/h
1508 17-01-2020 05:55:00 3.4 C 5.86 g/m*3 3.4 C 0 km/h
1509 17-01-2020 06:00:00 3.4 C 5.86 g/m*3 3.4 C 0 km/h
1510 17-01-2020 06:05:00 3.3 C 5.82 g/m*3 3.3 C 0 km/h
1511 17-01-2020 06:10:00 3.3 C 5.82 g/m*3 3.3 C 0 km/h
1512 17-01-2020 06:15:00 3.2 C 5.79 g/m*3 3.2 C 0 km/h
1513 17-01-2020 06:20:00 3.2 C 5.79 g/m*3 3.2 C 0 km/h
1514 17-01-2020 06:25:00 3.1 C 5.75 g/m*3 3.1 C 0 km/h
1515 17-01-2020 06:30:00 3.1 C 5.75 g/m*3 3.1 C 0 km/h
1516 17-01-2020 06:35:00 3.1 C 5.75 g/m*3 3.1 C 0 km/h
1517 17-01-2020 06:40:00 2.9 C 5.67 g/m*3 2.9 C 0 km/h
1518 17-01-2020 06:45:00 3 C 5.71 g/m*3 3 C 0 km/h
1519 17-01-2020 06:50:00 2.9 C 5.67 g/m*3 2.9 C 0 km/h
1520 17-01-2020 06:55:00 2.8 C 5.63 g/m*3 2.8 C 0 km/h
1521 17-01-2020 07:00:00 2.8 C 5.63 g/m*3 2.8 C 0 km/h
1522 17-01-2020 07:05:00 2.8 C 5.63 g/m*3 2.8 C 0 km/h
1523 17-01-2020 07:10:00 2.7 C 5.59 g/m*3 2.7 C 0 km/h
1524 17-01-2020 07:15:00 2.6 C 5.56 g/m*3 2.6 C 0 km/h
1525 17-01-2020 07:20:00 2.6 C 5.56 g/m*3 2.6 C 0 km/h
Sensor: Nr:Datum:Temp:Abs-Feuchte:Windchill:Wind:
Aussen-T/F 1526 17-01-2020 07:25:00 2.6 C 5.56 g/m*3 2.6 C 0 km/h
1527 17-01-2020 07:30:00 2.5 C 5.52 g/m*3 2.5 C 0 km/h
1528 17-01-2020 07:35:00 2.4 C 5.48 g/m*3 2.4 C 0 km/h
1529 17-01-2020 07:40:00 2.4 C 5.48 g/m*3 2.4 C 0 km/h
1530 17-01-2020 07:45:00 2.3 C 5.44 g/m*3 2.3 C 0 km/h
1531 17-01-2020 07:50:00 2.4 C 5.48 g/m*3 2.4 C 0 km/h
1532 17-01-2020 07:55:00 2.4 C 5.48 g/m*3 2.4 C 0 km/h
1533 17-01-2020 08:00:00 2.5 C 5.58 g/m*3 2.5 C 0 km/h
1534 17-01-2020 08:05:00 2.6 C 5.61 g/m*3 2.6 C 0 km/h
1535 17-01-2020 08:10:00 2.7 C 5.65 g/m*3 2.7 C 0 km/h
1536 17-01-2020 08:15:00 2.8 C 5.69 g/m*3 2.8 C 0 km/h
1537 17-01-2020 08:20:00 2.9 C 5.73 g/m*3 2.9 C 1.6 km/h
1538 17-01-2020 08:25:00 2.9 C 5.73 g/m*3 2.9 C 4.8 km/h
1539 17-01-2020 08:30:00 2.9 C 5.73 g/m*3 2.9 C 3.2 km/h
1540 17-01-2020 08:35:00 2.9 C 5.73 g/m*3 2.9 C 1.6 km/h
1541 17-01-2020 08:40:00 2.9 C 5.73 g/m*3 2.9 C 1.6 km/h
1542 17-01-2020 08:45:00 2.9 C 5.73 g/m*3 2.9 C 0 km/h
1543 17-01-2020 08:50:00 3 C 5.77 g/m*3 3 C 1.6 km/h
1544 17-01-2020 08:55:00 3.1 C 5.81 g/m*3 3.1 C 0 km/h
1545 17-01-2020 09:00:00 3.1 C 5.81 g/m*3 3.1 C 0 km/h
1546 17-01-2020 09:05:00 3.1 C 5.81 g/m*3 3.1 C 0 km/h
1547 17-01-2020 09:10:00 3.2 C 5.85 g/m*3 3.2 C 0 km/h
1548 17-01-2020 09:15:00 3.2 C 5.85 g/m*3 3.2 C 0 km/h
1549 17-01-2020 09:20:00 3.2 C 5.85 g/m*3 3.2 C 0 km/h
1550 17-01-2020 09:25:00 3.2 C 5.85 g/m*3 3.2 C 0 km/h
Sensor: Nr:Datum:Temp:Abs-Feuchte:Windchill:Wind:
Aussen-T/F 1551 17-01-2020 09:30:00 3.1 C 5.81 g/m*3 3.1 C 1.6 km/h
1552 17-01-2020 09:35:00 3.1 C 5.81 g/m*3 3.1 C 0 km/h
1553 17-01-2020 09:40:00 3.1 C 5.81 g/m*3 3.1 C 0 km/h
1554 17-01-2020 09:45:00 3.3 C 5.88 g/m*3 3.3 C 3.2 km/h
1555 17-01-2020 09:50:00 3.4 C 5.92 g/m*3 3.4 C 0 km/h
1556 17-01-2020 09:55:00 3.5 C 5.96 g/m*3 3.5 C 0 km/h
1557 17-01-2020 10:00:00 3.6 C 6 g/m*3 3.6 C 0 km/h
1558 17-01-2020 10:05:00 3.7 C 6.04 g/m*3 3.7 C 1.6 km/h
1559 17-01-2020 10:10:00 3.8 C 6.09 g/m*3 3.8 C 0 km/h
1560 17-01-2020 10:15:00 3.9 C 6.13 g/m*3 3.9 C 0 km/h
1561 17-01-2020 10:20:00 3.9 C 6.13 g/m*3 3.9 C 0 km/h
1562 17-01-2020 10:25:00 4.1 C 6.21 g/m*3 4.1 C 0 km/h
1563 17-01-2020 10:30:00 4.1 C 6.21 g/m*3 4.1 C 0 km/h
1564 17-01-2020 10:35:00 4.2 C 6.25 g/m*3 4.2 C 0 km/h
1565 17-01-2020 10:40:00 4.2 C 6.25 g/m*3 4.2 C 0 km/h
1566 17-01-2020 10:45:00 4.3 C 6.29 g/m*3 4.3 C 0 km/h
1567 17-01-2020 10:50:00 4.4 C 6.33 g/m*3 4.4 C 0 km/h
1568 17-01-2020 10:55:00 4.4 C 6.33 g/m*3 4.4 C 1.6 km/h
1569 17-01-2020 11:00:00 4.6 C 6.42 g/m*3 4.6 C 0 km/h
1570 17-01-2020 11:05:00 4.7 C 6.46 g/m*3 4.7 C 0 km/h
1571 17-01-2020 11:10:00 4.8 C 6.5 g/m*3 4.8 C 0 km/h
1572 17-01-2020 11:15:00 4.8 C 6.5 g/m*3 4.8 C 0 km/h
1573 17-01-2020 11:20:00 4.9 C 6.55 g/m*3 4.9 C 0 km/h
1574 17-01-2020 11:25:00 4.9 C 6.55 g/m*3 4.9 C 1.6 km/h
1575 17-01-2020 11:30:00 5 C 6.59 g/m*3 5 C 0 km/h
Sensor: Nr:Datum:Temp:Abs-Feuchte:Windchill:Wind:
Aussen-T/F 1576 17-01-2020 11:35:00 5.2 C 6.68 g/m*3 5.2 C 0 km/h
1577 17-01-2020 11:40:00 5.4 C 6.84 g/m*3 5.4 C 0 km/h
1578 17-01-2020 11:45:00 5.6 C 6.86 g/m*3 5.6 C 0 km/h
1579 17-01-2020 11:50:00 5.7 C 6.97 g/m*3 5.7 C 0 km/h
1580 17-01-2020 11:55:00 5.8 C 6.95 g/m*3 5.8 C 0 km/h
1581 17-01-2020 12:00:00 5.8 C 6.95 g/m*3 5.8 C 0 km/h
1582 17-01-2020 12:05:00 5.9 C 6.99 g/m*3 5.9 C 0 km/h
1583 17-01-2020 12:10:00 6.1 C 7.09 g/m*3 6.1 C 3.2 km/h
1584 17-01-2020 12:15:00 6.3 C 7.18 g/m*3 6.3 C 3.2 km/h
1585 17-01-2020 12:20:00 6.4 C 7.23 g/m*3 6.4 C 0 km/h
1586 17-01-2020 12:25:00 6.6 C 7.32 g/m*3 6.6 C 0 km/h
1587 17-01-2020 12:30:00 6.7 C 7.37 g/m*3 6.7 C 0 km/h
1588 17-01-2020 12:35:00 6.8 C 7.42 g/m*3 6.8 C 0 km/h
1589 17-01-2020 12:40:00 6.8 C 7.42 g/m*3 6.8 C 0 km/h
1590 17-01-2020 12:45:00 7 C 7.52 g/m*3 7 C 1.6 km/h
1591 17-01-2020 12:50:00 7.2 C 7.54 g/m*3 7.2 C 0 km/h
1592 17-01-2020 12:55:00 7.2 C 7.54 g/m*3 7.2 C 0 km/h
1593 17-01-2020 13:00:00 7.3 C 7.58 g/m*3 7.3 C 0 km/h
1594 17-01-2020 13:05:00 7.4 C 7.63 g/m*3 7.4 C 0 km/h
1595 17-01-2020 13:10:00 7.7 C 7.78 g/m*3 7.7 C 4.8 km/h
1596 17-01-2020 13:15:00 7.7 C 7.7 g/m*3 7.7 C 0 km/h
1597 17-01-2020 13:20:00 7.8 C 7.83 g/m*3 7.8 C 0 km/h
1598 17-01-2020 13:25:00 8.1 C 7.9 g/m*3 8.1 C 1.6 km/h
1599 17-01-2020 13:30:00 8.2 C 8.04 g/m*3 8.2 C 0 km/h
1600 17-01-2020 13:35:00 8.4 C 8.06 g/m*3 8.4 C 4.8 km/h
Sensor: Nr:Datum:Temp:Abs-Feuchte:Windchill:Wind:
Aussen-T/F 1601 17-01-2020 13:40:00 8.7 C 8.13 g/m*3 7.13 C 9.7 km/h
1602 17-01-2020 13:45:00 8.8 C 8.09 g/m*3 7.98 C 6.4 km/h
1603 17-01-2020 13:50:00 9 C 8.11 g/m*3 8.21 C 6.4 km/h
1604 17-01-2020 13:55:00 9.2 C 8.13 g/m*3 9.2 C 4.8 km/h
1605 17-01-2020 14:00:00 9.3 C 8.18 g/m*3 9.3 C 3.2 km/h
1606 17-01-2020 14:05:00 9.4 C 8.23 g/m*3 9.4 C 4.8 km/h
1607 17-01-2020 14:10:00 9.6 C 8.34 g/m*3 9.6 C 3.2 km/h
1608 17-01-2020 14:15:00 9.7 C 8.2 g/m*3 8.33 C 9.7 km/h
1609 17-01-2020 14:20:00 9.8 C 8.16 g/m*3 7.73 C 14.5 km/h
1610 17-01-2020 14:25:00 9.9 C 8.22 g/m*3 8.56 C 9.7 km/h
1611 17-01-2020 14:30:00 9.9 C 8.31 g/m*3 9.9 C 4.8 km/h
1612 17-01-2020 14:35:00 9.9 C 8.22 g/m*3 8.56 C 9.7 km/h
1613 17-01-2020 14:40:00 9.9 C 8.31 g/m*3 9.9 C 3.2 km/h
1614 17-01-2020 14:45:00 9.9 C 8.31 g/m*3 9.9 C 3.2 km/h
1615 17-01-2020 14:50:00 9.8 C 8.35 g/m*3 9.8 C 0 km/h
1616 17-01-2020 14:55:00 9.8 C 8.35 g/m*3 9.8 C 4.8 km/h
1617 17-01-2020 15:00:00 9.7 C 8.3 g/m*3 9.7 C 4.8 km/h
1618 17-01-2020 15:05:00 9.6 C 8.34 g/m*3 9.6 C 4.8 km/h
1619 17-01-2020 15:10:00 9.5 C 8.28 g/m*3 9.5 C 3.2 km/h
1620 17-01-2020 15:15:00 9.4 C 8.23 g/m*3 9.4 C 1.6 km/h
1621 17-01-2020 15:20:00 9.3 C 8.27 g/m*3 8.56 C 6.4 km/h
1622 17-01-2020 15:25:00 9.3 C 8.27 g/m*3 9.3 C 3.2 km/h
1623 17-01-2020 15:30:00 9.2 C 8.22 g/m*3 8.45 C 6.4 km/h
1624 17-01-2020 15:35:00 9.2 C 8.22 g/m*3 9.2 C 4.8 km/h
1625 17-01-2020 15:40:00 9.2 C 8.22 g/m*3 9.2 C 1.6 km/h
Sensor: Nr:Datum:Temp:Abs-Feuchte:Windchill:Wind:
Aussen-T/F 1626 17-01-2020 15:45:00 9.2 C 8.22 g/m*3 9.2 C 3.2 km/h
1627 17-01-2020 15:50:00 9.1 C 8.16 g/m*3 9.1 C 1.6 km/h
1628 17-01-2020 15:55:00 9.1 C 8.16 g/m*3 7.93 C 8.1 km/h
1629 17-01-2020 16:00:00 9 C 8.11 g/m*3 9 C 1.6 km/h
1630 17-01-2020 16:05:00 8.9 C 8.15 g/m*3 8.9 C 4.8 km/h
1631 17-01-2020 16:10:00 8.9 C 8.15 g/m*3 8.1 C 6.4 km/h
1632 17-01-2020 16:15:00 8.9 C 8.15 g/m*3 7.69 C 8.1 km/h
1633 17-01-2020 16:20:00 8.9 C 8.06 g/m*3 8.1 C 6.4 km/h
1634 17-01-2020 16:25:00 8.9 C 8.06 g/m*3 8.9 C 3.2 km/h
1635 17-01-2020 16:30:00 8.9 C 8.15 g/m*3 8.9 C 3.2 km/h
1636 17-01-2020 16:35:00 8.8 C 8.09 g/m*3 8.8 C 4.8 km/h
1637 17-01-2020 16:40:00 8.8 C 8.09 g/m*3 8.8 C 1.6 km/h
1638 17-01-2020 16:45:00 8.8 C 8.09 g/m*3 8.8 C 3.2 km/h
1639 17-01-2020 16:50:00 8.7 C 8.04 g/m*3 8.7 C 0 km/h
1640 17-01-2020 16:55:00 8.7 C 8.04 g/m*3 8.7 C 3.2 km/h
1641 17-01-2020 17:00:00 8.7 C 8.04 g/m*3 8.7 C 1.6 km/h
1642 17-01-2020 17:05:00 8.6 C 7.99 g/m*3 8.6 C 3.2 km/h
1643 17-01-2020 17:10:00 8.7 C 8.13 g/m*3 7.46 C 8.1 km/h
1644 17-01-2020 17:15:00 8.7 C 8.13 g/m*3 6.85 C 11.3 km/h
1645 17-01-2020 17:20:00 8.9 C 8.15 g/m*3 7.09 C 11.3 km/h
1646 17-01-2020 17:25:00 9 C 8.2 g/m*3 7.21 C 11.3 km/h
1647 17-01-2020 17:30:00 9 C 8.11 g/m*3 7.21 C 11.3 km/h
1648 17-01-2020 17:35:00 9 C 8.11 g/m*3 7.21 C 11.3 km/h
1649 17-01-2020 17:40:00 9 C 8.11 g/m*3 9 C 4.8 km/h
1650 17-01-2020 17:45:00 8.9 C 8.06 g/m*3 8.1 C 6.4 km/h
Sensor: Nr:Datum:Temp:Abs-Feuchte:Windchill:Wind:
Aussen-T/F 1651 17-01-2020 17:50:00 8.8 C 8.01 g/m*3 7.98 C 6.4 km/h
1652 17-01-2020 17:55:00 8.8 C 8.01 g/m*3 6.5 C 14.5 km/h
1653 17-01-2020 18:00:00 8.9 C 8.06 g/m*3 8.1 C 6.4 km/h
1654 17-01-2020 18:05:00 8.9 C 7.97 g/m*3 6.85 C 12.9 km/h
1655 17-01-2020 18:10:00 9 C 8.02 g/m*3 6.97 C 12.9 km/h
1656 17-01-2020 18:15:00 9 C 8.02 g/m*3 8.21 C 6.4 km/h
1657 17-01-2020 18:20:00 8.9 C 7.97 g/m*3 7.69 C 8.1 km/h
1658 17-01-2020 18:25:00 8.9 C 7.97 g/m*3 7.69 C 8.1 km/h
1659 17-01-2020 18:30:00 8.9 C 7.97 g/m*3 6.62 C 14.5 km/h
1660 17-01-2020 18:35:00 8.9 C 7.97 g/m*3 8.1 C 6.4 km/h
1661 17-01-2020 18:40:00 8.8 C 7.92 g/m*3 8.8 C 4.8 km/h
1662 17-01-2020 18:45:00 8.7 C 7.87 g/m*3 7.46 C 8.1 km/h
1663 17-01-2020 18:50:00 8.6 C 7.82 g/m*3 7.34 C 8.1 km/h
1664 17-01-2020 18:55:00 8.4 C 7.72 g/m*3 7.52 C 6.4 km/h
1665 17-01-2020 19:00:00 8.3 C 7.67 g/m*3 8.3 C 4.8 km/h
1666 17-01-2020 19:05:00 8.1 C 7.57 g/m*3 7.17 C 6.4 km/h
1667 17-01-2020 19:10:00 7.9 C 7.56 g/m*3 6.94 C 6.4 km/h
1668 17-01-2020 19:15:00 7.8 C 7.51 g/m*3 6.06 C 9.7 km/h
1669 17-01-2020 19:20:00 7.8 C 7.43 g/m*3 6.4 C 8.1 km/h
1670 17-01-2020 19:25:00 7.6 C 7.33 g/m*3 7.6 C 1.6 km/h
1671 17-01-2020 19:30:00 7.3 C 7.19 g/m*3 7.3 C 3.2 km/h
1672 17-01-2020 19:35:00 7.2 C 7.22 g/m*3 7.2 C 1.6 km/h
1673 17-01-2020 19:40:00 7.1 C 7.18 g/m*3 7.1 C 3.2 km/h
1674 17-01-2020 19:45:00 6.9 C 7.08 g/m*3 6.9 C 0 km/h
1675 17-01-2020 19:50:00 6.9 C 7.16 g/m*3 6.9 C 0 km/h
Sensor: Nr:Datum:Temp:Abs-Feuchte:Windchill:Wind:
Aussen-T/F 1676 17-01-2020 19:55:00 6.9 C 7.16 g/m*3 6.9 C 0 km/h
1677 17-01-2020 20:00:00 6.9 C 7.24 g/m*3 6.9 C 3.2 km/h
1678 17-01-2020 20:05:00 6.9 C 7.24 g/m*3 6.9 C 0 km/h
1679 17-01-2020 20:10:00 6.9 C 7.24 g/m*3 6.9 C 0 km/h
1680 17-01-2020 20:15:00 7 C 7.28 g/m*3 7 C 0 km/h
1681 17-01-2020 20:20:00 7.1 C 7.33 g/m*3 7.1 C 1.6 km/h
1682 17-01-2020 20:25:00 7.2 C 7.46 g/m*3 7.2 C 4.8 km/h
1683 17-01-2020 20:30:00 7.3 C 7.43 g/m*3 7.3 C 4.8 km/h
1684 17-01-2020 20:35:00 7.4 C 7.48 g/m*3 5.93 C 8.1 km/h
1685 17-01-2020 20:40:00 7.5 C 7.44 g/m*3 6.48 C 6.4 km/h
1686 17-01-2020 20:45:00 7.6 C 7.41 g/m*3 7.6 C 4.8 km/h
1687 17-01-2020 20:50:00 7.7 C 7.3 g/m*3 5.94 C 9.7 km/h
1688 17-01-2020 20:55:00 7.8 C 7.35 g/m*3 6.4 C 8.1 km/h
1689 17-01-2020 21:00:00 7.9 C 7.31 g/m*3 4.98 C 17.7 km/h
1690 17-01-2020 21:05:00 7.9 C 7.23 g/m*3 6.94 C 6.4 km/h
1691 17-01-2020 21:10:00 7.9 C 7.23 g/m*3 5.89 C 11.3 km/h
1692 17-01-2020 21:15:00 8 C 7.19 g/m*3 6.3 C 9.7 km/h
1693 17-01-2020 21:20:00 7.9 C 7.15 g/m*3 6.94 C 6.4 km/h
1694 17-01-2020 21:25:00 7.8 C 7.1 g/m*3 5.51 C 12.9 km/h
1695 17-01-2020 21:30:00 7.6 C 7.01 g/m*3 6.6 C 6.4 km/h
1696 17-01-2020 21:35:00 7.4 C 6.92 g/m*3 5.93 C 8.1 km/h
1697 17-01-2020 21:40:00 7.4 C 6.84 g/m*3 7.4 C 4.8 km/h
1698 17-01-2020 21:45:00 7.3 C 6.79 g/m*3 7.3 C 4.8 km/h
1699 17-01-2020 21:50:00 7.2 C 6.75 g/m*3 7.2 C 4.8 km/h
1700 17-01-2020 21:55:00 7.1 C 6.71 g/m*3 5.58 C 8.1 km/h
Sensor: Nr:Datum:Temp:Abs-Feuchte:Windchill:Wind:
Aussen-T/F 1701 17-01-2020 22:00:00 6.9 C 6.62 g/m*3 5.79 C 6.4 km/h
1702 17-01-2020 22:05:00 6.9 C 6.62 g/m*3 6.9 C 3.2 km/h
1703 17-01-2020 22:10:00 6.7 C 6.53 g/m*3 6.7 C 3.2 km/h
1704 17-01-2020 22:15:00 6.6 C 6.49 g/m*3 6.6 C 0 km/h
1705 17-01-2020 22:20:00 6.4 C 6.41 g/m*3 6.4 C 0 km/h
1706 17-01-2020 22:25:00 6.2 C 6.32 g/m*3 6.2 C 0 km/h
1707 17-01-2020 22:30:00 5.9 C 6.27 g/m*3 5.9 C 0 km/h
1708 17-01-2020 22:35:00 5.7 C 6.26 g/m*3 5.7 C 0 km/h
1709 17-01-2020 22:40:00 5.5 C 6.18 g/m*3 5.5 C 4.8 km/h
1710 17-01-2020 22:45:00 5.4 C 6.21 g/m*3 5.4 C 3.2 km/h
1711 17-01-2020 22:50:00 5.3 C 6.17 g/m*3 5.3 C 0 km/h
1712 17-01-2020 22:55:00 5.2 C 6.2 g/m*3 5.2 C 0 km/h
1713 17-01-2020 23:00:00 5.1 C 6.16 g/m*3 5.1 C 0 km/h
1714 17-01-2020 23:05:00 4.9 C 6.08 g/m*3 4.9 C 0 km/h
1715 17-01-2020 23:10:00 4.8 C 6.04 g/m*3 4.8 C 0 km/h
1716 17-01-2020 23:15:00 4.7 C 6.06 g/m*3 4.7 C 1.6 km/h
1717 17-01-2020 23:20:00 4.7 C 6.06 g/m*3 4.7 C 3.2 km/h
1718 17-01-2020 23:25:00 4.6 C 6.02 g/m*3 4.6 C 3.2 km/h
1719 17-01-2020 23:30:00 4.6 C 6.02 g/m*3 4.6 C 0 km/h
1720 17-01-2020 23:35:00 4.6 C 6.09 g/m*3 4.6 C 0 km/h
1721 17-01-2020 23:40:00 4.6 C 6.09 g/m*3 4.6 C 0 km/h
1722 17-01-2020 23:45:00 4.5 C 6.05 g/m*3 4.5 C 0 km/h
1723 17-01-2020 23:50:00 4.4 C 6.01 g/m*3 4.4 C 0 km/h
1724 17-01-2020 23:55:00 4.3 C 5.97 g/m*3 4.3 C 0 km/h
1725 18-01-2020 00:00:00 4.2 C 5.93 g/m*3 4.2 C 0 km/h
Sensor: Nr:Datum:Temp:Abs-Feuchte:Windchill:Wind:
Aussen-T/F 1726 18-01-2020 00:05:00 4.1 C 5.89 g/m*3 4.1 C 0 km/h
1727 18-01-2020 00:10:00 4 C 5.85 g/m*3 4 C 0 km/h
1728 18-01-2020 00:15:00 3.9 C 5.87 g/m*3 3.9 C 0 km/h
1729 18-01-2020 00:20:00 3.9 C 5.87 g/m*3 3.9 C 0 km/h
1730 18-01-2020 00:25:00 4 C 5.91 g/m*3 4 C 0 km/h
1731 18-01-2020 00:30:00 3.9 C 5.87 g/m*3 3.9 C 0 km/h
1732 18-01-2020 00:35:00 3.9 C 5.94 g/m*3 3.9 C 0 km/h
1733 18-01-2020 00:40:00 4 C 5.98 g/m*3 4 C 0 km/h
1734 18-01-2020 00:45:00 4.1 C 6.02 g/m*3 4.1 C 0 km/h
1735 18-01-2020 00:50:00 4.2 C 6.06 g/m*3 2.17 C 8.1 km/h
1736 18-01-2020 00:55:00 4.3 C 6.1 g/m*3 2.29 C 8.1 km/h
1737 18-01-2020 01:00:00 4.3 C 6.1 g/m*3 4.3 C 4.8 km/h
1738 18-01-2020 01:05:00 4.4 C 6.14 g/m*3 2.9 C 6.4 km/h
1739 18-01-2020 01:10:00 4.5 C 6.11 g/m*3 4.5 C 3.2 km/h
1740 18-01-2020 01:15:00 4.6 C 6.15 g/m*3 4.6 C 1.6 km/h
1741 18-01-2020 01:20:00 4.6 C 6.15 g/m*3 4.6 C 0 km/h
1742 18-01-2020 01:25:00 4.6 C 6.15 g/m*3 4.6 C 0 km/h
1743 18-01-2020 01:30:00 4.6 C 6.15 g/m*3 4.6 C 0 km/h
1744 18-01-2020 01:35:00 4.6 C 6.15 g/m*3 4.6 C 0 km/h
1745 18-01-2020 01:40:00 4.6 C 6.15 g/m*3 4.6 C 0 km/h
1746 18-01-2020 01:45:00 4.6 C 6.15 g/m*3 4.6 C 1.6 km/h
1747 18-01-2020 01:50:00 4.6 C 6.22 g/m*3 4.6 C 3.2 km/h
1748 18-01-2020 01:55:00 4.7 C 6.26 g/m*3 4.7 C 1.6 km/h
1749 18-01-2020 02:00:00 4.7 C 6.19 g/m*3 4.7 C 1.6 km/h
1750 18-01-2020 02:05:00 4.7 C 6.19 g/m*3 4.7 C 0 km/h
Sensor: Nr:Datum:Temp:Abs-Feuchte:Windchill:Wind:
Aussen-T/F 1751 18-01-2020 02:10:00 4.6 C 6.15 g/m*3 4.6 C 0 km/h
1752 18-01-2020 02:15:00 4.5 C 6.11 g/m*3 4.5 C 1.6 km/h
1753 18-01-2020 02:20:00 4.4 C 6.07 g/m*3 4.4 C 1.6 km/h
1754 18-01-2020 02:25:00 4.5 C 6.11 g/m*3 4.5 C 4.8 km/h
1755 18-01-2020 02:30:00 4.5 C 6.11 g/m*3 4.5 C 0 km/h
1756 18-01-2020 02:35:00 4.4 C 6.07 g/m*3 4.4 C 0 km/h
1757 18-01-2020 02:40:00 4.3 C 6.03 g/m*3 4.3 C 1.6 km/h
1758 18-01-2020 02:45:00 4.3 C 6.03 g/m*3 2.29 C 8.1 km/h
1759 18-01-2020 02:50:00 4.4 C 6.07 g/m*3 4.4 C 4.8 km/h
1760 18-01-2020 02:55:00 4.4 C 6.07 g/m*3 4.4 C 3.2 km/h
1761 18-01-2020 03:00:00 4.5 C 6.11 g/m*3 3.02 C 6.4 km/h
1762 18-01-2020 03:05:00 4.7 C 6.13 g/m*3 2.37 C 9.7 km/h
1763 18-01-2020 03:10:00 4.8 C 6.1 g/m*3 2.15 C 11.3 km/h
1764 18-01-2020 03:15:00 5 C 6.12 g/m*3 3.11 C 8.1 km/h
1765 18-01-2020 03:20:00 5.1 C 6.16 g/m*3 3.71 C 6.4 km/h
1766 18-01-2020 03:25:00 5.1 C 6.16 g/m*3 3.23 C 8.1 km/h
1767 18-01-2020 03:30:00 5.1 C 6.09 g/m*3 2.84 C 9.7 km/h
1768 18-01-2020 03:35:00 5.1 C 6.09 g/m*3 3.71 C 6.4 km/h
1769 18-01-2020 03:40:00 5 C 6.05 g/m*3 3.59 C 6.4 km/h
1770 18-01-2020 03:45:00 4.9 C 6.01 g/m*3 2.27 C 11.3 km/h
1771 18-01-2020 03:50:00 4.9 C 6.01 g/m*3 2.99 C 8.1 km/h
1772 18-01-2020 03:55:00 4.9 C 6.01 g/m*3 4.9 C 4.8 km/h
1773 18-01-2020 04:00:00 4.9 C 6.01 g/m*3 2.99 C 8.1 km/h
1774 18-01-2020 04:05:00 4.8 C 5.97 g/m*3 4.8 C 4.8 km/h
1775 18-01-2020 04:10:00 4.8 C 5.97 g/m*3 2.49 C 9.7 km/h
Sensor: Nr:Datum:Temp:Abs-Feuchte:Windchill:Wind:
Aussen-T/F 1776 18-01-2020 04:15:00 4.8 C 5.97 g/m*3 3.36 C 6.4 km/h
1777 18-01-2020 04:20:00 4.7 C 5.93 g/m*3 4.7 C 4.8 km/h
1778 18-01-2020 04:25:00 4.7 C 5.93 g/m*3 4.7 C 4.8 km/h
1779 18-01-2020 04:30:00 4.6 C 5.89 g/m*3 3.13 C 6.4 km/h
1780 18-01-2020 04:35:00 4.6 C 5.89 g/m*3 2.64 C 8.1 km/h
1781 18-01-2020 04:40:00 4.6 C 5.96 g/m*3 1.61 C 12.9 km/h
1782 18-01-2020 04:45:00 4.6 C 5.96 g/m*3 1.61 C 12.9 km/h
1783 18-01-2020 04:50:00 4.6 C 5.96 g/m*3 1.91 C 11.3 km/h
1784 18-01-2020 04:55:00 4.5 C 5.85 g/m*3 4.5 C 4.8 km/h
1785 18-01-2020 05:00:00 4.5 C 5.85 g/m*3 3.02 C 6.4 km/h
1786 18-01-2020 05:05:00 4.4 C 5.81 g/m*3 2.01 C 9.7 km/h
1787 18-01-2020 05:10:00 4.4 C 5.81 g/m*3 4.4 C 4.8 km/h
1788 18-01-2020 05:15:00 4.4 C 5.81 g/m*3 2.4 C 8.1 km/h
1789 18-01-2020 05:20:00 4.3 C 5.77 g/m*3 2.78 C 6.4 km/h
1790 18-01-2020 05:25:00 4.3 C 5.77 g/m*3 2.78 C 6.4 km/h
1791 18-01-2020 05:30:00 4.2 C 5.73 g/m*3 4.2 C 4.8 km/h
1792 18-01-2020 05:35:00 4.3 C 5.77 g/m*3 2.29 C 8.1 km/h
1793 18-01-2020 05:40:00 4.3 C 5.77 g/m*3 2.29 C 8.1 km/h
1794 18-01-2020 05:45:00 4.2 C 5.73 g/m*3 2.67 C 6.4 km/h
1795 18-01-2020 05:50:00 4.2 C 5.73 g/m*3 4.2 C 4.8 km/h
1796 18-01-2020 05:55:00 4.1 C 5.7 g/m*3 1.65 C 9.7 km/h
1797 18-01-2020 06:00:00 3.9 C 5.62 g/m*3 2.32 C 6.4 km/h
1798 18-01-2020 06:05:00 3.9 C 5.62 g/m*3 1.41 C 9.7 km/h
1799 18-01-2020 06:10:00 4 C 5.72 g/m*3 1.93 C 8.1 km/h
1800 18-01-2020 06:15:00 4.1 C 5.7 g/m*3 1 C 12.9 km/h
Sensor: Nr:Datum:Temp:Abs-Feuchte:Windchill:Wind:
Aussen-T/F 1801 18-01-2020 06:20:00 4.1 C 5.7 g/m*3 2.05 C 8.1 km/h
1802 18-01-2020 06:25:00 4.1 C 5.7 g/m*3 2.55 C 6.4 km/h
1803 18-01-2020 06:30:00 4.1 C 5.7 g/m*3 2.55 C 6.4 km/h
1804 18-01-2020 06:35:00 4 C 5.66 g/m*3 2.44 C 6.4 km/h
1805 18-01-2020 06:40:00 4 C 5.66 g/m*3 2.44 C 6.4 km/h
1806 18-01-2020 06:45:00 4 C 5.66 g/m*3 1.53 C 9.7 km/h
1807 18-01-2020 06:50:00 4.1 C 5.7 g/m*3 1.31 C 11.3 km/h
1808 18-01-2020 06:55:00 4.2 C 5.67 g/m*3 2.17 C 8.1 km/h
1809 18-01-2020 07:00:00 4.2 C 5.67 g/m*3 4.2 C 4.8 km/h
1810 18-01-2020 07:05:00 4.1 C 5.63 g/m*3 2.55 C 6.4 km/h
1811 18-01-2020 07:10:00 4.1 C 5.63 g/m*3 4.1 C 4.8 km/h
1812 18-01-2020 07:15:00 4 C 5.66 g/m*3 4 C 4.8 km/h
1813 18-01-2020 07:20:00 4 C 5.66 g/m*3 4 C 4.8 km/h
1814 18-01-2020 07:25:00 4 C 5.66 g/m*3 4 C 3.2 km/h
1815 18-01-2020 07:30:00 3.9 C 5.62 g/m*3 3.9 C 4.8 km/h
1816 18-01-2020 07:35:00 3.9 C 5.62 g/m*3 3.9 C 4.8 km/h
1817 18-01-2020 07:40:00 3.9 C 5.62 g/m*3 1.82 C 8.1 km/h
1818 18-01-2020 07:45:00 4.1 C 5.76 g/m*3 4.1 C 3.2 km/h
1819 18-01-2020 07:50:00 4.2 C 5.73 g/m*3 4.2 C 4.8 km/h
1820 18-01-2020 07:55:00 4.2 C 5.73 g/m*3 4.2 C 4.8 km/h
1821 18-01-2020 08:00:00 4.2 C 5.73 g/m*3 2.17 C 8.1 km/h
1822 18-01-2020 08:05:00 4.3 C 5.77 g/m*3 4.3 C 4.8 km/h
1823 18-01-2020 08:10:00 4.3 C 5.77 g/m*3 4.3 C 4.8 km/h
1824 18-01-2020 08:15:00 4.4 C 5.81 g/m*3 2.01 C 9.7 km/h
1825 18-01-2020 08:20:00 4.5 C 5.78 g/m*3 4.5 C 4.8 km/h
Sensor: Nr:Datum:Temp:Abs-Feuchte:Windchill:Wind:
Aussen-T/F 1826 18-01-2020 08:25:00 4.4 C 5.75 g/m*3 2.9 C 6.4 km/h
1827 18-01-2020 08:30:00 4.4 C 5.75 g/m*3 4.4 C 1.6 km/h
1828 18-01-2020 08:35:00 4.4 C 5.75 g/m*3 2.9 C 6.4 km/h
1829 18-01-2020 08:40:00 4.3 C 5.71 g/m*3 4.3 C 3.2 km/h
1830 18-01-2020 08:45:00 4.3 C 5.77 g/m*3 1.89 C 9.7 km/h
1831 18-01-2020 08:50:00 4.3 C 5.77 g/m*3 1.55 C 11.3 km/h
1832 18-01-2020 08:55:00 4.3 C 5.77 g/m*3 1.89 C 9.7 km/h
1833 18-01-2020 09:00:00 4.4 C 5.81 g/m*3 1.36 C 12.9 km/h
1834 18-01-2020 09:05:00 4.6 C 5.82 g/m*3 1.34 C 14.5 km/h
1835 18-01-2020 09:10:00 4.6 C 5.82 g/m*3 1.91 C 11.3 km/h
1836 18-01-2020 09:15:00 4.6 C 5.82 g/m*3 2.25 C 9.7 km/h
1837 18-01-2020 09:20:00 4.6 C 5.82 g/m*3 1.61 C 12.9 km/h
1838 18-01-2020 09:25:00 4.7 C 5.86 g/m*3 2.37 C 9.7 km/h
1839 18-01-2020 09:30:00 4.8 C 5.9 g/m*3 2.15 C 11.3 km/h
1840 18-01-2020 09:35:00 4.8 C 5.83 g/m*3 2.15 C 11.3 km/h
1841 18-01-2020 09:40:00 4.7 C 5.8 g/m*3 2.03 C 11.3 km/h
1842 18-01-2020 09:45:00 4.7 C 5.8 g/m*3 2.76 C 8.1 km/h
1843 18-01-2020 09:50:00 4.7 C 5.86 g/m*3 1.21 C 16.1 km/h
1844 18-01-2020 09:55:00 4.8 C 5.9 g/m*3 3.36 C 6.4 km/h
1845 18-01-2020 10:00:00 4.9 C 5.94 g/m*3 2.99 C 8.1 km/h
1846 18-01-2020 10:05:00 5 C 5.91 g/m*3 5 C 4.8 km/h
1847 18-01-2020 10:10:00 5.1 C 5.95 g/m*3 2.22 C 12.9 km/h
1848 18-01-2020 10:15:00 5.2 C 5.99 g/m*3 2.63 C 11.3 km/h
1849 18-01-2020 10:20:00 5.3 C 5.96 g/m*3 3.46 C 8.1 km/h
1850 18-01-2020 10:25:00 5.3 C 5.96 g/m*3 3.46 C 8.1 km/h
Sensor: Nr:Datum:Temp:Abs-Feuchte:Windchill:Wind:
Aussen-T/F 1851 18-01-2020 10:30:00 5.3 C 5.96 g/m*3 3.94 C 6.4 km/h
1852 18-01-2020 10:35:00 5.3 C 5.96 g/m*3 3.46 C 8.1 km/h
1853 18-01-2020 10:40:00 5.3 C 5.96 g/m*3 5.3 C 4.8 km/h
1854 18-01-2020 10:45:00 5.3 C 6.03 g/m*3 3.08 C 9.7 km/h
1855 18-01-2020 10:50:00 5.4 C 6 g/m*3 3.58 C 8.1 km/h
1856 18-01-2020 10:55:00 5.5 C 6.04 g/m*3 2.99 C 11.3 km/h
1857 18-01-2020 11:00:00 5.6 C 6.08 g/m*3 3.11 C 11.3 km/h
1858 18-01-2020 11:05:00 5.6 C 6.01 g/m*3 2.83 C 12.9 km/h
1859 18-01-2020 11:10:00 5.7 C 6.05 g/m*3 2.45 C 16.1 km/h
1860 18-01-2020 11:15:00 5.7 C 6.05 g/m*3 3.23 C 11.3 km/h
1861 18-01-2020 11:20:00 5.7 C 5.98 g/m*3 2.69 C 14.5 km/h
1862 18-01-2020 11:25:00 5.8 C 6.09 g/m*3 3.68 C 9.7 km/h
1863 18-01-2020 11:30:00 5.8 C 6.09 g/m*3 3.07 C 12.9 km/h
1864 18-01-2020 11:35:00 5.8 C 6.09 g/m*3 3.36 C 11.3 km/h
1865 18-01-2020 11:40:00 5.9 C 6.13 g/m*3 4.63 C 6.4 km/h
1866 18-01-2020 11:45:00 5.9 C 6.13 g/m*3 3.48 C 11.3 km/h
1867 18-01-2020 11:50:00 6 C 6.1 g/m*3 3.6 C 11.3 km/h
1868 18-01-2020 11:55:00 6.1 C 6.14 g/m*3 4.04 C 9.7 km/h
1869 18-01-2020 12:00:00 6.1 C 6.14 g/m*3 3.72 C 11.3 km/h
1870 18-01-2020 12:05:00 6.2 C 6.18 g/m*3 3.84 C 11.3 km/h
1871 18-01-2020 12:10:00 6.2 C 6.18 g/m*3 2.66 C 19.3 km/h
1872 18-01-2020 12:15:00 6.2 C 6.18 g/m*3 4.98 C 6.4 km/h
1873 18-01-2020 12:20:00 6.3 C 6.14 g/m*3 3.68 C 12.9 km/h
1874 18-01-2020 12:25:00 6.3 C 6.14 g/m*3 4.27 C 9.7 km/h
1875 18-01-2020 12:30:00 6.2 C 6.1 g/m*3 4.15 C 9.7 km/h
Sensor: Nr:Datum:Temp:Abs-Feuchte:Windchill:Wind:
Aussen-T/F 1876 18-01-2020 12:35:00 6.2 C 6.1 g/m*3 4.15 C 9.7 km/h
1877 18-01-2020 12:40:00 6.2 C 6.1 g/m*3 4.98 C 6.4 km/h
1878 18-01-2020 12:45:00 6.2 C 6.1 g/m*3 3.84 C 11.3 km/h
1879 18-01-2020 12:50:00 6.1 C 6.06 g/m*3 4.86 C 6.4 km/h
1880 18-01-2020 12:55:00 6.2 C 6.1 g/m*3 4.15 C 9.7 km/h
1881 18-01-2020 13:00:00 6.2 C 6.03 g/m*3 3.56 C 12.9 km/h
1882 18-01-2020 13:05:00 6.3 C 6.07 g/m*3 4.64 C 8.1 km/h
1883 18-01-2020 13:10:00 6.3 C 6.07 g/m*3 4.27 C 9.7 km/h
1884 18-01-2020 13:15:00 6.3 C 6.07 g/m*3 4.64 C 8.1 km/h
1885 18-01-2020 13:20:00 6.3 C 6.07 g/m*3 4.64 C 8.1 km/h
1886 18-01-2020 13:25:00 6.3 C 6.07 g/m*3 4.64 C 8.1 km/h
1887 18-01-2020 13:30:00 6.4 C 6.18 g/m*3 5.21 C 6.4 km/h
1888 18-01-2020 13:35:00 6.4 C 6.26 g/m*3 5.21 C 6.4 km/h
1889 18-01-2020 13:40:00 6.4 C 6.26 g/m*3 4.75 C 8.1 km/h
1890 18-01-2020 13:45:00 6.3 C 6.14 g/m*3 3.43 C 14.5 km/h
1891 18-01-2020 13:50:00 6.3 C 6.14 g/m*3 3.96 C 11.3 km/h
1892 18-01-2020 13:55:00 6.2 C 6.1 g/m*3 4.15 C 9.7 km/h
1893 18-01-2020 14:00:00 6.3 C 6.22 g/m*3 4.64 C 8.1 km/h
1894 18-01-2020 14:05:00 6.2 C 6.1 g/m*3 4.98 C 6.4 km/h
1895 18-01-2020 14:10:00 6.2 C 6.1 g/m*3 4.15 C 9.7 km/h
1896 18-01-2020 14:15:00 6.2 C 6.1 g/m*3 4.98 C 6.4 km/h
1897 18-01-2020 14:20:00 6.1 C 6.06 g/m*3 4.86 C 6.4 km/h
1898 18-01-2020 14:25:00 6.2 C 6.1 g/m*3 3.84 C 11.3 km/h
1899 18-01-2020 14:30:00 6.3 C 6.07 g/m*3 4.27 C 9.7 km/h
1900 18-01-2020 14:35:00 6.4 C 6.11 g/m*3 5.21 C 6.4 km/h
Sensor: Nr:Datum:Temp:Abs-Feuchte:Windchill:Wind:
Aussen-T/F 1901 18-01-2020 14:40:00 6.5 C 6.15 g/m*3 5.33 C 6.4 km/h
1902 18-01-2020 14:45:00 6.6 C 6.04 g/m*3 5.44 C 6.4 km/h
1903 18-01-2020 14:50:00 6.7 C 5.93 g/m*3 4.44 C 11.3 km/h
1904 18-01-2020 14:55:00 6.8 C 5.89 g/m*3 4.29 C 12.9 km/h
1905 18-01-2020 15:00:00 6.9 C 5.93 g/m*3 4.68 C 11.3 km/h
1906 18-01-2020 15:05:00 6.9 C 6.08 g/m*3 4.41 C 12.9 km/h
1907 18-01-2020 15:10:00 6.8 C 6.04 g/m*3 4.29 C 12.9 km/h
1908 18-01-2020 15:15:00 6.8 C 6.04 g/m*3 4.56 C 11.3 km/h
1909 18-01-2020 15:20:00 6.8 C 6.12 g/m*3 5.22 C 8.1 km/h
1910 18-01-2020 15:25:00 6.7 C 6.08 g/m*3 5.11 C 8.1 km/h
1911 18-01-2020 15:30:00 6.7 C 6.08 g/m*3 5.56 C 6.4 km/h
1912 18-01-2020 15:35:00 6.7 C 6.08 g/m*3 5.11 C 8.1 km/h
1913 18-01-2020 15:40:00 6.6 C 6.04 g/m*3 4.32 C 11.3 km/h
1914 18-01-2020 15:45:00 6.6 C 6.11 g/m*3 6.6 C 4.8 km/h
1915 18-01-2020 15:50:00 6.4 C 6.04 g/m*3 6.4 C 4.8 km/h
1916 18-01-2020 15:55:00 6.4 C 6.04 g/m*3 5.21 C 6.4 km/h
1917 18-01-2020 16:00:00 6.3 C 6.07 g/m*3 6.3 C 4.8 km/h
1918 18-01-2020 16:05:00 6.3 C 6.07 g/m*3 4.27 C 9.7 km/h
1919 18-01-2020 16:10:00 6.2 C 6.03 g/m*3 6.2 C 4.8 km/h
1920 18-01-2020 16:15:00 6.1 C 5.99 g/m*3 4.4 C 8.1 km/h
1921 18-01-2020 16:20:00 6 C 5.95 g/m*3 6 C 4.8 km/h
1922 18-01-2020 16:25:00 5.9 C 5.98 g/m*3 5.9 C 4.8 km/h
1923 18-01-2020 16:30:00 5.8 C 5.87 g/m*3 4.52 C 6.4 km/h
1924 18-01-2020 16:35:00 5.7 C 5.84 g/m*3 5.7 C 4.8 km/h
1925 18-01-2020 16:40:00 5.6 C 5.8 g/m*3 5.6 C 3.2 km/h
Sensor: Nr:Datum:Temp:Abs-Feuchte:Windchill:Wind:
Aussen-T/F 1926 18-01-2020 16:45:00 5.4 C 5.79 g/m*3 4.06 C 6.4 km/h
1927 18-01-2020 16:50:00 5.3 C 5.75 g/m*3 5.3 C 1.6 km/h
1928 18-01-2020 16:55:00 5.3 C 5.82 g/m*3 3.08 C 9.7 km/h
1929 18-01-2020 17:00:00 5.3 C 5.89 g/m*3 5.3 C 4.8 km/h
1930 18-01-2020 17:05:00 5.2 C 5.85 g/m*3 5.2 C 3.2 km/h
1931 18-01-2020 17:10:00 5.2 C 5.85 g/m*3 5.2 C 4.8 km/h
1932 18-01-2020 17:15:00 5.2 C 5.85 g/m*3 5.2 C 3.2 km/h
1933 18-01-2020 17:20:00 5.2 C 5.85 g/m*3 3.82 C 6.4 km/h
1934 18-01-2020 17:25:00 5.1 C 5.81 g/m*3 5.1 C 4.8 km/h
1935 18-01-2020 17:30:00 4.9 C 5.74 g/m*3 4.9 C 1.6 km/h
1936 18-01-2020 17:35:00 4.8 C 5.7 g/m*3 4.8 C 3.2 km/h
1937 18-01-2020 17:40:00 4.6 C 5.69 g/m*3 4.6 C 3.2 km/h
1938 18-01-2020 17:45:00 4.5 C 5.65 g/m*3 4.5 C 3.2 km/h
1939 18-01-2020 17:50:00 4.3 C 5.58 g/m*3 4.3 C 4.8 km/h
1940 18-01-2020 17:55:00 4.3 C 5.58 g/m*3 4.3 C 3.2 km/h
1941 18-01-2020 18:00:00 4.2 C 5.61 g/m*3 4.2 C 3.2 km/h
1942 18-01-2020 18:05:00 4 C 5.53 g/m*3 4 C 3.2 km/h
1943 18-01-2020 18:10:00 3.8 C 5.46 g/m*3 3.8 C 1.6 km/h
1944 18-01-2020 18:15:00 3.7 C 5.42 g/m*3 3.7 C 1.6 km/h
1945 18-01-2020 18:20:00 3.6 C 5.45 g/m*3 3.6 C 1.6 km/h
1946 18-01-2020 18:25:00 3.4 C 5.37 g/m*3 3.4 C 3.2 km/h
1947 18-01-2020 18:30:00 3.3 C 5.4 g/m*3 3.3 C 1.6 km/h
1948 18-01-2020 18:35:00 3.2 C 5.42 g/m*3 3.2 C 1.6 km/h
1949 18-01-2020 18:40:00 3.2 C 5.42 g/m*3 3.2 C 3.2 km/h
1950 18-01-2020 18:45:00 3.3 C 5.46 g/m*3 1.11 C 8.1 km/h
Sensor: Nr:Datum:Temp:Abs-Feuchte:Windchill:Wind:
Aussen-T/F 1951 18-01-2020 18:50:00 3.4 C 5.5 g/m*3 3.4 C 4.8 km/h
1952 18-01-2020 18:55:00 3.6 C 5.57 g/m*3 3.6 C 4.8 km/h
1953 18-01-2020 19:00:00 3.6 C 5.51 g/m*3 3.6 C 3.2 km/h
1954 18-01-2020 19:05:00 3.5 C 5.41 g/m*3 3.5 C 1.6 km/h
1955 18-01-2020 19:10:00 3.3 C 5.34 g/m*3 3.3 C 0 km/h
1956 18-01-2020 19:15:00 3.2 C 5.3 g/m*3 3.2 C 1.6 km/h
1957 18-01-2020 19:20:00 3 C 5.23 g/m*3 3 C 1.6 km/h
1958 18-01-2020 19:25:00 2.8 C 5.22 g/m*3 2.8 C 0 km/h
1959 18-01-2020 19:30:00 2.7 C 5.24 g/m*3 2.7 C 0 km/h
1960 18-01-2020 19:35:00 2.6 C 5.21 g/m*3 2.6 C 0 km/h
1961 18-01-2020 19:40:00 2.4 C 5.14 g/m*3 2.4 C 1.6 km/h
1962 18-01-2020 19:45:00 2.3 C 5.16 g/m*3 2.3 C 1.6 km/h
1963 18-01-2020 19:50:00 2.3 C 5.16 g/m*3 2.3 C 0 km/h
1964 18-01-2020 19:55:00 2.2 C 5.13 g/m*3 2.2 C 0 km/h
1965 18-01-2020 20:00:00 2.2 C 5.13 g/m*3 2.2 C 0 km/h
1966 18-01-2020 20:05:00 2.1 C 5.09 g/m*3 2.1 C 0 km/h
1967 18-01-2020 20:10:00 1.9 C 5.02 g/m*3 1.9 C 3.2 km/h
1968 18-01-2020 20:15:00 1.8 C 4.99 g/m*3 1.8 C 3.2 km/h
1969 18-01-2020 20:20:00 1.7 C 5.01 g/m*3 1.7 C 0 km/h
1970 18-01-2020 20:25:00 1.6 C 4.97 g/m*3 1.6 C 1.6 km/h
1971 18-01-2020 20:30:00 1.6 C 4.97 g/m*3 1.6 C 3.2 km/h
1972 18-01-2020 20:35:00 1.5 C 4.94 g/m*3 1.5 C 0 km/h
1973 18-01-2020 20:40:00 1.4 C 4.91 g/m*3 1.4 C 0 km/h
1974 18-01-2020 20:45:00 1.4 C 4.91 g/m*3 1.4 C 0 km/h
1975 18-01-2020 20:50:00 1.3 C 4.87 g/m*3 1.3 C 0 km/h
Sensor: Nr:Datum:Temp:Abs-Feuchte:Windchill:Wind:
Aussen-T/F 1976 18-01-2020 20:55:00 1.3 C 4.93 g/m*3 1.3 C 0 km/h
1977 18-01-2020 21:00:00 1.2 C 4.89 g/m*3 1.2 C 0 km/h
1978 18-01-2020 21:05:00 1.3 C 4.93 g/m*3 1.3 C 0 km/h
1979 18-01-2020 21:10:00 1.3 C 4.93 g/m*3 1.3 C 0 km/h
1980 18-01-2020 21:15:00 1.4 C 5.01 g/m*3 1.4 C 1.6 km/h
1981 18-01-2020 21:20:00 1.6 C 5.08 g/m*3 1.6 C 0 km/h
1982 18-01-2020 21:25:00 1.7 C 5.12 g/m*3 1.7 C 1.6 km/h
1983 18-01-2020 21:30:00 1.8 C 5.15 g/m*3 1.8 C 0 km/h
1984 18-01-2020 21:35:00 1.9 C 5.19 g/m*3 1.9 C 1.6 km/h
1985 18-01-2020 21:40:00 2 C 5.22 g/m*3 2 C 0 km/h
1986 18-01-2020 21:45:00 2.1 C 5.26 g/m*3 2.1 C 3.2 km/h
1987 18-01-2020 21:50:00 2.2 C 5.29 g/m*3 0.36 C 6.4 km/h
1988 18-01-2020 21:55:00 2.2 C 5.29 g/m*3 2.2 C 1.6 km/h
1989 18-01-2020 22:00:00 2.2 C 5.24 g/m*3 2.2 C 0 km/h
1990 18-01-2020 22:05:00 2.2 C 5.24 g/m*3 2.2 C 0 km/h
1991 18-01-2020 22:10:00 2.1 C 5.2 g/m*3 2.1 C 0 km/h
1992 18-01-2020 22:15:00 2.1 C 5.2 g/m*3 2.1 C 1.6 km/h
1993 18-01-2020 22:20:00 2.1 C 5.2 g/m*3 2.1 C 1.6 km/h
1994 18-01-2020 22:25:00 2 C 5.17 g/m*3 2 C 3.2 km/h
1995 18-01-2020 22:30:00 2.1 C 5.2 g/m*3 2.1 C 4.8 km/h
1996 18-01-2020 22:35:00 2.2 C 5.24 g/m*3 -0.18 C 8.1 km/h
1997 18-01-2020 22:40:00 2.3 C 5.27 g/m*3 2.3 C 0 km/h
1998 18-01-2020 22:45:00 2.4 C 5.31 g/m*3 2.4 C 3.2 km/h
1999 18-01-2020 22:50:00 2.5 C 5.35 g/m*3 0.71 C 6.4 km/h
2000 18-01-2020 22:55:00 2.6 C 5.38 g/m*3 2.6 C 4.8 km/h
Sensor: Nr:Datum:Temp:Abs-Feuchte:Windchill:Wind:
Aussen-T/F 2001 18-01-2020 23:00:00 2.7 C 5.42 g/m*3 2.7 C 3.2 km/h
2002 18-01-2020 23:05:00 2.7 C 5.42 g/m*3 2.7 C 3.2 km/h
2003 18-01-2020 23:10:00 2.8 C 5.4 g/m*3 2.8 C 0 km/h
2004 18-01-2020 23:15:00 2.9 C 5.43 g/m*3 2.9 C 3.2 km/h
2005 18-01-2020 23:20:00 2.9 C 5.43 g/m*3 2.9 C 3.2 km/h
2006 18-01-2020 23:25:00 3.1 C 5.51 g/m*3 0.87 C 8.1 km/h
2007 18-01-2020 23:30:00 3.3 C 5.58 g/m*3 3.3 C 3.2 km/h
2008 18-01-2020 23:35:00 3.4 C 5.62 g/m*3 3.4 C 4.8 km/h
2009 18-01-2020 23:40:00 3.5 C 5.6 g/m*3 3.5 C 3.2 km/h
2010 18-01-2020 23:45:00 3.6 C 5.63 g/m*3 3.6 C 4.8 km/h
2011 18-01-2020 23:50:00 3.6 C 5.69 g/m*3 1.98 C 6.4 km/h
2012 18-01-2020 23:55:00 3.6 C 5.63 g/m*3 3.6 C 4.8 km/h
2013 19-01-2020 00:00:00 3.5 C 5.6 g/m*3 3.5 C 3.2 km/h
2014 19-01-2020 00:05:00 3.4 C 5.56 g/m*3 3.4 C 1.6 km/h
2015 19-01-2020 00:10:00 3.3 C 5.58 g/m*3 3.3 C 1.6 km/h
2016 19-01-2020 00:15:00 3.3 C 5.58 g/m*3 3.3 C 3.2 km/h
2017 19-01-2020 00:20:00 3.3 C 5.64 g/m*3 3.3 C 0 km/h
2018 19-01-2020 00:25:00 3.3 C 5.64 g/m*3 3.3 C 1.6 km/h
2019 19-01-2020 00:30:00 3.3 C 5.64 g/m*3 3.3 C 0 km/h
2020 19-01-2020 00:35:00 3.3 C 5.64 g/m*3 3.3 C 1.6 km/h
2021 19-01-2020 00:40:00 3.3 C 5.64 g/m*3 1.63 C 6.4 km/h
2022 19-01-2020 00:45:00 3.3 C 5.64 g/m*3 0.34 C 11.3 km/h
2023 19-01-2020 00:50:00 3.3 C 5.64 g/m*3 3.3 C 0 km/h
2024 19-01-2020 00:55:00 3.3 C 5.64 g/m*3 3.3 C 0 km/h
2025 19-01-2020 01:00:00 3.3 C 5.64 g/m*3 3.3 C 1.6 km/h
Sensor: Nr:Datum:Temp:Abs-Feuchte:Windchill:Wind:
Aussen-T/F 2026 19-01-2020 01:05:00 3.3 C 5.64 g/m*3 0.7 C 9.7 km/h
2027 19-01-2020 01:10:00 3.3 C 5.64 g/m*3 3.3 C 3.2 km/h
2028 19-01-2020 01:15:00 3.3 C 5.64 g/m*3 3.3 C 1.6 km/h
2029 19-01-2020 01:20:00 3.3 C 5.64 g/m*3 1.11 C 8.1 km/h
2030 19-01-2020 01:25:00 3.2 C 5.6 g/m*3 3.2 C 0 km/h
2031 19-01-2020 01:30:00 3.2 C 5.6 g/m*3 3.2 C 1.6 km/h
2032 19-01-2020 01:35:00 3.1 C 5.57 g/m*3 3.1 C 3.2 km/h
2033 19-01-2020 01:40:00 3.1 C 5.57 g/m*3 3.1 C 0 km/h
2034 19-01-2020 01:45:00 3.1 C 5.63 g/m*3 3.1 C 0 km/h
2035 19-01-2020 01:50:00 3 C 5.59 g/m*3 3 C 0 km/h
2036 19-01-2020 01:55:00 3 C 5.59 g/m*3 3 C 0 km/h
2037 19-01-2020 02:00:00 2.9 C 5.55 g/m*3 2.9 C 0 km/h
2038 19-01-2020 02:05:00 2.9 C 5.55 g/m*3 2.9 C 0 km/h
2039 19-01-2020 02:10:00 2.9 C 5.55 g/m*3 2.9 C 3.2 km/h
2040 19-01-2020 02:15:00 2.9 C 5.55 g/m*3 2.9 C 1.6 km/h
2041 19-01-2020 02:20:00 2.9 C 5.55 g/m*3 2.9 C 0 km/h
2042 19-01-2020 02:25:00 2.9 C 5.55 g/m*3 2.9 C 3.2 km/h
2043 19-01-2020 02:30:00 2.8 C 5.57 g/m*3 2.8 C 1.6 km/h
2044 19-01-2020 02:35:00 2.8 C 5.57 g/m*3 2.8 C 1.6 km/h
2045 19-01-2020 02:40:00 2.8 C 5.51 g/m*3 2.8 C 0 km/h
2046 19-01-2020 02:45:00 2.8 C 5.51 g/m*3 2.8 C 0 km/h
2047 19-01-2020 02:50:00 2.7 C 5.48 g/m*3 2.7 C 0 km/h
2048 19-01-2020 02:55:00 2.7 C 5.54 g/m*3 2.7 C 0 km/h
2049 19-01-2020 03:00:00 2.7 C 5.54 g/m*3 2.7 C 0 km/h
2050 19-01-2020 03:05:00 2.7 C 5.54 g/m*3 2.7 C 4.8 km/h
Sensor: Nr:Datum:Temp:Abs-Feuchte:Windchill:Wind:
Aussen-T/F 2051 19-01-2020 03:10:00 2.7 C 5.54 g/m*3 2.7 C 3.2 km/h
2052 19-01-2020 03:15:00 2.8 C 5.57 g/m*3 2.8 C 0 km/h
2053 19-01-2020 03:20:00 2.8 C 5.57 g/m*3 2.8 C 0 km/h
2054 19-01-2020 03:25:00 2.8 C 5.57 g/m*3 2.8 C 0 km/h
2055 19-01-2020 03:30:00 2.9 C 5.61 g/m*3 2.9 C 0 km/h
2056 19-01-2020 03:35:00 2.9 C 5.61 g/m*3 2.9 C 0 km/h
2057 19-01-2020 03:40:00 2.9 C 5.61 g/m*3 2.9 C 1.6 km/h
2058 19-01-2020 03:45:00 2.9 C 5.61 g/m*3 2.9 C 0 km/h
2059 19-01-2020 03:50:00 3 C 5.65 g/m*3 3 C 0 km/h
2060 19-01-2020 03:55:00 3 C 5.65 g/m*3 3 C 0 km/h
2061 19-01-2020 04:00:00 3 C 5.65 g/m*3 3 C 0 km/h
2062 19-01-2020 04:05:00 3 C 5.65 g/m*3 3 C 0 km/h
2063 19-01-2020 04:10:00 3 C 5.65 g/m*3 3 C 0 km/h
2064 19-01-2020 04:15:00 3.1 C 5.69 g/m*3 3.1 C 0 km/h
2065 19-01-2020 04:20:00 3.1 C 5.75 g/m*3 3.1 C 0 km/h
2066 19-01-2020 04:25:00 3.1 C 5.75 g/m*3 3.1 C 0 km/h
2067 19-01-2020 04:30:00 3.1 C 5.75 g/m*3 3.1 C 0 km/h
2068 19-01-2020 04:35:00 3.1 C 5.75 g/m*3 3.1 C 0 km/h
2069 19-01-2020 04:40:00 3 C 5.71 g/m*3 3 C 1.6 km/h
2070 19-01-2020 04:45:00 3 C 5.71 g/m*3 3 C 0 km/h
2071 19-01-2020 04:50:00 2.9 C 5.67 g/m*3 2.9 C 3.2 km/h
2072 19-01-2020 04:55:00 2.9 C 5.67 g/m*3 2.9 C 1.6 km/h
2073 19-01-2020 05:00:00 2.9 C 5.67 g/m*3 2.9 C 0 km/h
2074 19-01-2020 05:05:00 2.9 C 5.67 g/m*3 2.9 C 0 km/h
2075 19-01-2020 05:10:00 2.9 C 5.67 g/m*3 2.9 C 0 km/h
Sensor: Nr:Datum:Temp:Abs-Feuchte:Windchill:Wind:
Aussen-T/F 2076 19-01-2020 05:15:00 2.9 C 5.67 g/m*3 2.9 C 0 km/h
2077 19-01-2020 05:20:00 3 C 5.71 g/m*3 3 C 0 km/h
2078 19-01-2020 05:25:00 3 C 5.71 g/m*3 3 C 0 km/h
2079 19-01-2020 05:30:00 3 C 5.71 g/m*3 3 C 0 km/h
2080 19-01-2020 05:35:00 3.1 C 5.75 g/m*3 3.1 C 0 km/h
2081 19-01-2020 05:40:00 3.1 C 5.75 g/m*3 3.1 C 0 km/h
2082 19-01-2020 05:45:00 3.1 C 5.75 g/m*3 3.1 C 0 km/h
2083 19-01-2020 05:50:00 3.1 C 5.75 g/m*3 3.1 C 1.6 km/h
2084 19-01-2020 05:55:00 3.1 C 5.75 g/m*3 3.1 C 4.8 km/h
2085 19-01-2020 06:00:00 3.1 C 5.75 g/m*3 3.1 C 0 km/h
2086 19-01-2020 06:05:00 3.1 C 5.75 g/m*3 3.1 C 0 km/h
2087 19-01-2020 06:10:00 3.1 C 5.75 g/m*3 3.1 C 0 km/h
2088 19-01-2020 06:15:00 3.1 C 5.75 g/m*3 3.1 C 0 km/h
2089 19-01-2020 06:20:00 3.1 C 5.75 g/m*3 3.1 C 0 km/h
2090 19-01-2020 06:25:00 3.1 C 5.75 g/m*3 3.1 C 0 km/h
2091 19-01-2020 06:30:00 3.1 C 5.75 g/m*3 3.1 C 0 km/h
2092 19-01-2020 06:35:00 3.1 C 5.75 g/m*3 3.1 C 0 km/h
2093 19-01-2020 06:40:00 3.1 C 5.75 g/m*3 3.1 C 0 km/h
2094 19-01-2020 06:45:00 3.1 C 5.75 g/m*3 3.1 C 0 km/h
2095 19-01-2020 06:50:00 3.1 C 5.75 g/m*3 3.1 C 0 km/h
2096 19-01-2020 06:55:00 3.1 C 5.75 g/m*3 3.1 C 0 km/h
2097 19-01-2020 07:00:00 3.1 C 5.75 g/m*3 3.1 C 0 km/h
2098 19-01-2020 07:05:00 3.1 C 5.75 g/m*3 3.1 C 1.6 km/h
2099 19-01-2020 07:10:00 3.2 C 5.79 g/m*3 3.2 C 0 km/h
2100 19-01-2020 07:15:00 3.2 C 5.79 g/m*3 3.2 C 0 km/h
Sensor: Nr:Datum:Temp:Abs-Feuchte:Windchill:Wind:
Aussen-T/F 2101 19-01-2020 07:20:00 3.2 C 5.79 g/m*3 3.2 C 0 km/h
2102 19-01-2020 07:25:00 3.2 C 5.79 g/m*3 3.2 C 0 km/h
2103 19-01-2020 07:30:00 3.2 C 5.79 g/m*3 3.2 C 0 km/h
2104 19-01-2020 07:35:00 3.2 C 5.79 g/m*3 3.2 C 0 km/h
2105 19-01-2020 07:40:00 3.2 C 5.79 g/m*3 3.2 C 1.6 km/h
2106 19-01-2020 07:45:00 3.2 C 5.79 g/m*3 3.2 C 0 km/h
2107 19-01-2020 07:50:00 3.2 C 5.79 g/m*3 3.2 C 1.6 km/h
2108 19-01-2020 07:55:00 3.2 C 5.79 g/m*3 3.2 C 4.8 km/h
2109 19-01-2020 08:00:00 3.2 C 5.79 g/m*3 3.2 C 0 km/h
2110 19-01-2020 08:05:00 3.2 C 5.79 g/m*3 3.2 C 0 km/h
2111 19-01-2020 08:10:00 3.2 C 5.79 g/m*3 3.2 C 0 km/h
2112 19-01-2020 08:15:00 3.2 C 5.79 g/m*3 3.2 C 1.6 km/h
2113 19-01-2020 08:20:00 3.2 C 5.79 g/m*3 3.2 C 0 km/h
2114 19-01-2020 08:25:00 3.2 C 5.79 g/m*3 3.2 C 0 km/h
2115 19-01-2020 08:30:00 3.2 C 5.79 g/m*3 3.2 C 1.6 km/h
2116 19-01-2020 08:35:00 3.3 C 5.82 g/m*3 3.3 C 3.2 km/h
2117 19-01-2020 08:40:00 3.3 C 5.82 g/m*3 3.3 C 0 km/h
2118 19-01-2020 08:45:00 3.3 C 5.82 g/m*3 1.63 C 6.4 km/h
2119 19-01-2020 08:50:00 3.3 C 5.82 g/m*3 3.3 C 4.8 km/h
2120 19-01-2020 08:55:00 3.3 C 5.82 g/m*3 3.3 C 0 km/h
2121 19-01-2020 09:00:00 3.3 C 5.82 g/m*3 1.11 C 8.1 km/h
2122 19-01-2020 09:05:00 3.3 C 5.82 g/m*3 3.3 C 0 km/h
2123 19-01-2020 09:10:00 3.3 C 5.82 g/m*3 3.3 C 0 km/h
2124 19-01-2020 09:15:00 3.4 C 5.86 g/m*3 3.4 C 0 km/h
2125 19-01-2020 09:20:00 3.4 C 5.86 g/m*3 3.4 C 3.2 km/h
Sensor: Nr:Datum:Temp:Abs-Feuchte:Windchill:Wind:
Aussen-T/F 2126 19-01-2020 09:25:00 3.4 C 5.86 g/m*3 3.4 C 3.2 km/h
2127 19-01-2020 09:30:00 3.4 C 5.86 g/m*3 3.4 C 4.8 km/h
2128 19-01-2020 09:35:00 3.4 C 5.86 g/m*3 3.4 C 4.8 km/h
2129 19-01-2020 09:40:00 3.4 C 5.86 g/m*3 3.4 C 1.6 km/h
2130 19-01-2020 09:45:00 3.4 C 5.86 g/m*3 3.4 C 0 km/h
2131 19-01-2020 09:50:00 3.5 C 5.84 g/m*3 3.5 C 4.8 km/h
2132 19-01-2020 09:55:00 3.5 C 5.84 g/m*3 3.5 C 1.6 km/h
2133 19-01-2020 10:00:00 3.5 C 5.84 g/m*3 1.86 C 6.4 km/h
2134 19-01-2020 10:05:00 3.6 C 5.88 g/m*3 3.6 C 3.2 km/h
2135 19-01-2020 10:10:00 3.6 C 5.88 g/m*3 1.98 C 6.4 km/h
2136 19-01-2020 10:15:00 3.5 C 5.84 g/m*3 1.86 C 6.4 km/h
2137 19-01-2020 10:20:00 3.6 C 5.88 g/m*3 1.98 C 6.4 km/h
2138 19-01-2020 10:25:00 3.6 C 5.88 g/m*3 1.46 C 8.1 km/h
2139 19-01-2020 10:30:00 3.6 C 5.82 g/m*3 3.6 C 4.8 km/h
2140 19-01-2020 10:35:00 3.7 C 5.86 g/m*3 3.7 C 4.8 km/h
2141 19-01-2020 10:40:00 3.7 C 5.86 g/m*3 3.7 C 4.8 km/h
2142 19-01-2020 10:45:00 3.7 C 5.86 g/m*3 3.7 C 3.2 km/h
2143 19-01-2020 10:50:00 3.8 C 5.9 g/m*3 3.8 C 1.6 km/h
2144 19-01-2020 10:55:00 3.8 C 5.9 g/m*3 3.8 C 0 km/h
2145 19-01-2020 11:00:00 3.9 C 5.94 g/m*3 3.9 C 3.2 km/h
2146 19-01-2020 11:05:00 3.9 C 5.94 g/m*3 2.32 C 6.4 km/h
2147 19-01-2020 11:10:00 3.9 C 5.87 g/m*3 1.82 C 8.1 km/h
2148 19-01-2020 11:15:00 3.9 C 5.94 g/m*3 3.9 C 4.8 km/h
2149 19-01-2020 11:20:00 3.9 C 5.87 g/m*3 3.9 C 3.2 km/h
2150 19-01-2020 11:25:00 3.9 C 5.87 g/m*3 3.9 C 4.8 km/h
Sensor: Nr:Datum:Temp:Abs-Feuchte:Windchill:Wind:
Aussen-T/F 2151 19-01-2020 11:30:00 4 C 5.91 g/m*3 4 C 3.2 km/h
2152 19-01-2020 11:35:00 4 C 5.91 g/m*3 4 C 3.2 km/h
2153 19-01-2020 11:40:00 4.1 C 5.95 g/m*3 4.1 C 3.2 km/h
2154 19-01-2020 11:45:00 4.1 C 5.95 g/m*3 4.1 C 1.6 km/h
2155 19-01-2020 11:50:00 4.2 C 5.99 g/m*3 4.2 C 3.2 km/h
2156 19-01-2020 11:55:00 4.2 C 5.99 g/m*3 4.2 C 4.8 km/h
2157 19-01-2020 12:00:00 4.2 C 5.99 g/m*3 4.2 C 3.2 km/h
2158 19-01-2020 12:05:00 4.2 C 5.99 g/m*3 4.2 C 1.6 km/h
2159 19-01-2020 12:10:00 4.3 C 6.03 g/m*3 4.3 C 1.6 km/h
2160 19-01-2020 12:15:00 4.3 C 6.03 g/m*3 4.3 C 0 km/h
2161 19-01-2020 12:20:00 4.3 C 6.03 g/m*3 4.3 C 0 km/h
2162 19-01-2020 12:25:00 4.2 C 5.93 g/m*3 4.2 C 0 km/h
2163 19-01-2020 12:30:00 4.3 C 6.03 g/m*3 4.3 C 0 km/h
2164 19-01-2020 12:35:00 4.3 C 6.03 g/m*3 4.3 C 4.8 km/h
2165 19-01-2020 12:40:00 4.3 C 6.03 g/m*3 4.3 C 1.6 km/h
2166 19-01-2020 12:45:00 4.3 C 6.03 g/m*3 4.3 C 3.2 km/h
2167 19-01-2020 12:50:00 4.4 C 6.07 g/m*3 4.4 C 0 km/h
2168 19-01-2020 12:55:00 4.4 C 6.07 g/m*3 4.4 C 1.6 km/h
2169 19-01-2020 13:00:00 4.4 C 6.01 g/m*3 4.4 C 4.8 km/h
2170 19-01-2020 13:05:00 4.4 C 6.01 g/m*3 4.4 C 0 km/h
2171 19-01-2020 13:10:00 4.4 C 6.01 g/m*3 4.4 C 4.8 km/h
2172 19-01-2020 13:15:00 4.5 C 6.05 g/m*3 4.5 C 3.2 km/h
2173 19-01-2020 13:20:00 4.5 C 6.05 g/m*3 3.02 C 6.4 km/h
2174 19-01-2020 13:25:00 4.5 C 6.05 g/m*3 3.02 C 6.4 km/h
2175 19-01-2020 13:30:00 4.5 C 6.05 g/m*3 2.52 C 8.1 km/h
Sensor: Nr:Datum:Temp:Abs-Feuchte:Windchill:Wind:
Aussen-T/F 2176 19-01-2020 13:35:00 4.5 C 6.05 g/m*3 4.5 C 3.2 km/h
2177 19-01-2020 13:40:00 4.5 C 6.05 g/m*3 4.5 C 1.6 km/h
2178 19-01-2020 13:45:00 4.6 C 6.09 g/m*3 4.6 C 3.2 km/h
2179 19-01-2020 13:50:00 4.6 C 6.09 g/m*3 4.6 C 1.6 km/h
2180 19-01-2020 13:55:00 4.6 C 6.09 g/m*3 4.6 C 1.6 km/h
2181 19-01-2020 14:00:00 4.7 C 6.13 g/m*3 4.7 C 1.6 km/h
2182 19-01-2020 14:05:00 4.8 C 6.17 g/m*3 4.8 C 0 km/h
2183 19-01-2020 14:10:00 4.8 C 6.17 g/m*3 4.8 C 1.6 km/h
2184 19-01-2020 14:15:00 4.8 C 6.1 g/m*3 4.8 C 1.6 km/h
2185 19-01-2020 14:20:00 4.9 C 6.21 g/m*3 4.9 C 3.2 km/h
2186 19-01-2020 14:25:00 4.9 C 6.14 g/m*3 4.9 C 3.2 km/h
2187 19-01-2020 14:30:00 4.9 C 6.14 g/m*3 2.99 C 8.1 km/h
2188 19-01-2020 14:35:00 4.9 C 6.08 g/m*3 4.9 C 4.8 km/h
2189 19-01-2020 14:40:00 4.9 C 6.08 g/m*3 4.9 C 4.8 km/h
2190 19-01-2020 14:45:00 4.9 C 6.08 g/m*3 2.99 C 8.1 km/h
2191 19-01-2020 14:50:00 4.9 C 6.08 g/m*3 3.48 C 6.4 km/h
2192 19-01-2020 14:55:00 5 C 6.12 g/m*3 3.59 C 6.4 km/h
2193 19-01-2020 15:00:00 4.9 C 6.08 g/m*3 3.48 C 6.4 km/h
2194 19-01-2020 15:05:00 4.9 C 6.08 g/m*3 4.9 C 4.8 km/h
2195 19-01-2020 15:10:00 4.9 C 6.08 g/m*3 4.9 C 4.8 km/h
2196 19-01-2020 15:15:00 4.9 C 6.08 g/m*3 4.9 C 3.2 km/h
2197 19-01-2020 15:20:00 5 C 6.05 g/m*3 5 C 4.8 km/h
2198 19-01-2020 15:25:00 5 C 6.05 g/m*3 5 C 4.8 km/h
2199 19-01-2020 15:30:00 5 C 6.12 g/m*3 5 C 4.8 km/h
2200 19-01-2020 15:35:00 5.1 C 6.09 g/m*3 3.23 C 8.1 km/h
Sensor: Nr:Datum:Temp:Abs-Feuchte:Windchill:Wind:
Aussen-T/F 2201 19-01-2020 15:40:00 5.1 C 6.09 g/m*3 5.1 C 4.8 km/h
2202 19-01-2020 15:45:00 5.1 C 6.09 g/m*3 5.1 C 3.2 km/h
2203 19-01-2020 15:50:00 5.1 C 6.09 g/m*3 3.71 C 6.4 km/h
2204 19-01-2020 15:55:00 5.1 C 6.09 g/m*3 2.84 C 9.7 km/h
2205 19-01-2020 16:00:00 5.1 C 6.09 g/m*3 3.71 C 6.4 km/h
2206 19-01-2020 16:05:00 5.1 C 6.09 g/m*3 5.1 C 4.8 km/h
2207 19-01-2020 16:10:00 5.1 C 6.09 g/m*3 5.1 C 4.8 km/h
2208 19-01-2020 16:15:00 5 C 6.05 g/m*3 5 C 4.8 km/h
2209 19-01-2020 16:20:00 5 C 6.05 g/m*3 5 C 3.2 km/h
2210 19-01-2020 16:25:00 5 C 6.12 g/m*3 5 C 1.6 km/h
2211 19-01-2020 16:30:00 5 C 6.12 g/m*3 5 C 0 km/h
2212 19-01-2020 16:35:00 5 C 6.12 g/m*3 5 C 4.8 km/h
2213 19-01-2020 16:40:00 4.9 C 6.08 g/m*3 2.99 C 8.1 km/h
2214 19-01-2020 16:45:00 4.9 C 6.14 g/m*3 4.9 C 3.2 km/h
2215 19-01-2020 16:50:00 4.8 C 6.1 g/m*3 4.8 C 0 km/h
2216 19-01-2020 16:55:00 4.8 C 6.17 g/m*3 4.8 C 0 km/h
2217 19-01-2020 17:00:00 4.8 C 6.17 g/m*3 4.8 C 3.2 km/h
2218 19-01-2020 17:05:00 4.7 C 6.13 g/m*3 4.7 C 0 km/h
2219 19-01-2020 17:10:00 4.6 C 6.09 g/m*3 4.6 C 0 km/h
2220 19-01-2020 17:15:00 4.6 C 6.09 g/m*3 4.6 C 0 km/h
2221 19-01-2020 17:20:00 4.6 C 6.15 g/m*3 4.6 C 0 km/h
2222 19-01-2020 17:25:00 4.5 C 6.11 g/m*3 4.5 C 0 km/h
2223 19-01-2020 17:30:00 4.4 C 6.07 g/m*3 4.4 C 0 km/h
2224 19-01-2020 17:35:00 4.4 C 6.07 g/m*3 4.4 C 0 km/h
2225 19-01-2020 17:40:00 4.3 C 6.03 g/m*3 4.3 C 0 km/h
Sensor: Nr:Datum:Temp:Abs-Feuchte:Windchill:Wind:
Aussen-T/F 2226 19-01-2020 17:45:00 4.3 C 6.1 g/m*3 4.3 C 3.2 km/h
2227 19-01-2020 17:50:00 4.3 C 6.1 g/m*3 4.3 C 0 km/h
2228 19-01-2020 17:55:00 4.3 C 6.1 g/m*3 4.3 C 1.6 km/h
2229 19-01-2020 18:00:00 4.3 C 6.1 g/m*3 4.3 C 1.6 km/h
2230 19-01-2020 18:05:00 4.3 C 6.1 g/m*3 4.3 C 3.2 km/h
2231 19-01-2020 18:10:00 4.3 C 6.1 g/m*3 4.3 C 3.2 km/h
2232 19-01-2020 18:15:00 4.3 C 6.16 g/m*3 4.3 C 1.6 km/h
2233 19-01-2020 18:20:00 4.2 C 6.12 g/m*3 4.2 C 0 km/h
2234 19-01-2020 18:25:00 4.2 C 6.12 g/m*3 4.2 C 0 km/h
2235 19-01-2020 18:30:00 4.2 C 6.12 g/m*3 4.2 C 0 km/h
2236 19-01-2020 18:35:00 4.2 C 6.12 g/m*3 4.2 C 1.6 km/h
2237 19-01-2020 18:40:00 4.2 C 6.12 g/m*3 4.2 C 0 km/h
2238 19-01-2020 18:45:00 4.2 C 6.12 g/m*3 4.2 C 1.6 km/h
2239 19-01-2020 18:50:00 4.2 C 6.12 g/m*3 4.2 C 0 km/h
2240 19-01-2020 18:55:00 4.2 C 6.12 g/m*3 4.2 C 0 km/h
2241 19-01-2020 19:00:00 4.2 C 6.12 g/m*3 4.2 C 0 km/h
2242 19-01-2020 19:05:00 4.2 C 6.12 g/m*3 4.2 C 3.2 km/h
2243 19-01-2020 19:10:00 4.2 C 6.12 g/m*3 4.2 C 3.2 km/h
2244 19-01-2020 19:15:00 4.2 C 6.12 g/m*3 4.2 C 1.6 km/h
2245 19-01-2020 19:20:00 4.2 C 6.12 g/m*3 4.2 C 4.8 km/h
2246 19-01-2020 19:25:00 4.2 C 6.19 g/m*3 4.2 C 0 km/h
2247 19-01-2020 19:30:00 4.2 C 6.12 g/m*3 4.2 C 0 km/h
2248 19-01-2020 19:35:00 4.2 C 6.19 g/m*3 4.2 C 0 km/h
2249 19-01-2020 19:40:00 4.2 C 6.19 g/m*3 4.2 C 0 km/h
2250 19-01-2020 19:45:00 4.2 C 6.19 g/m*3 4.2 C 0 km/h
Sensor: Nr:Datum:Temp:Abs-Feuchte:Windchill:Wind:
Aussen-T/F 2251 19-01-2020 19:50:00 4.2 C 6.19 g/m*3 4.2 C 0 km/h
2252 19-01-2020 19:55:00 4.2 C 6.19 g/m*3 4.2 C 0 km/h
2253 19-01-2020 20:00:00 4.2 C 6.19 g/m*3 4.2 C 0 km/h
2254 19-01-2020 20:05:00 4.1 C 6.08 g/m*3 4.1 C 0 km/h
2255 19-01-2020 20:10:00 4.1 C 6.08 g/m*3 4.1 C 0 km/h
2256 19-01-2020 20:15:00 4.1 C 6.08 g/m*3 4.1 C 0 km/h
2257 19-01-2020 20:20:00 4.1 C 6.14 g/m*3 4.1 C 0 km/h
2258 19-01-2020 20:25:00 4.1 C 6.14 g/m*3 4.1 C 0 km/h
2259 19-01-2020 20:30:00 4.1 C 6.14 g/m*3 4.1 C 0 km/h
2260 19-01-2020 20:35:00 4.1 C 6.14 g/m*3 4.1 C 0 km/h
2261 19-01-2020 20:40:00 4.1 C 6.14 g/m*3 4.1 C 0 km/h
2262 19-01-2020 20:45:00 4.1 C 6.14 g/m*3 4.1 C 0 km/h
2263 19-01-2020 20:50:00 4.1 C 6.14 g/m*3 4.1 C 0 km/h
2264 19-01-2020 20:55:00 4.1 C 6.14 g/m*3 4.1 C 0 km/h
2265 19-01-2020 21:00:00 4.1 C 6.14 g/m*3 4.1 C 0 km/h
2266 19-01-2020 21:05:00 4.1 C 6.14 g/m*3 4.1 C 0 km/h
2267 19-01-2020 21:10:00 4.1 C 6.14 g/m*3 4.1 C 0 km/h
2268 19-01-2020 21:15:00 4 C 6.1 g/m*3 4 C 0 km/h
2269 19-01-2020 21:20:00 3.9 C 6.06 g/m*3 3.9 C 0 km/h
2270 19-01-2020 21:25:00 3.9 C 6.06 g/m*3 3.9 C 0 km/h
2271 19-01-2020 21:30:00 3.9 C 6.06 g/m*3 3.9 C 0 km/h
2272 19-01-2020 21:35:00 4 C 6.1 g/m*3 4 C 0 km/h
2273 19-01-2020 21:40:00 4 C 6.1 g/m*3 4 C 0 km/h
2274 19-01-2020 21:45:00 4 C 6.1 g/m*3 4 C 0 km/h
2275 19-01-2020 21:50:00 4 C 6.1 g/m*3 4 C 0 km/h
Sensor: Nr:Datum:Temp:Abs-Feuchte:Windchill:Wind:
Aussen-T/F 2276 19-01-2020 21:55:00 3.9 C 6.06 g/m*3 3.9 C 0 km/h
2277 19-01-2020 22:00:00 3.9 C 6.06 g/m*3 3.9 C 0 km/h
2278 19-01-2020 22:05:00 3.9 C 6.06 g/m*3 3.9 C 0 km/h
2279 19-01-2020 22:10:00 3.9 C 6.06 g/m*3 3.9 C 0 km/h
2280 19-01-2020 22:15:00 3.9 C 6.06 g/m*3 3.9 C 0 km/h
2281 19-01-2020 22:20:00 3.9 C 6.06 g/m*3 3.9 C 0 km/h
2282 19-01-2020 22:25:00 3.9 C 6.06 g/m*3 3.9 C 0 km/h
2283 19-01-2020 22:30:00 3.9 C 6.06 g/m*3 3.9 C 0 km/h
2284 19-01-2020 22:35:00 3.9 C 6.06 g/m*3 3.9 C 0 km/h
2285 19-01-2020 22:40:00 4 C 6.1 g/m*3 4 C 0 km/h
2286 19-01-2020 22:45:00 4 C 6.1 g/m*3 4 C 0 km/h
2287 19-01-2020 22:50:00 4.1 C 6.14 g/m*3 4.1 C 0 km/h
2288 19-01-2020 22:55:00 4.1 C 6.14 g/m*3 4.1 C 0 km/h
2289 19-01-2020 23:00:00 4.1 C 6.14 g/m*3 4.1 C 0 km/h
2290 19-01-2020 23:05:00 4.1 C 6.14 g/m*3 4.1 C 0 km/h
2291 19-01-2020 23:10:00 4 C 6.1 g/m*3 4 C 0 km/h
2292 19-01-2020 23:15:00 3.8 C 6.02 g/m*3 3.8 C 0 km/h
2293 19-01-2020 23:20:00 3.6 C 5.94 g/m*3 3.6 C 0 km/h
2294 19-01-2020 23:25:00 3.4 C 5.8 g/m*3 3.4 C 1.6 km/h
2295 19-01-2020 23:30:00 3.2 C 5.72 g/m*3 3.2 C 0 km/h
2296 19-01-2020 23:35:00 3.2 C 5.79 g/m*3 3.2 C 3.2 km/h
2297 19-01-2020 23:40:00 3.1 C 5.75 g/m*3 3.1 C 1.6 km/h
2298 19-01-2020 23:45:00 3.1 C 5.75 g/m*3 3.1 C 0 km/h
2299 19-01-2020 23:50:00 3 C 5.71 g/m*3 3 C 0 km/h
2300 19-01-2020 23:55:00 2.9 C 5.67 g/m*3 2.9 C 3.2 km/h
Sensor: Nr:Datum:Temp:Abs-Feuchte:Windchill:Wind:
Aussen-T/F 2301 20-01-2020 00:00:00 2.9 C 5.67 g/m*3 2.9 C 3.2 km/h
2302 20-01-2020 00:05:00 2.9 C 5.67 g/m*3 2.9 C 1.6 km/h
2303 20-01-2020 00:10:00 3 C 5.71 g/m*3 3 C 0 km/h
2304 20-01-2020 00:15:00 3.1 C 5.75 g/m*3 3.1 C 0 km/h
2305 20-01-2020 00:20:00 3.1 C 5.75 g/m*3 3.1 C 0 km/h
2306 20-01-2020 00:25:00 3 C 5.71 g/m*3 3 C 0 km/h
2307 20-01-2020 00:30:00 2.9 C 5.67 g/m*3 2.9 C 0 km/h
2308 20-01-2020 00:35:00 3.1 C 5.75 g/m*3 3.1 C 0 km/h
2309 20-01-2020 00:40:00 3.2 C 5.79 g/m*3 3.2 C 0 km/h
2310 20-01-2020 00:45:00 3.2 C 5.79 g/m*3 3.2 C 0 km/h
2311 20-01-2020 00:50:00 3.3 C 5.82 g/m*3 3.3 C 0 km/h
2312 20-01-2020 00:55:00 3.3 C 5.82 g/m*3 3.3 C 0 km/h
2313 20-01-2020 01:00:00 3.3 C 5.82 g/m*3 3.3 C 0 km/h
2314 20-01-2020 01:05:00 3.3 C 5.82 g/m*3 3.3 C 0 km/h
2315 20-01-2020 01:10:00 3.2 C 5.79 g/m*3 3.2 C 0 km/h
2316 20-01-2020 01:15:00 3.2 C 5.79 g/m*3 3.2 C 0 km/h
2317 20-01-2020 01:20:00 3.2 C 5.79 g/m*3 3.2 C 0 km/h
2318 20-01-2020 01:25:00 3.2 C 5.79 g/m*3 3.2 C 0 km/h
2319 20-01-2020 01:30:00 3.2 C 5.79 g/m*3 3.2 C 0 km/h
2320 20-01-2020 01:35:00 3.2 C 5.79 g/m*3 3.2 C 0 km/h
2321 20-01-2020 01:40:00 3.2 C 5.79 g/m*3 3.2 C 0 km/h
2322 20-01-2020 01:45:00 3.2 C 5.79 g/m*3 3.2 C 0 km/h
2323 20-01-2020 01:50:00 3.2 C 5.79 g/m*3 3.2 C 0 km/h
2324 20-01-2020 01:55:00 3.2 C 5.79 g/m*3 3.2 C 0 km/h
2325 20-01-2020 02:00:00 3.1 C 5.75 g/m*3 3.1 C 0 km/h
Sensor: Nr:Datum:Temp:Abs-Feuchte:Windchill:Wind:
Aussen-T/F 2326 20-01-2020 02:05:00 3 C 5.71 g/m*3 3 C 0 km/h
2327 20-01-2020 02:10:00 2.9 C 5.67 g/m*3 2.9 C 0 km/h
2328 20-01-2020 02:15:00 2.8 C 5.63 g/m*3 2.8 C 0 km/h
2329 20-01-2020 02:20:00 2.7 C 5.59 g/m*3 2.7 C 0 km/h
2330 20-01-2020 02:25:00 2.7 C 5.59 g/m*3 2.7 C 1.6 km/h
2331 20-01-2020 02:30:00 2.7 C 5.59 g/m*3 2.7 C 1.6 km/h
2332 20-01-2020 02:35:00 2.7 C 5.59 g/m*3 2.7 C 0 km/h
2333 20-01-2020 02:40:00 2.7 C 5.59 g/m*3 2.7 C 0 km/h
2334 20-01-2020 02:45:00 2.7 C 5.59 g/m*3 2.7 C 0 km/h
2335 20-01-2020 02:50:00 2.8 C 5.63 g/m*3 2.8 C 0 km/h
2336 20-01-2020 02:55:00 2.8 C 5.69 g/m*3 2.8 C 0 km/h
2337 20-01-2020 03:00:00 2.8 C 5.69 g/m*3 2.8 C 4.8 km/h
2338 20-01-2020 03:05:00 2.9 C 5.73 g/m*3 2.9 C 4.8 km/h
2339 20-01-2020 03:10:00 2.9 C 5.73 g/m*3 2.9 C 0 km/h
2340 20-01-2020 03:15:00 2.7 C 5.59 g/m*3 2.7 C 0 km/h
2341 20-01-2020 03:20:00 2.5 C 5.52 g/m*3 2.5 C 0 km/h
2342 20-01-2020 03:25:00 2.4 C 5.48 g/m*3 2.4 C 0 km/h
2343 20-01-2020 03:30:00 2.3 C 5.44 g/m*3 2.3 C 0 km/h
2344 20-01-2020 03:35:00 2.2 C 5.41 g/m*3 2.2 C 1.6 km/h
2345 20-01-2020 03:40:00 2.2 C 5.41 g/m*3 2.2 C 3.2 km/h
2346 20-01-2020 03:45:00 2.1 C 5.37 g/m*3 2.1 C 0 km/h
2347 20-01-2020 03:50:00 2.1 C 5.37 g/m*3 2.1 C 0 km/h
2348 20-01-2020 03:55:00 2 C 5.33 g/m*3 2 C 0 km/h
2349 20-01-2020 04:00:00 2 C 5.33 g/m*3 2 C 1.6 km/h
2350 20-01-2020 04:05:00 2.1 C 5.37 g/m*3 2.1 C 1.6 km/h
Sensor: Nr:Datum:Temp:Abs-Feuchte:Windchill:Wind:
Aussen-T/F 2351 20-01-2020 04:10:00 2.1 C 5.37 g/m*3 2.1 C 0 km/h
2352 20-01-2020 04:15:00 2.2 C 5.46 g/m*3 2.2 C 0 km/h
2353 20-01-2020 04:20:00 2.3 C 5.5 g/m*3 2.3 C 0 km/h
2354 20-01-2020 04:25:00 2.3 C 5.5 g/m*3 2.3 C 0 km/h
2355 20-01-2020 04:30:00 2.4 C 5.54 g/m*3 2.4 C 0 km/h
2356 20-01-2020 04:35:00 2.4 C 5.54 g/m*3 2.4 C 0 km/h
2357 20-01-2020 04:40:00 2.5 C 5.58 g/m*3 2.5 C 0 km/h
2358 20-01-2020 04:45:00 2.5 C 5.58 g/m*3 2.5 C 0 km/h
2359 20-01-2020 04:50:00 2.4 C 5.54 g/m*3 2.4 C 0 km/h
2360 20-01-2020 04:55:00 2.4 C 5.54 g/m*3 2.4 C 0 km/h
2361 20-01-2020 05:00:00 2.4 C 5.48 g/m*3 2.4 C 0 km/h
2362 20-01-2020 05:05:00 2.3 C 5.5 g/m*3 2.3 C 0 km/h
2363 20-01-2020 05:10:00 2.4 C 5.54 g/m*3 2.4 C 0 km/h
2364 20-01-2020 05:15:00 2.4 C 5.54 g/m*3 2.4 C 0 km/h
2365 20-01-2020 05:20:00 2.4 C 5.54 g/m*3 2.4 C 0 km/h
2366 20-01-2020 05:25:00 2.4 C 5.54 g/m*3 2.4 C 0 km/h
2367 20-01-2020 05:30:00 2.5 C 5.58 g/m*3 2.5 C 0 km/h
2368 20-01-2020 05:35:00 2.4 C 5.54 g/m*3 2.4 C 0 km/h
2369 20-01-2020 05:40:00 2.4 C 5.54 g/m*3 2.4 C 0 km/h
2370 20-01-2020 05:45:00 2.3 C 5.5 g/m*3 2.3 C 0 km/h
2371 20-01-2020 05:50:00 2.2 C 5.46 g/m*3 2.2 C 0 km/h
2372 20-01-2020 05:55:00 2.2 C 5.41 g/m*3 2.2 C 0 km/h
2373 20-01-2020 06:00:00 2.2 C 5.46 g/m*3 2.2 C 0 km/h
2374 20-01-2020 06:05:00 2.2 C 5.46 g/m*3 2.2 C 0 km/h
2375 20-01-2020 06:10:00 2.2 C 5.46 g/m*3 2.2 C 0 km/h
Sensor: Nr:Datum:Temp:Abs-Feuchte:Windchill:Wind:
Aussen-T/F 2376 20-01-2020 06:15:00 2.1 C 5.43 g/m*3 2.1 C 0 km/h
2377 20-01-2020 06:20:00 2.1 C 5.43 g/m*3 2.1 C 0 km/h
2378 20-01-2020 06:25:00 2.1 C 5.43 g/m*3 2.1 C 0 km/h
2379 20-01-2020 06:30:00 2.1 C 5.43 g/m*3 2.1 C 0 km/h
2380 20-01-2020 06:35:00 2.1 C 5.43 g/m*3 2.1 C 0 km/h
2381 20-01-2020 06:40:00 2.2 C 5.46 g/m*3 2.2 C 0 km/h
2382 20-01-2020 06:45:00 2.2 C 5.46 g/m*3 2.2 C 0 km/h
2383 20-01-2020 06:50:00 2.2 C 5.46 g/m*3 2.2 C 0 km/h
2384 20-01-2020 06:55:00 2.2 C 5.46 g/m*3 2.2 C 0 km/h
2385 20-01-2020 07:00:00 2.2 C 5.46 g/m*3 2.2 C 0 km/h
2386 20-01-2020 07:05:00 2.2 C 5.46 g/m*3 2.2 C 0 km/h
2387 20-01-2020 07:10:00 2.2 C 5.46 g/m*3 2.2 C 0 km/h
2388 20-01-2020 07:15:00 2.1 C 5.43 g/m*3 2.1 C 0 km/h
2389 20-01-2020 07:20:00 2.1 C 5.43 g/m*3 2.1 C 0 km/h
2390 20-01-2020 07:25:00 2.1 C 5.43 g/m*3 2.1 C 0 km/h
2391 20-01-2020 07:30:00 2 C 5.39 g/m*3 2 C 0 km/h
2392 20-01-2020 07:35:00 1.9 C 5.35 g/m*3 1.9 C 0 km/h
2393 20-01-2020 07:40:00 1.9 C 5.35 g/m*3 1.9 C 0 km/h
2394 20-01-2020 07:45:00 1.8 C 5.32 g/m*3 1.8 C 0 km/h
2395 20-01-2020 07:50:00 1.7 C 5.23 g/m*3 1.7 C 0 km/h
2396 20-01-2020 07:55:00 1.6 C 5.25 g/m*3 1.6 C 0 km/h
2397 20-01-2020 08:00:00 1.4 C 5.17 g/m*3 1.4 C 0 km/h
2398 20-01-2020 08:05:00 1.3 C 5.09 g/m*3 1.3 C 0 km/h
2399 20-01-2020 08:10:00 1.3 C 5.09 g/m*3 1.3 C 0 km/h
2400 20-01-2020 08:15:00 1.3 C 5.14 g/m*3 1.3 C 0 km/h
Sensor: Nr:Datum:Temp:Abs-Feuchte:Windchill:Wind:
Aussen-T/F 2401 20-01-2020 08:20:00 1.3 C 5.14 g/m*3 1.3 C 0 km/h
2402 20-01-2020 08:25:00 1.3 C 5.14 g/m*3 1.3 C 1.6 km/h
2403 20-01-2020 08:30:00 1.3 C 5.14 g/m*3 1.3 C 0 km/h
2404 20-01-2020 08:35:00 1.3 C 5.14 g/m*3 1.3 C 0 km/h
2405 20-01-2020 08:40:00 1.4 C 5.17 g/m*3 1.4 C 0 km/h
2406 20-01-2020 08:45:00 1.5 C 5.21 g/m*3 1.5 C 0 km/h
2407 20-01-2020 08:50:00 1.6 C 5.25 g/m*3 1.6 C 0 km/h
2408 20-01-2020 08:55:00 1.7 C 5.28 g/m*3 1.7 C 0 km/h
2409 20-01-2020 09:00:00 1.9 C 5.35 g/m*3 1.9 C 0 km/h
2410 20-01-2020 09:05:00 2 C 5.39 g/m*3 2 C 0 km/h
2411 20-01-2020 09:10:00 2.1 C 5.43 g/m*3 2.1 C 0 km/h
2412 20-01-2020 09:15:00 2.2 C 5.46 g/m*3 2.2 C 0 km/h
2413 20-01-2020 09:20:00 2.2 C 5.46 g/m*3 2.2 C 0 km/h
2414 20-01-2020 09:25:00 2.3 C 5.5 g/m*3 2.3 C 0 km/h
2415 20-01-2020 09:30:00 2.3 C 5.5 g/m*3 2.3 C 0 km/h
2416 20-01-2020 09:35:00 2.5 C 5.58 g/m*3 2.5 C 0 km/h
2417 20-01-2020 09:40:00 2.6 C 5.61 g/m*3 2.6 C 0 km/h
2418 20-01-2020 09:45:00 2.7 C 5.65 g/m*3 2.7 C 0 km/h
2419 20-01-2020 09:50:00 2.8 C 5.69 g/m*3 2.8 C 0 km/h
2420 20-01-2020 09:55:00 2.8 C 5.69 g/m*3 2.8 C 0 km/h
2421 20-01-2020 10:00:00 2.9 C 5.73 g/m*3 2.9 C 0 km/h
2422 20-01-2020 10:05:00 3.1 C 5.81 g/m*3 3.1 C 0 km/h
2423 20-01-2020 10:10:00 3.1 C 5.81 g/m*3 3.1 C 0 km/h
2424 20-01-2020 10:15:00 3.2 C 5.85 g/m*3 3.2 C 0 km/h
2425 20-01-2020 10:20:00 3.3 C 5.88 g/m*3 3.3 C 0 km/h
Sensor: Nr:Datum:Temp:Abs-Feuchte:Windchill:Wind:
Aussen-T/F 2426 20-01-2020 10:25:00 3.3 C 5.88 g/m*3 3.3 C 0 km/h
2427 20-01-2020 10:30:00 3.4 C 5.92 g/m*3 3.4 C 0 km/h
2428 20-01-2020 10:35:00 3.5 C 5.96 g/m*3 3.5 C 0 km/h
2429 20-01-2020 10:40:00 3.6 C 6 g/m*3 3.6 C 0 km/h
2430 20-01-2020 10:45:00 3.7 C 6.11 g/m*3 3.7 C 0 km/h
2431 20-01-2020 10:50:00 3.8 C 6.09 g/m*3 3.8 C 0 km/h
2432 20-01-2020 10:55:00 3.8 C 6.09 g/m*3 3.8 C 0 km/h
2433 20-01-2020 11:00:00 3.8 C 6.09 g/m*3 3.8 C 0 km/h
2434 20-01-2020 11:05:00 3.8 C 6.09 g/m*3 3.8 C 0 km/h
2435 20-01-2020 11:10:00 3.9 C 6.13 g/m*3 3.9 C 0 km/h
2436 20-01-2020 11:15:00 3.9 C 6.13 g/m*3 3.9 C 0 km/h
2437 20-01-2020 11:20:00 3.8 C 6.09 g/m*3 3.8 C 0 km/h
2438 20-01-2020 11:25:00 3.8 C 6.09 g/m*3 3.8 C 0 km/h
2439 20-01-2020 11:30:00 3.8 C 6.09 g/m*3 3.8 C 0 km/h
2440 20-01-2020 11:35:00 3.8 C 6.02 g/m*3 3.8 C 3.2 km/h
2441 20-01-2020 11:40:00 3.9 C 6.06 g/m*3 3.9 C 0 km/h
2442 20-01-2020 11:45:00 3.9 C 6 g/m*3 3.9 C 0 km/h
2443 20-01-2020 11:50:00 4.1 C 6.08 g/m*3 4.1 C 0 km/h
2444 20-01-2020 11:55:00 4.2 C 6.12 g/m*3 4.2 C 0 km/h
2445 20-01-2020 12:00:00 4.3 C 6.1 g/m*3 4.3 C 0 km/h
2446 20-01-2020 12:05:00 4.4 C 6.07 g/m*3 4.4 C 0 km/h
2447 20-01-2020 12:10:00 4.5 C 6.11 g/m*3 4.5 C 0 km/h
2448 20-01-2020 12:15:00 4.6 C 6.02 g/m*3 4.6 C 4.8 km/h
2449 20-01-2020 12:20:00 4.7 C 6 g/m*3 4.7 C 4.8 km/h
2450 20-01-2020 12:25:00 4.8 C 5.83 g/m*3 2.87 C 8.1 km/h
Sensor: Nr:Datum:Temp:Abs-Feuchte:Windchill:Wind:
Aussen-T/F 2451 20-01-2020 12:30:00 5 C 5.64 g/m*3 2.72 C 9.7 km/h
2452 20-01-2020 12:35:00 5.1 C 5.61 g/m*3 3.71 C 6.4 km/h
2453 20-01-2020 12:40:00 5.2 C 5.58 g/m*3 3.34 C 8.1 km/h
2454 20-01-2020 12:45:00 5.3 C 5.68 g/m*3 3.94 C 6.4 km/h
2455 20-01-2020 12:50:00 5.3 C 5.61 g/m*3 5.3 C 0 km/h
2456 20-01-2020 12:55:00 5.3 C 5.41 g/m*3 3.46 C 8.1 km/h
2457 20-01-2020 13:00:00 5.4 C 5.44 g/m*3 2.87 C 11.3 km/h
2458 20-01-2020 13:05:00 5.4 C 5.37 g/m*3 3.58 C 8.1 km/h
2459 20-01-2020 13:10:00 5.5 C 5.41 g/m*3 4.17 C 6.4 km/h
2460 20-01-2020 13:15:00 5.6 C 5.44 g/m*3 5.6 C 4.8 km/h
2461 20-01-2020 13:20:00 5.6 C 5.37 g/m*3 3.11 C 11.3 km/h
2462 20-01-2020 13:25:00 5.6 C 5.44 g/m*3 3.81 C 8.1 km/h
2463 20-01-2020 13:30:00 5.7 C 5.48 g/m*3 4.4 C 6.4 km/h
2464 20-01-2020 13:35:00 5.7 C 5.41 g/m*3 3.93 C 8.1 km/h
2465 20-01-2020 13:40:00 5.8 C 5.44 g/m*3 5.8 C 4.8 km/h
2466 20-01-2020 13:45:00 5.7 C 5.34 g/m*3 4.4 C 6.4 km/h
2467 20-01-2020 13:50:00 5.7 C 5.34 g/m*3 4.4 C 6.4 km/h
2468 20-01-2020 13:55:00 5.7 C 5.34 g/m*3 5.7 C 4.8 km/h
2469 20-01-2020 14:00:00 5.7 C 5.27 g/m*3 3.56 C 9.7 km/h
2470 20-01-2020 14:05:00 5.7 C 5.34 g/m*3 5.7 C 4.8 km/h
2471 20-01-2020 14:10:00 5.8 C 5.37 g/m*3 4.52 C 6.4 km/h
2472 20-01-2020 14:15:00 5.8 C 5.37 g/m*3 5.8 C 4.8 km/h
2473 20-01-2020 14:20:00 5.8 C 5.3 g/m*3 4.52 C 6.4 km/h
2474 20-01-2020 14:25:00 5.8 C 5.37 g/m*3 5.8 C 0 km/h
2475 20-01-2020 14:30:00 5.8 C 5.37 g/m*3 5.8 C 4.8 km/h
Sensor: Nr:Datum:Temp:Abs-Feuchte:Windchill:Wind:
Aussen-T/F 2476 20-01-2020 14:35:00 5.8 C 5.23 g/m*3 4.05 C 8.1 km/h
2477 20-01-2020 14:40:00 5.8 C 5.3 g/m*3 5.8 C 3.2 km/h
2478 20-01-2020 14:45:00 5.8 C 5.37 g/m*3 5.8 C 3.2 km/h
2479 20-01-2020 14:50:00 5.8 C 5.37 g/m*3 5.8 C 4.8 km/h
2480 20-01-2020 14:55:00 5.8 C 5.3 g/m*3 5.8 C 0 km/h
2481 20-01-2020 15:00:00 5.8 C 5.37 g/m*3 5.8 C 0 km/h
2482 20-01-2020 15:05:00 5.7 C 5.34 g/m*3 5.7 C 0 km/h
2483 20-01-2020 15:10:00 5.7 C 5.41 g/m*3 5.7 C 0 km/h
2484 20-01-2020 15:15:00 5.6 C 5.51 g/m*3 5.6 C 0 km/h
2485 20-01-2020 15:20:00 5.5 C 5.41 g/m*3 5.5 C 0 km/h
2486 20-01-2020 15:25:00 5.4 C 5.3 g/m*3 5.4 C 0 km/h
2487 20-01-2020 15:30:00 5.4 C 5.23 g/m*3 5.4 C 3.2 km/h
2488 20-01-2020 15:35:00 5.5 C 5.27 g/m*3 5.5 C 4.8 km/h
2489 20-01-2020 15:40:00 5.6 C 5.37 g/m*3 5.6 C 1.6 km/h
2490 20-01-2020 15:45:00 5.6 C 5.3 g/m*3 5.6 C 3.2 km/h
2491 20-01-2020 15:50:00 5.6 C 5.3 g/m*3 5.6 C 1.6 km/h
2492 20-01-2020 15:55:00 5.5 C 5.41 g/m*3 5.5 C 0 km/h
2493 20-01-2020 16:00:00 5.4 C 5.44 g/m*3 5.4 C 0 km/h
2494 20-01-2020 16:05:00 5.3 C 5.48 g/m*3 5.3 C 0 km/h
2495 20-01-2020 16:10:00 5.2 C 5.51 g/m*3 5.2 C 1.6 km/h
2496 20-01-2020 16:15:00 5.1 C 5.54 g/m*3 5.1 C 0 km/h
2497 20-01-2020 16:20:00 4.9 C 5.54 g/m*3 4.9 C 1.6 km/h
2498 20-01-2020 16:25:00 4.8 C 5.57 g/m*3 4.8 C 0 km/h
2499 20-01-2020 16:30:00 4.7 C 5.6 g/m*3 4.7 C 0 km/h
2500 20-01-2020 16:35:00 4.6 C 5.56 g/m*3 4.6 C 0 km/h
Sensor: Nr:Datum:Temp:Abs-Feuchte:Windchill:Wind:
Aussen-T/F 2501 20-01-2020 16:40:00 4.4 C 5.55 g/m*3 4.4 C 0 km/h
2502 20-01-2020 16:45:00 4.3 C 5.51 g/m*3 4.3 C 0 km/h
2503 20-01-2020 16:50:00 4.1 C 5.44 g/m*3 4.1 C 1.6 km/h
2504 20-01-2020 16:55:00 3.8 C 5.27 g/m*3 3.8 C 3.2 km/h
2505 20-01-2020 17:00:00 3.6 C 5.26 g/m*3 3.6 C 3.2 km/h
2506 20-01-2020 17:05:00 3.3 C 5.16 g/m*3 3.3 C 3.2 km/h
2507 20-01-2020 17:10:00 3.1 C 5.09 g/m*3 3.1 C 4.8 km/h
2508 20-01-2020 17:15:00 2.9 C 5.08 g/m*3 2.9 C 4.8 km/h
2509 20-01-2020 17:20:00 2.7 C 5.01 g/m*3 2.7 C 4.8 km/h
2510 20-01-2020 17:25:00 2.6 C 5.03 g/m*3 2.6 C 4.8 km/h
2511 20-01-2020 17:30:00 2.4 C 4.97 g/m*3 2.4 C 3.2 km/h
2512 20-01-2020 17:35:00 2.3 C 4.99 g/m*3 2.3 C 4.8 km/h
2513 20-01-2020 17:40:00 2.2 C 4.96 g/m*3 2.2 C 4.8 km/h
2514 20-01-2020 17:45:00 2.1 C 4.92 g/m*3 2.1 C 0 km/h
2515 20-01-2020 17:50:00 2 C 4.89 g/m*3 2 C 0 km/h
2516 20-01-2020 17:55:00 1.9 C 4.91 g/m*3 1.9 C 0 km/h
2517 20-01-2020 18:00:00 1.8 C 4.88 g/m*3 1.8 C 0 km/h
2518 20-01-2020 18:05:00 1.7 C 4.85 g/m*3 1.7 C 0 km/h
2519 20-01-2020 18:10:00 1.5 C 4.78 g/m*3 1.5 C 0 km/h
2520 20-01-2020 18:15:00 1.4 C 4.75 g/m*3 1.4 C 0 km/h
2521 20-01-2020 18:20:00 1.3 C 4.77 g/m*3 1.3 C 0 km/h
2522 20-01-2020 18:25:00 1.2 C 4.74 g/m*3 1.2 C 0 km/h
2523 20-01-2020 18:30:00 1.1 C 4.76 g/m*3 1.1 C 0 km/h
2524 20-01-2020 18:35:00 1.1 C 4.76 g/m*3 1.1 C 0 km/h
2525 20-01-2020 18:40:00 1 C 4.72 g/m*3 1 C 1.6 km/h
Sensor: Nr:Datum:Temp:Abs-Feuchte:Windchill:Wind:
Aussen-T/F 2526 20-01-2020 18:45:00 0.9 C 4.69 g/m*3 0.9 C 1.6 km/h
2527 20-01-2020 18:50:00 0.9 C 4.74 g/m*3 0.9 C 0 km/h
2528 20-01-2020 18:55:00 0.9 C 4.74 g/m*3 0.9 C 0 km/h
2529 20-01-2020 19:00:00 0.9 C 4.74 g/m*3 0.9 C 0 km/h
2530 20-01-2020 19:05:00 0.8 C 4.71 g/m*3 0.8 C 0 km/h
2531 20-01-2020 19:10:00 0.7 C 4.68 g/m*3 0.7 C 0 km/h
2532 20-01-2020 19:15:00 0.6 C 4.65 g/m*3 0.6 C 0 km/h
2533 20-01-2020 19:20:00 0.4 C 4.58 g/m*3 0.4 C 0 km/h
2534 20-01-2020 19:25:00 0.3 C 4.55 g/m*3 0.3 C 0 km/h
2535 20-01-2020 19:30:00 0.2 C 4.52 g/m*3 0.2 C 0 km/h
2536 20-01-2020 19:35:00 0.2 C 4.52 g/m*3 0.2 C 0 km/h
2537 20-01-2020 19:40:00 0.2 C 4.57 g/m*3 0.2 C 0 km/h
2538 20-01-2020 19:45:00 0.1 C 4.54 g/m*3 0.1 C 0 km/h
2539 20-01-2020 19:50:00 -0.1 C 4.47 g/m*3 -0.1 C 0 km/h
2540 20-01-2020 19:55:00 -0.1 C 4.47 g/m*3 -0.1 C 0 km/h
2541 20-01-2020 20:00:00 -0.1 C 4.47 g/m*3 -0.1 C 0 km/h
2542 20-01-2020 20:05:00 -0.1 C 4.52 g/m*3 -0.1 C 0 km/h
2543 20-01-2020 20:10:00 -0.1 C 4.52 g/m*3 -0.1 C 0 km/h
2544 20-01-2020 20:15:00 -0.1 C 4.52 g/m*3 -0.1 C 0 km/h
2545 20-01-2020 20:20:00 -0.2 C 4.49 g/m*3 -0.2 C 0 km/h
2546 20-01-2020 20:25:00 -0.2 C 4.49 g/m*3 -0.2 C 0 km/h
2547 20-01-2020 20:30:00 -0.2 C 4.49 g/m*3 -0.2 C 0 km/h
2548 20-01-2020 20:35:00 -0.3 C 4.46 g/m*3 -0.3 C 0 km/h
2549 20-01-2020 20:40:00 -0.4 C 4.43 g/m*3 -0.4 C 0 km/h
2550 20-01-2020 20:45:00 -0.4 C 4.43 g/m*3 -0.4 C 0 km/h
Sensor: Nr:Datum:Temp:Abs-Feuchte:Windchill:Wind:
Aussen-T/F 2551 20-01-2020 20:50:00 -0.6 C 4.37 g/m*3 -0.6 C 0 km/h
2552 20-01-2020 20:55:00 -0.6 C 4.37 g/m*3 -0.6 C 0 km/h
2553 20-01-2020 21:00:00 -0.7 C 4.34 g/m*3 -0.7 C 0 km/h
2554 20-01-2020 21:05:00 -0.8 C 4.31 g/m*3 -0.8 C 0 km/h
2555 20-01-2020 21:10:00 -0.8 C 4.31 g/m*3 -0.8 C 0 km/h
2556 20-01-2020 21:15:00 -0.8 C 4.31 g/m*3 -0.8 C 0 km/h
2557 20-01-2020 21:20:00 -0.9 C 4.28 g/m*3 -0.9 C 0 km/h
2558 20-01-2020 21:25:00 -0.9 C 4.28 g/m*3 -0.9 C 0 km/h
2559 20-01-2020 21:30:00 -0.9 C 4.28 g/m*3 -0.9 C 0 km/h
2560 20-01-2020 21:35:00 -0.9 C 4.28 g/m*3 -0.9 C 0 km/h
2561 20-01-2020 21:40:00 -0.9 C 4.28 g/m*3 -0.9 C 0 km/h
2562 20-01-2020 21:45:00 -1 C 4.25 g/m*3 -1 C 0 km/h
2563 20-01-2020 21:50:00 -1.1 C 4.22 g/m*3 -1.1 C 0 km/h
2564 20-01-2020 21:55:00 -1.1 C 4.22 g/m*3 -1.1 C 0 km/h
2565 20-01-2020 22:00:00 -1.2 C 4.19 g/m*3 -1.2 C 0 km/h
2566 20-01-2020 22:05:00 -1.2 C 4.19 g/m*3 -1.2 C 0 km/h
2567 20-01-2020 22:10:00 -1.1 C 4.26 g/m*3 -1.1 C 0 km/h
2568 20-01-2020 22:15:00 -1.2 C 4.24 g/m*3 -1.2 C 0 km/h
2569 20-01-2020 22:20:00 -1.2 C 4.24 g/m*3 -1.2 C 0 km/h
2570 20-01-2020 22:25:00 -1.3 C 4.21 g/m*3 -1.3 C 0 km/h
2571 20-01-2020 22:30:00 -1.2 C 4.24 g/m*3 -1.2 C 0 km/h
2572 20-01-2020 22:35:00 -1.2 C 4.24 g/m*3 -1.2 C 0 km/h
2573 20-01-2020 22:40:00 -1.2 C 4.24 g/m*3 -1.2 C 0 km/h
2574 20-01-2020 22:45:00 -1.2 C 4.24 g/m*3 -1.2 C 0 km/h
2575 20-01-2020 22:50:00 -1.3 C 4.21 g/m*3 -1.3 C 0 km/h
Sensor: Nr:Datum:Temp:Abs-Feuchte:Windchill:Wind:
Aussen-T/F 2576 20-01-2020 22:55:00 -1.3 C 4.21 g/m*3 -1.3 C 0 km/h
2577 20-01-2020 23:00:00 -1.3 C 4.21 g/m*3 -1.3 C 0 km/h
2578 20-01-2020 23:05:00 -1.4 C 4.18 g/m*3 -1.4 C 0 km/h
2579 20-01-2020 23:10:00 -1.4 C 4.18 g/m*3 -1.4 C 0 km/h
2580 20-01-2020 23:15:00 -1.4 C 4.18 g/m*3 -1.4 C 0 km/h
2581 20-01-2020 23:20:00 -1.5 C 4.15 g/m*3 -1.5 C 0 km/h
2582 20-01-2020 23:25:00 -1.5 C 4.15 g/m*3 -1.5 C 0 km/h
2583 20-01-2020 23:30:00 -1.5 C 4.15 g/m*3 -1.5 C 0 km/h
2584 20-01-2020 23:35:00 -1.6 C 4.12 g/m*3 -1.6 C 0 km/h
2585 20-01-2020 23:40:00 -1.7 C 4.09 g/m*3 -1.7 C 0 km/h
2586 20-01-2020 23:45:00 -1.7 C 4.09 g/m*3 -1.7 C 0 km/h
2587 20-01-2020 23:50:00 -1.7 C 4.09 g/m*3 -1.7 C 0 km/h
2588 20-01-2020 23:55:00 -1.7 C 4.09 g/m*3 -1.7 C 0 km/h
2589 21-01-2020 00:00:00 -1.7 C 4.09 g/m*3 -1.7 C 0 km/h
2590 21-01-2020 00:05:00 -1.7 C 4.09 g/m*3 -1.7 C 0 km/h
2591 21-01-2020 00:10:00 -1.7 C 4.09 g/m*3 -1.7 C 0 km/h
2592 21-01-2020 00:15:00 -1.7 C 4.09 g/m*3 -1.7 C 0 km/h
2593 21-01-2020 00:20:00 -1.7 C 4.09 g/m*3 -1.7 C 0 km/h
2594 21-01-2020 00:25:00 -1.8 C 4.06 g/m*3 -1.8 C 0 km/h
2595 21-01-2020 00:30:00 -1.8 C 4.06 g/m*3 -1.8 C 0 km/h
2596 21-01-2020 00:35:00 -1.8 C 4.06 g/m*3 -1.8 C 0 km/h
2597 21-01-2020 00:40:00 -1.8 C 4.06 g/m*3 -1.8 C 0 km/h
2598 21-01-2020 00:45:00 -1.8 C 4.06 g/m*3 -1.8 C 0 km/h
2599 21-01-2020 00:50:00 -1.8 C 4.06 g/m*3 -1.8 C 0 km/h
2600 21-01-2020 00:55:00 -1.8 C 4.06 g/m*3 -1.8 C 0 km/h
Sensor: Nr:Datum:Temp:Abs-Feuchte:Windchill:Wind:
Aussen-T/F 2601 21-01-2020 01:00:00 -1.8 C 4.06 g/m*3 -1.8 C 0 km/h
2602 21-01-2020 01:05:00 -1.8 C 4.06 g/m*3 -1.8 C 0 km/h
2603 21-01-2020 01:10:00 -1.9 C 4.03 g/m*3 -1.9 C 0 km/h
2604 21-01-2020 01:15:00 -1.9 C 4.03 g/m*3 -1.9 C 0 km/h
2605 21-01-2020 01:20:00 -1.9 C 4.03 g/m*3 -1.9 C 0 km/h
2606 21-01-2020 01:25:00 -1.9 C 4.03 g/m*3 -1.9 C 0 km/h
2607 21-01-2020 01:30:00 -1.9 C 4.03 g/m*3 -1.9 C 0 km/h
2608 21-01-2020 01:35:00 -1.9 C 4.08 g/m*3 -1.9 C 0 km/h
2609 21-01-2020 01:40:00 -2 C 4.05 g/m*3 -2 C 0 km/h
2610 21-01-2020 01:45:00 -2 C 4.05 g/m*3 -2 C 0 km/h
2611 21-01-2020 01:50:00 -2 C 4.05 g/m*3 -2 C 0 km/h
2612 21-01-2020 01:55:00 -2.1 C 3.98 g/m*3 -2.1 C 0 km/h
2613 21-01-2020 02:00:00 -2.2 C 3.95 g/m*3 -2.2 C 0 km/h
2614 21-01-2020 02:05:00 -2.2 C 3.95 g/m*3 -2.2 C 0 km/h
2615 21-01-2020 02:10:00 -2.3 C 3.92 g/m*3 -2.3 C 0 km/h
2616 21-01-2020 02:15:00 -2.3 C 3.92 g/m*3 -2.3 C 0 km/h
2617 21-01-2020 02:20:00 -2.3 C 3.92 g/m*3 -2.3 C 0 km/h
2618 21-01-2020 02:25:00 -2.4 C 3.89 g/m*3 -2.4 C 0 km/h
2619 21-01-2020 02:30:00 -2.4 C 3.89 g/m*3 -2.4 C 0 km/h
2620 21-01-2020 02:35:00 -2.4 C 3.89 g/m*3 -2.4 C 0 km/h
2621 21-01-2020 02:40:00 -2.4 C 3.89 g/m*3 -2.4 C 0 km/h
2622 21-01-2020 02:45:00 -2.5 C 3.87 g/m*3 -2.5 C 0 km/h
2623 21-01-2020 02:50:00 -2.5 C 3.87 g/m*3 -2.5 C 0 km/h
2624 21-01-2020 02:55:00 -2.5 C 3.91 g/m*3 -2.5 C 0 km/h
2625 21-01-2020 03:00:00 -2.5 C 3.91 g/m*3 -2.5 C 0 km/h
Sensor: Nr:Datum:Temp:Abs-Feuchte:Windchill:Wind:
Aussen-T/F 2626 21-01-2020 03:05:00 -2.5 C 3.91 g/m*3 -2.5 C 0 km/h
2627 21-01-2020 03:10:00 -2.5 C 3.91 g/m*3 -2.5 C 0 km/h
2628 21-01-2020 03:15:00 -2.5 C 3.91 g/m*3 -2.5 C 0 km/h
2629 21-01-2020 03:20:00 -2.5 C 3.91 g/m*3 -2.5 C 0 km/h
2630 21-01-2020 03:25:00 -2.5 C 3.91 g/m*3 -2.5 C 0 km/h
2631 21-01-2020 03:30:00 -2.5 C 3.91 g/m*3 -2.5 C 0 km/h
2632 21-01-2020 03:35:00 -2.6 C 3.88 g/m*3 -2.6 C 0 km/h
2633 21-01-2020 03:40:00 -2.7 C 3.81 g/m*3 -2.7 C 0 km/h
2634 21-01-2020 03:45:00 -2.7 C 3.81 g/m*3 -2.7 C 0 km/h
2635 21-01-2020 03:50:00 -2.8 C 3.78 g/m*3 -2.8 C 0 km/h
2636 21-01-2020 03:55:00 -2.9 C 3.76 g/m*3 -2.9 C 0 km/h
2637 21-01-2020 04:00:00 -2.9 C 3.76 g/m*3 -2.9 C 0 km/h
2638 21-01-2020 04:05:00 -3 C 3.73 g/m*3 -3 C 0 km/h
2639 21-01-2020 04:10:00 -3.1 C 3.71 g/m*3 -3.1 C 0 km/h
2640 21-01-2020 04:15:00 -3.1 C 3.71 g/m*3 -3.1 C 0 km/h
2641 21-01-2020 04:20:00 -3.1 C 3.71 g/m*3 -3.1 C 0 km/h
2642 21-01-2020 04:25:00 -3 C 3.77 g/m*3 -3 C 1.6 km/h
2643 21-01-2020 04:30:00 -2.9 C 3.8 g/m*3 -2.9 C 1.6 km/h
2644 21-01-2020 04:35:00 -2.9 C 3.8 g/m*3 -2.9 C 0 km/h
2645 21-01-2020 04:40:00 -2.8 C 3.82 g/m*3 -2.8 C 0 km/h
2646 21-01-2020 04:45:00 -2.9 C 3.8 g/m*3 -2.9 C 0 km/h
2647 21-01-2020 04:50:00 -3 C 3.77 g/m*3 -3 C 0 km/h
2648 21-01-2020 04:55:00 -3.1 C 3.71 g/m*3 -3.1 C 0 km/h
2649 21-01-2020 05:00:00 -3.1 C 3.74 g/m*3 -3.1 C 0 km/h
2650 21-01-2020 05:05:00 -3.1 C 3.74 g/m*3 -3.1 C 0 km/h
Sensor: Nr:Datum:Temp:Abs-Feuchte:Windchill:Wind:
Aussen-T/F 2651 21-01-2020 05:10:00 -3.1 C 3.74 g/m*3 -3.1 C 0 km/h
2652 21-01-2020 05:15:00 -3.2 C 3.68 g/m*3 -3.2 C 0 km/h
2653 21-01-2020 05:20:00 -3.2 C 3.68 g/m*3 -3.2 C 0 km/h
2654 21-01-2020 05:25:00 -3.3 C 3.65 g/m*3 -3.3 C 0 km/h
2655 21-01-2020 05:30:00 -3.2 C 3.68 g/m*3 -3.2 C 0 km/h
2656 21-01-2020 05:35:00 -3.2 C 3.72 g/m*3 -3.2 C 0 km/h
2657 21-01-2020 05:40:00 -3.2 C 3.72 g/m*3 -3.2 C 0 km/h
2658 21-01-2020 05:45:00 -3.2 C 3.72 g/m*3 -3.2 C 0 km/h
2659 21-01-2020 05:50:00 -3.2 C 3.72 g/m*3 -3.2 C 0 km/h
2660 21-01-2020 05:55:00 -3.1 C 3.74 g/m*3 -3.1 C 0 km/h
2661 21-01-2020 06:00:00 -3.1 C 3.74 g/m*3 -3.1 C 0 km/h
2662 21-01-2020 06:05:00 -3 C 3.77 g/m*3 -3 C 0 km/h
2663 21-01-2020 06:10:00 -3 C 3.77 g/m*3 -3 C 0 km/h
2664 21-01-2020 06:15:00 -2.9 C 3.8 g/m*3 -2.9 C 0 km/h
2665 21-01-2020 06:20:00 -2.9 C 3.8 g/m*3 -2.9 C 0 km/h
2666 21-01-2020 06:25:00 -2.8 C 3.82 g/m*3 -2.8 C 0 km/h
2667 21-01-2020 06:30:00 -2.8 C 3.82 g/m*3 -2.8 C 0 km/h
2668 21-01-2020 06:35:00 -2.7 C 3.85 g/m*3 -2.7 C 0 km/h
2669 21-01-2020 06:40:00 -2.7 C 3.85 g/m*3 -2.7 C 0 km/h
2670 21-01-2020 06:45:00 -2.6 C 3.88 g/m*3 -2.6 C 0 km/h
2671 21-01-2020 06:50:00 -2.6 C 3.88 g/m*3 -2.6 C 0 km/h
2672 21-01-2020 06:55:00 -2.5 C 3.91 g/m*3 -2.5 C 0 km/h
2673 21-01-2020 07:00:00 -2.5 C 3.91 g/m*3 -2.5 C 0 km/h
2674 21-01-2020 07:05:00 -2.5 C 3.91 g/m*3 -2.5 C 0 km/h
2675 21-01-2020 07:10:00 -2.5 C 3.91 g/m*3 -2.5 C 0 km/h
Sensor: Nr:Datum:Temp:Abs-Feuchte:Windchill:Wind:
Aussen-T/F 2676 21-01-2020 07:15:00 -2.6 C 3.88 g/m*3 -2.6 C 0 km/h
2677 21-01-2020 07:20:00 -2.6 C 3.88 g/m*3 -2.6 C 0 km/h
2678 21-01-2020 07:25:00 -2.5 C 3.91 g/m*3 -2.5 C 0 km/h
2679 21-01-2020 07:30:00 -2.5 C 3.91 g/m*3 -2.5 C 0 km/h
2680 21-01-2020 07:35:00 -2.5 C 3.91 g/m*3 -2.5 C 1.6 km/h
2681 21-01-2020 07:40:00 -2.6 C 3.88 g/m*3 -2.6 C 0 km/h
2682 21-01-2020 07:45:00 -2.6 C 3.88 g/m*3 -2.6 C 3.2 km/h
2683 21-01-2020 07:50:00 -2.6 C 3.88 g/m*3 -2.6 C 0 km/h
2684 21-01-2020 07:55:00 -2.7 C 3.85 g/m*3 -2.7 C 0 km/h
2685 21-01-2020 08:00:00 -2.7 C 3.85 g/m*3 -2.7 C 0 km/h
2686 21-01-2020 08:05:00 -2.7 C 3.85 g/m*3 -2.7 C 0 km/h
2687 21-01-2020 08:10:00 -2.7 C 3.85 g/m*3 -2.7 C 0 km/h
2688 21-01-2020 08:15:00 -2.7 C 3.85 g/m*3 -2.7 C 0 km/h
2689 21-01-2020 08:20:00 -2.7 C 3.85 g/m*3 -2.7 C 0 km/h
2690 21-01-2020 08:25:00 -2.7 C 3.85 g/m*3 -2.7 C 1.6 km/h
2691 21-01-2020 08:30:00 -2.7 C 3.85 g/m*3 -2.7 C 3.2 km/h
2692 21-01-2020 08:35:00 -2.8 C 3.82 g/m*3 -2.8 C 1.6 km/h
2693 21-01-2020 08:40:00 -2.8 C 3.82 g/m*3 -2.8 C 0 km/h
2694 21-01-2020 08:45:00 -2.8 C 3.82 g/m*3 -2.8 C 0 km/h
2695 21-01-2020 08:50:00 -2.8 C 3.82 g/m*3 -2.8 C 3.2 km/h
2696 21-01-2020 08:55:00 -2.8 C 3.82 g/m*3 -2.8 C 1.6 km/h
2697 21-01-2020 09:00:00 -2.8 C 3.82 g/m*3 -2.8 C 0 km/h
2698 21-01-2020 09:05:00 -2.8 C 3.82 g/m*3 -2.8 C 4.8 km/h
2699 21-01-2020 09:10:00 -2.9 C 3.8 g/m*3 -2.9 C 4.8 km/h
2700 21-01-2020 09:15:00 -3.1 C 3.74 g/m*3 -3.1 C 1.6 km/h
Sensor: Nr:Datum:Temp:Abs-Feuchte:Windchill:Wind:
Aussen-T/F 2701 21-01-2020 09:20:00 -3.1 C 3.74 g/m*3 -3.1 C 3.2 km/h
2702 21-01-2020 09:25:00 -3.1 C 3.74 g/m*3 -3.1 C 0 km/h
2703 21-01-2020 09:30:00 -3 C 3.77 g/m*3 -3 C 1.6 km/h
2704 21-01-2020 09:35:00 -3 C 3.77 g/m*3 -3 C 0 km/h
2705 21-01-2020 09:40:00 -3 C 3.77 g/m*3 -3 C 1.6 km/h
2706 21-01-2020 09:45:00 -3 C 3.77 g/m*3 -3 C 1.6 km/h
2707 21-01-2020 09:50:00 -3 C 3.77 g/m*3 -3 C 0 km/h
2708 21-01-2020 09:55:00 -2.9 C 3.8 g/m*3 -2.9 C 1.6 km/h
2709 21-01-2020 10:00:00 -2.9 C 3.8 g/m*3 -2.9 C 3.2 km/h
2710 21-01-2020 10:05:00 -2.8 C 3.82 g/m*3 -2.8 C 1.6 km/h
2711 21-01-2020 10:10:00 -2.8 C 3.82 g/m*3 -2.8 C 0 km/h
2712 21-01-2020 10:15:00 -2.8 C 3.82 g/m*3 -2.8 C 0 km/h
2713 21-01-2020 10:20:00 -2.8 C 3.82 g/m*3 -2.8 C 0 km/h
2714 21-01-2020 10:25:00 -2.8 C 3.82 g/m*3 -2.8 C 0 km/h
2715 21-01-2020 10:30:00 -2.8 C 3.82 g/m*3 -2.8 C 0 km/h
2716 21-01-2020 10:35:00 -2.7 C 3.85 g/m*3 -2.7 C 0 km/h
2717 21-01-2020 10:40:00 -2.7 C 3.85 g/m*3 -2.7 C 0 km/h
2718 21-01-2020 10:45:00 -2.7 C 3.85 g/m*3 -2.7 C 0 km/h
2719 21-01-2020 10:50:00 -2.7 C 3.85 g/m*3 -2.7 C 0 km/h
2720 21-01-2020 10:55:00 -2.7 C 3.85 g/m*3 -2.7 C 0 km/h
2721 21-01-2020 11:00:00 -2.6 C 3.88 g/m*3 -2.6 C 0 km/h
2722 21-01-2020 11:05:00 -2.6 C 3.92 g/m*3 -2.6 C 0 km/h
2723 21-01-2020 11:10:00 -2.5 C 3.91 g/m*3 -2.5 C 0 km/h
2724 21-01-2020 11:15:00 -2.5 C 3.91 g/m*3 -2.5 C 0 km/h
2725 21-01-2020 11:20:00 -2.4 C 3.98 g/m*3 -2.4 C 0 km/h
Sensor: Nr:Datum:Temp:Abs-Feuchte:Windchill:Wind:
Aussen-T/F 2726 21-01-2020 11:25:00 -2.3 C 4 g/m*3 -2.3 C 0 km/h
2727 21-01-2020 11:30:00 -2.2 C 4.03 g/m*3 -2.2 C 0 km/h
2728 21-01-2020 11:35:00 -2.1 C 4.06 g/m*3 -2.1 C 0 km/h
2729 21-01-2020 11:40:00 -1.9 C 4.12 g/m*3 -1.9 C 0 km/h
2730 21-01-2020 11:45:00 -1.8 C 4.15 g/m*3 -1.8 C 0 km/h
2731 21-01-2020 11:50:00 -1.7 C 4.18 g/m*3 -1.7 C 0 km/h
2732 21-01-2020 11:55:00 -1.6 C 4.21 g/m*3 -1.6 C 0 km/h
2733 21-01-2020 12:00:00 -1.6 C 4.21 g/m*3 -1.6 C 0 km/h
2734 21-01-2020 12:05:00 -1.5 C 4.23 g/m*3 -1.5 C 0 km/h
2735 21-01-2020 12:10:00 -1.4 C 4.26 g/m*3 -1.4 C 0 km/h
2736 21-01-2020 12:15:00 -1.3 C 4.29 g/m*3 -1.3 C 3.2 km/h
2737 21-01-2020 12:20:00 -1.3 C 4.29 g/m*3 -1.3 C 3.2 km/h
2738 21-01-2020 12:25:00 -1.3 C 4.29 g/m*3 -1.3 C 4.8 km/h
2739 21-01-2020 12:30:00 -1.2 C 4.32 g/m*3 -1.2 C 1.6 km/h
2740 21-01-2020 12:35:00 -1.2 C 4.32 g/m*3 -1.2 C 0 km/h
2741 21-01-2020 12:40:00 -1.1 C 4.35 g/m*3 -1.1 C 1.6 km/h
2742 21-01-2020 12:45:00 -0.9 C 4.42 g/m*3 -0.9 C 3.2 km/h
2743 21-01-2020 12:50:00 -0.9 C 4.42 g/m*3 -0.9 C 4.8 km/h
2744 21-01-2020 12:55:00 -0.9 C 4.42 g/m*3 -3.22 C 6.4 km/h
2745 21-01-2020 13:00:00 -0.8 C 4.45 g/m*3 -0.8 C 1.6 km/h
2746 21-01-2020 13:05:00 -0.7 C 4.48 g/m*3 -0.7 C 3.2 km/h
2747 21-01-2020 13:10:00 -0.7 C 4.48 g/m*3 -0.7 C 3.2 km/h
2748 21-01-2020 13:15:00 -0.7 C 4.48 g/m*3 -0.7 C 3.2 km/h
2749 21-01-2020 13:20:00 -0.7 C 4.48 g/m*3 -0.7 C 3.2 km/h
2750 21-01-2020 13:25:00 -0.7 C 4.48 g/m*3 -2.99 C 6.4 km/h
Sensor: Nr:Datum:Temp:Abs-Feuchte:Windchill:Wind:
Aussen-T/F 2751 21-01-2020 13:30:00 -0.6 C 4.51 g/m*3 -0.6 C 4.8 km/h
2752 21-01-2020 13:35:00 -0.6 C 4.51 g/m*3 -0.6 C 4.8 km/h
2753 21-01-2020 13:40:00 -0.5 C 4.54 g/m*3 -0.5 C 3.2 km/h
2754 21-01-2020 13:45:00 -0.4 C 4.57 g/m*3 -0.4 C 0 km/h
2755 21-01-2020 13:50:00 -0.4 C 4.57 g/m*3 -2.64 C 6.4 km/h
2756 21-01-2020 13:55:00 -0.4 C 4.57 g/m*3 -0.4 C 4.8 km/h
2757 21-01-2020 14:00:00 -0.4 C 4.57 g/m*3 -0.4 C 3.2 km/h
2758 21-01-2020 14:05:00 -0.3 C 4.6 g/m*3 -0.3 C 0 km/h
2759 21-01-2020 14:10:00 -0.3 C 4.6 g/m*3 -0.3 C 0 km/h
2760 21-01-2020 14:15:00 -0.3 C 4.6 g/m*3 -0.3 C 0 km/h
2761 21-01-2020 14:20:00 -0.2 C 4.64 g/m*3 -0.2 C 0 km/h
2762 21-01-2020 14:25:00 -0.2 C 4.64 g/m*3 -0.2 C 0 km/h
2763 21-01-2020 14:30:00 -0.1 C 4.67 g/m*3 -0.1 C 0 km/h
2764 21-01-2020 14:35:00 -0.1 C 4.67 g/m*3 -0.1 C 0 km/h
2765 21-01-2020 14:40:00 0 C 4.7 g/m*3 -2.18 C 6.4 km/h
2766 21-01-2020 14:45:00 -0.1 C 4.67 g/m*3 -2.3 C 6.4 km/h
2767 21-01-2020 14:50:00 -0.1 C 4.67 g/m*3 -0.1 C 0 km/h
2768 21-01-2020 14:55:00 0 C 4.7 g/m*3 0 C 1.6 km/h
2769 21-01-2020 15:00:00 0 C 4.7 g/m*3 0 C 1.6 km/h
2770 21-01-2020 15:05:00 0 C 4.7 g/m*3 0 C 3.2 km/h
2771 21-01-2020 15:10:00 0 C 4.7 g/m*3 -2.18 C 6.4 km/h
2772 21-01-2020 15:15:00 0 C 4.7 g/m*3 0 C 1.6 km/h
2773 21-01-2020 15:20:00 0 C 4.7 g/m*3 0 C 3.2 km/h
2774 21-01-2020 15:25:00 0 C 4.7 g/m*3 0 C 1.6 km/h
2775 21-01-2020 15:30:00 0 C 4.7 g/m*3 0 C 0 km/h
Sensor: Nr:Datum:Temp:Abs-Feuchte:Windchill:Wind:
Aussen-T/F 2776 21-01-2020 15:35:00 0.1 C 4.73 g/m*3 0.1 C 1.6 km/h
2777 21-01-2020 15:40:00 0.1 C 4.73 g/m*3 0.1 C 1.6 km/h
2778 21-01-2020 15:45:00 0.1 C 4.73 g/m*3 0.1 C 0 km/h
2779 21-01-2020 15:50:00 0.1 C 4.73 g/m*3 0.1 C 1.6 km/h
2780 21-01-2020 15:55:00 0 C 4.7 g/m*3 0 C 0 km/h
2781 21-01-2020 16:00:00 0 C 4.7 g/m*3 0 C 0 km/h
2782 21-01-2020 16:05:00 0 C 4.7 g/m*3 0 C 0 km/h
2783 21-01-2020 16:10:00 -0.1 C 4.67 g/m*3 -0.1 C 0 km/h
2784 21-01-2020 16:15:00 -0.1 C 4.67 g/m*3 -0.1 C 0 km/h
2785 21-01-2020 16:20:00 -0.2 C 4.64 g/m*3 -0.2 C 0 km/h
2786 21-01-2020 16:25:00 -0.2 C 4.64 g/m*3 -0.2 C 0 km/h
2787 21-01-2020 16:30:00 -0.2 C 4.64 g/m*3 -0.2 C 0 km/h
2788 21-01-2020 16:35:00 -0.2 C 4.64 g/m*3 -0.2 C 0 km/h
2789 21-01-2020 16:40:00 -0.2 C 4.64 g/m*3 -0.2 C 0 km/h
2790 21-01-2020 16:45:00 -0.3 C 4.6 g/m*3 -0.3 C 0 km/h
2791 21-01-2020 16:50:00 -0.3 C 4.6 g/m*3 -0.3 C 1.6 km/h
2792 21-01-2020 16:55:00 -0.3 C 4.6 g/m*3 -0.3 C 0 km/h
2793 21-01-2020 17:00:00 -0.4 C 4.57 g/m*3 -0.4 C 0 km/h
2794 21-01-2020 17:05:00 -0.4 C 4.57 g/m*3 -0.4 C 0 km/h
2795 21-01-2020 17:10:00 -0.5 C 4.54 g/m*3 -0.5 C 0 km/h
2796 21-01-2020 17:15:00 -0.5 C 4.54 g/m*3 -0.5 C 0 km/h
2797 21-01-2020 17:20:00 -0.6 C 4.51 g/m*3 -0.6 C 0 km/h
2798 21-01-2020 17:25:00 -0.6 C 4.51 g/m*3 -0.6 C 0 km/h
2799 21-01-2020 17:30:00 -0.6 C 4.51 g/m*3 -0.6 C 0 km/h
2800 21-01-2020 17:35:00 -0.6 C 4.51 g/m*3 -0.6 C 0 km/h
Sensor: Nr:Datum:Temp:Abs-Feuchte:Windchill:Wind:
Aussen-T/F 2801 21-01-2020 17:40:00 -0.6 C 4.51 g/m*3 -0.6 C 0 km/h
2802 21-01-2020 17:45:00 -0.7 C 4.48 g/m*3 -0.7 C 0 km/h
2803 21-01-2020 17:50:00 -0.7 C 4.48 g/m*3 -0.7 C 0 km/h
2804 21-01-2020 17:55:00 -0.8 C 4.45 g/m*3 -0.8 C 0 km/h
2805 21-01-2020 18:00:00 -0.8 C 4.45 g/m*3 -0.8 C 0 km/h
2806 21-01-2020 18:05:00 -0.8 C 4.45 g/m*3 -0.8 C 0 km/h
2807 21-01-2020 18:10:00 -0.8 C 4.45 g/m*3 -0.8 C 0 km/h
2808 21-01-2020 18:15:00 -0.9 C 4.42 g/m*3 -0.9 C 0 km/h
2809 21-01-2020 18:20:00 -1 C 4.38 g/m*3 -1 C 0 km/h
2810 21-01-2020 18:25:00 -1.1 C 4.35 g/m*3 -1.1 C 0 km/h
2811 21-01-2020 18:30:00 -1.1 C 4.35 g/m*3 -1.1 C 0 km/h
2812 21-01-2020 18:35:00 -1.1 C 4.35 g/m*3 -1.1 C 0 km/h
2813 21-01-2020 18:40:00 -1.2 C 4.32 g/m*3 -1.2 C 0 km/h
2814 21-01-2020 18:45:00 -1.2 C 4.32 g/m*3 -1.2 C 0 km/h
2815 21-01-2020 18:50:00 -1.2 C 4.32 g/m*3 -1.2 C 0 km/h
2816 21-01-2020 18:55:00 -1.3 C 4.29 g/m*3 -1.3 C 0 km/h
2817 21-01-2020 19:00:00 -1.3 C 4.29 g/m*3 -1.3 C 0 km/h
2818 21-01-2020 19:05:00 -1.3 C 4.29 g/m*3 -1.3 C 0 km/h
2819 21-01-2020 19:10:00 -1.3 C 4.29 g/m*3 -1.3 C 1.6 km/h
2820 21-01-2020 19:15:00 -1.3 C 4.29 g/m*3 -1.3 C 0 km/h
2821 21-01-2020 19:20:00 -1.3 C 4.29 g/m*3 -1.3 C 0 km/h
2822 21-01-2020 19:25:00 -1.3 C 4.29 g/m*3 -1.3 C 0 km/h
2823 21-01-2020 19:30:00 -1.3 C 4.29 g/m*3 -1.3 C 0 km/h
2824 21-01-2020 19:35:00 -1.3 C 4.29 g/m*3 -1.3 C 0 km/h
2825 21-01-2020 19:40:00 -1.3 C 4.29 g/m*3 -1.3 C 0 km/h
Sensor: Nr:Datum:Temp:Abs-Feuchte:Windchill:Wind:
Aussen-T/F 2826 21-01-2020 19:45:00 -1.3 C 4.29 g/m*3 -1.3 C 0 km/h
2827 21-01-2020 19:50:00 -1.3 C 4.29 g/m*3 -1.3 C 0 km/h
2828 21-01-2020 19:55:00 -1.3 C 4.29 g/m*3 -1.3 C 0 km/h
2829 21-01-2020 20:00:00 -1.3 C 4.29 g/m*3 -1.3 C 0 km/h
2830 21-01-2020 20:05:00 -1.3 C 4.29 g/m*3 -1.3 C 0 km/h
2831 21-01-2020 20:10:00 -1.3 C 4.29 g/m*3 -1.3 C 0 km/h
2832 21-01-2020 20:15:00 -1.4 C 4.26 g/m*3 -1.4 C 0 km/h
2833 21-01-2020 20:20:00 -1.4 C 4.26 g/m*3 -1.4 C 0 km/h
2834 21-01-2020 20:25:00 -1.4 C 4.26 g/m*3 -1.4 C 0 km/h
2835 21-01-2020 20:30:00 -1.5 C 4.23 g/m*3 -1.5 C 0 km/h
2836 21-01-2020 20:35:00 -1.5 C 4.23 g/m*3 -1.5 C 0 km/h
2837 21-01-2020 20:40:00 -1.5 C 4.23 g/m*3 -1.5 C 0 km/h
2838 21-01-2020 20:45:00 -1.6 C 4.21 g/m*3 -1.6 C 0 km/h
2839 21-01-2020 20:50:00 -1.6 C 4.21 g/m*3 -1.6 C 0 km/h
2840 21-01-2020 20:55:00 -1.6 C 4.21 g/m*3 -1.6 C 0 km/h
2841 21-01-2020 21:00:00 -1.7 C 4.18 g/m*3 -1.7 C 0 km/h
2842 21-01-2020 21:05:00 -1.7 C 4.18 g/m*3 -1.7 C 0 km/h
2843 21-01-2020 21:10:00 -1.8 C 4.15 g/m*3 -1.8 C 0 km/h
2844 21-01-2020 21:15:00 -1.8 C 4.15 g/m*3 -1.8 C 0 km/h
2845 21-01-2020 21:20:00 -1.8 C 4.15 g/m*3 -1.8 C 0 km/h
2846 21-01-2020 21:25:00 -1.9 C 4.12 g/m*3 -1.9 C 0 km/h
2847 21-01-2020 21:30:00 -1.9 C 4.12 g/m*3 -1.9 C 0 km/h
2848 21-01-2020 21:35:00 -1.9 C 4.12 g/m*3 -1.9 C 0 km/h
2849 21-01-2020 21:40:00 -1.8 C 4.15 g/m*3 -1.8 C 0 km/h
2850 21-01-2020 21:45:00 -1.8 C 4.15 g/m*3 -1.8 C 0 km/h
Sensor: Nr:Datum:Temp:Abs-Feuchte:Windchill:Wind:
Aussen-T/F 2851 21-01-2020 21:50:00 -1.8 C 4.15 g/m*3 -1.8 C 0 km/h
2852 21-01-2020 21:55:00 -1.8 C 4.15 g/m*3 -1.8 C 0 km/h
2853 21-01-2020 22:00:00 -1.8 C 4.15 g/m*3 -1.8 C 0 km/h
2854 21-01-2020 22:05:00 -1.8 C 4.15 g/m*3 -1.8 C 0 km/h
2855 21-01-2020 22:10:00 -1.8 C 4.15 g/m*3 -1.8 C 0 km/h
2856 21-01-2020 22:15:00 -1.8 C 4.15 g/m*3 -1.8 C 0 km/h
2857 21-01-2020 22:20:00 -1.8 C 4.15 g/m*3 -1.8 C 0 km/h
2858 21-01-2020 22:25:00 -1.9 C 4.12 g/m*3 -1.9 C 0 km/h
2859 21-01-2020 22:30:00 -1.9 C 4.12 g/m*3 -1.9 C 0 km/h
2860 21-01-2020 22:35:00 -1.9 C 4.12 g/m*3 -1.9 C 0 km/h
2861 21-01-2020 22:40:00 -1.9 C 4.12 g/m*3 -1.9 C 0 km/h
2862 21-01-2020 22:45:00 -2 C 4.09 g/m*3 -2 C 0 km/h
2863 21-01-2020 22:50:00 -2 C 4.09 g/m*3 -2 C 0 km/h
2864 21-01-2020 22:55:00 -2.1 C 4.06 g/m*3 -2.1 C 0 km/h
2865 21-01-2020 23:00:00 -2.1 C 4.06 g/m*3 -2.1 C 0 km/h
2866 21-01-2020 23:05:00 -2.2 C 4.03 g/m*3 -2.2 C 0 km/h
2867 21-01-2020 23:10:00 -2.2 C 4.03 g/m*3 -2.2 C 0 km/h
2868 21-01-2020 23:15:00 -2.2 C 4.03 g/m*3 -2.2 C 0 km/h
2869 21-01-2020 23:20:00 -2.2 C 4.03 g/m*3 -2.2 C 0 km/h
2870 21-01-2020 23:25:00 -2.2 C 4.03 g/m*3 -2.2 C 0 km/h
2871 21-01-2020 23:30:00 -2.2 C 4.03 g/m*3 -2.2 C 0 km/h
2872 21-01-2020 23:35:00 -2.2 C 4.03 g/m*3 -2.2 C 0 km/h
2873 21-01-2020 23:40:00 -2.2 C 4.03 g/m*3 -2.2 C 0 km/h
2874 21-01-2020 23:45:00 -2.3 C 4 g/m*3 -2.3 C 0 km/h
2875 21-01-2020 23:50:00 -2.3 C 4 g/m*3 -2.3 C 0 km/h
Sensor: Nr:Datum:Temp:Abs-Feuchte:Windchill:Wind:
Aussen-T/F 2876 21-01-2020 23:55:00 -2.3 C 4 g/m*3 -2.3 C 0 km/h
2877 22-01-2020 00:00:00 -2.3 C 4 g/m*3 -2.3 C 0 km/h
2878 22-01-2020 00:05:00 -2.3 C 4 g/m*3 -2.3 C 0 km/h
2879 22-01-2020 00:10:00 -2.3 C 4 g/m*3 -2.3 C 0 km/h
2880 22-01-2020 00:15:00 -2.4 C 3.98 g/m*3 -2.4 C 0 km/h
2881 22-01-2020 00:20:00 -2.4 C 3.98 g/m*3 -2.4 C 0 km/h
2882 22-01-2020 00:25:00 -2.5 C 3.95 g/m*3 -2.5 C 3.2 km/h
2883 22-01-2020 00:30:00 -2.5 C 3.95 g/m*3 -2.5 C 0 km/h
2884 22-01-2020 00:35:00 -2.5 C 3.95 g/m*3 -2.5 C 0 km/h
2885 22-01-2020 00:40:00 -2.4 C 3.98 g/m*3 -2.4 C 0 km/h
2886 22-01-2020 00:45:00 -2.4 C 3.98 g/m*3 -2.4 C 0 km/h
2887 22-01-2020 00:50:00 -2.4 C 3.98 g/m*3 -2.4 C 3.2 km/h
2888 22-01-2020 00:55:00 -2.5 C 3.95 g/m*3 -2.5 C 0 km/h
2889 22-01-2020 01:00:00 -2.5 C 3.95 g/m*3 -2.5 C 0 km/h
2890 22-01-2020 01:05:00 -2.6 C 3.92 g/m*3 -2.6 C 0 km/h
2891 22-01-2020 01:10:00 -2.6 C 3.92 g/m*3 -2.6 C 0 km/h
2892 22-01-2020 01:15:00 -2.6 C 3.92 g/m*3 -2.6 C 1.6 km/h
2893 22-01-2020 01:20:00 -2.6 C 3.92 g/m*3 -2.6 C 0 km/h
2894 22-01-2020 01:25:00 -2.6 C 3.92 g/m*3 -2.6 C 0 km/h
2895 22-01-2020 01:30:00 -2.6 C 3.92 g/m*3 -2.6 C 1.6 km/h
2896 22-01-2020 01:35:00 -2.7 C 3.89 g/m*3 -2.7 C 1.6 km/h
2897 22-01-2020 01:40:00 -2.7 C 3.89 g/m*3 -2.7 C 0 km/h
2898 22-01-2020 01:45:00 -2.7 C 3.89 g/m*3 -2.7 C 0 km/h
2899 22-01-2020 01:50:00 -2.7 C 3.89 g/m*3 -2.7 C 0 km/h
2900 22-01-2020 01:55:00 -2.7 C 3.89 g/m*3 -2.7 C 0 km/h
Sensor: Nr:Datum:Temp:Abs-Feuchte:Windchill:Wind:
Aussen-T/F 2901 22-01-2020 02:00:00 -2.7 C 3.89 g/m*3 -2.7 C 1.6 km/h
2902 22-01-2020 02:05:00 -2.7 C 3.89 g/m*3 -2.7 C 1.6 km/h
2903 22-01-2020 02:10:00 -2.8 C 3.86 g/m*3 -2.8 C 0 km/h
2904 22-01-2020 02:15:00 -2.7 C 3.89 g/m*3 -2.7 C 0 km/h
2905 22-01-2020 02:20:00 -2.8 C 3.86 g/m*3 -2.8 C 1.6 km/h
2906 22-01-2020 02:25:00 -2.8 C 3.86 g/m*3 -2.8 C 0 km/h
2907 22-01-2020 02:30:00 -2.8 C 3.86 g/m*3 -2.8 C 0 km/h
2908 22-01-2020 02:35:00 -2.8 C 3.86 g/m*3 -2.8 C 0 km/h
2909 22-01-2020 02:40:00 -2.8 C 3.82 g/m*3 -2.8 C 0 km/h
2910 22-01-2020 02:45:00 -2.8 C 3.82 g/m*3 -2.8 C 3.2 km/h
2911 22-01-2020 02:50:00 -2.8 C 3.82 g/m*3 -2.8 C 0 km/h
2912 22-01-2020 02:55:00 -2.8 C 3.82 g/m*3 -2.8 C 1.6 km/h
2913 22-01-2020 03:00:00 -2.9 C 3.8 g/m*3 -2.9 C 1.6 km/h
2914 22-01-2020 03:05:00 -2.9 C 3.8 g/m*3 -2.9 C 0 km/h
2915 22-01-2020 03:10:00 -2.9 C 3.8 g/m*3 -2.9 C 0 km/h
2916 22-01-2020 03:15:00 -2.9 C 3.8 g/m*3 -2.9 C 3.2 km/h
2917 22-01-2020 03:20:00 -2.9 C 3.8 g/m*3 -2.9 C 1.6 km/h
2918 22-01-2020 03:25:00 -3 C 3.77 g/m*3 -3 C 4.8 km/h
2919 22-01-2020 03:30:00 -3.1 C 3.74 g/m*3 -3.1 C 0 km/h
2920 22-01-2020 03:35:00 -3.1 C 3.74 g/m*3 -3.1 C 0 km/h
2921 22-01-2020 03:40:00 -3.1 C 3.74 g/m*3 -3.1 C 1.6 km/h
2922 22-01-2020 03:45:00 -3.1 C 3.74 g/m*3 -3.1 C 0 km/h
2923 22-01-2020 03:50:00 -3 C 3.77 g/m*3 -3 C 0 km/h
2924 22-01-2020 03:55:00 -3 C 3.77 g/m*3 -3 C 1.6 km/h
2925 22-01-2020 04:00:00 -3 C 3.77 g/m*3 -3 C 1.6 km/h
Sensor: Nr:Datum:Temp:Abs-Feuchte:Windchill:Wind:
Aussen-T/F 2926 22-01-2020 04:05:00 -3 C 3.77 g/m*3 -3 C 1.6 km/h
2927 22-01-2020 04:10:00 -2.9 C 3.8 g/m*3 -2.9 C 0 km/h
2928 22-01-2020 04:15:00 -2.9 C 3.8 g/m*3 -2.9 C 0 km/h
2929 22-01-2020 04:20:00 -2.9 C 3.8 g/m*3 -2.9 C 0 km/h
2930 22-01-2020 04:25:00 -2.9 C 3.8 g/m*3 -2.9 C 3.2 km/h
2931 22-01-2020 04:30:00 -2.9 C 3.8 g/m*3 -2.9 C 1.6 km/h
2932 22-01-2020 04:35:00 -2.9 C 3.8 g/m*3 -2.9 C 1.6 km/h
2933 22-01-2020 04:40:00 -2.9 C 3.8 g/m*3 -2.9 C 0 km/h
2934 22-01-2020 04:45:00 -2.9 C 3.8 g/m*3 -2.9 C 0 km/h
2935 22-01-2020 04:50:00 -2.9 C 3.8 g/m*3 -2.9 C 0 km/h
2936 22-01-2020 04:55:00 -2.9 C 3.8 g/m*3 -2.9 C 0 km/h
2937 22-01-2020 05:00:00 -3 C 3.77 g/m*3 -3 C 0 km/h
2938 22-01-2020 05:05:00 -3 C 3.77 g/m*3 -3 C 0 km/h
2939 22-01-2020 05:10:00 -3 C 3.77 g/m*3 -3 C 0 km/h
2940 22-01-2020 05:15:00 -3.1 C 3.74 g/m*3 -3.1 C 0 km/h
2941 22-01-2020 05:20:00 -3.1 C 3.74 g/m*3 -3.1 C 0 km/h
2942 22-01-2020 05:25:00 -3 C 3.77 g/m*3 -3 C 0 km/h
2943 22-01-2020 05:30:00 -3 C 3.77 g/m*3 -3 C 3.2 km/h
2944 22-01-2020 05:35:00 -2.9 C 3.8 g/m*3 -2.9 C 1.6 km/h
2945 22-01-2020 05:40:00 -2.9 C 3.8 g/m*3 -2.9 C 3.2 km/h
2946 22-01-2020 05:45:00 -2.9 C 3.8 g/m*3 -2.9 C 1.6 km/h
2947 22-01-2020 05:50:00 -2.9 C 3.8 g/m*3 -2.9 C 0 km/h
2948 22-01-2020 05:55:00 -2.9 C 3.8 g/m*3 -2.9 C 1.6 km/h
2949 22-01-2020 06:00:00 -2.9 C 3.8 g/m*3 -2.9 C 3.2 km/h
2950 22-01-2020 06:05:00 -2.9 C 3.8 g/m*3 -2.9 C 1.6 km/h
Sensor: Nr:Datum:Temp:Abs-Feuchte:Windchill:Wind:
Aussen-T/F 2951 22-01-2020 06:10:00 -2.9 C 3.8 g/m*3 -2.9 C 3.2 km/h
2952 22-01-2020 06:15:00 -3 C 3.77 g/m*3 -3 C 1.6 km/h
2953 22-01-2020 06:20:00 -3 C 3.77 g/m*3 -3 C 3.2 km/h
2954 22-01-2020 06:25:00 -2.9 C 3.8 g/m*3 -2.9 C 1.6 km/h
2955 22-01-2020 06:30:00 -2.9 C 3.8 g/m*3 -2.9 C 1.6 km/h
2956 22-01-2020 06:35:00 -2.9 C 3.8 g/m*3 -2.9 C 4.8 km/h
2957 22-01-2020 06:40:00 -3 C 3.77 g/m*3 -3 C 0 km/h
2958 22-01-2020 06:45:00 -3 C 3.77 g/m*3 -3 C 0 km/h
2959 22-01-2020 06:50:00 -2.9 C 3.8 g/m*3 -2.9 C 0 km/h
2960 22-01-2020 06:55:00 -2.9 C 3.8 g/m*3 -2.9 C 0 km/h
2961 22-01-2020 07:00:00 -2.9 C 3.8 g/m*3 -2.9 C 0 km/h
2962 22-01-2020 07:05:00 -2.9 C 3.8 g/m*3 -2.9 C 0 km/h
2963 22-01-2020 07:10:00 -2.8 C 3.82 g/m*3 -2.8 C 0 km/h
2964 22-01-2020 07:15:00 -2.8 C 3.82 g/m*3 -2.8 C 0 km/h
2965 22-01-2020 07:20:00 -2.8 C 3.86 g/m*3 -2.8 C 0 km/h
2966 22-01-2020 07:25:00 -2.8 C 3.86 g/m*3 -2.8 C 0 km/h
2967 22-01-2020 07:30:00 -2.7 C 3.89 g/m*3 -2.7 C 0 km/h
2968 22-01-2020 07:35:00 -2.7 C 3.89 g/m*3 -2.7 C 3.2 km/h
2969 22-01-2020 07:40:00 -2.6 C 3.92 g/m*3 -2.6 C 0 km/h
2970 22-01-2020 07:45:00 -2.6 C 3.92 g/m*3 -2.6 C 0 km/h
2971 22-01-2020 07:50:00 -2.6 C 3.92 g/m*3 -2.6 C 0 km/h
2972 22-01-2020 07:55:00 -2.4 C 3.98 g/m*3 -2.4 C 1.6 km/h
2973 22-01-2020 08:00:00 -2.4 C 3.98 g/m*3 -2.4 C 0 km/h
2974 22-01-2020 08:05:00 -2.4 C 3.98 g/m*3 -2.4 C 1.6 km/h
2975 22-01-2020 08:10:00 -2.3 C 4 g/m*3 -2.3 C 4.8 km/h
Sensor: Nr:Datum:Temp:Abs-Feuchte:Windchill:Wind:
Aussen-T/F 2976 22-01-2020 08:15:00 -2.3 C 4 g/m*3 -5.47 C 8.1 km/h
2977 22-01-2020 08:20:00 -2.4 C 3.98 g/m*3 -4.95 C 6.4 km/h
2978 22-01-2020 08:25:00 -2.4 C 3.98 g/m*3 -2.4 C 4.8 km/h
2979 22-01-2020 08:30:00 -2.4 C 3.93 g/m*3 -2.4 C 3.2 km/h
2980 22-01-2020 08:35:00 -2.4 C 3.93 g/m*3 -2.4 C 4.8 km/h
2981 22-01-2020 08:40:00 -2.5 C 3.91 g/m*3 -2.5 C 1.6 km/h
2982 22-01-2020 08:45:00 -2.6 C 3.88 g/m*3 -2.6 C 1.6 km/h
2983 22-01-2020 08:50:00 -2.5 C 3.91 g/m*3 -2.5 C 0 km/h
2984 22-01-2020 08:55:00 -2.4 C 3.98 g/m*3 -2.4 C 0 km/h
2985 22-01-2020 09:00:00 -2.4 C 3.98 g/m*3 -2.4 C 0 km/h
2986 22-01-2020 09:05:00 -2.3 C 4 g/m*3 -2.3 C 0 km/h
2987 22-01-2020 09:10:00 -2.3 C 4 g/m*3 -2.3 C 0 km/h
2988 22-01-2020 09:15:00 -2.3 C 4 g/m*3 -2.3 C 0 km/h
2989 22-01-2020 09:20:00 -2.3 C 4 g/m*3 -2.3 C 0 km/h
2990 22-01-2020 09:25:00 -2.3 C 4 g/m*3 -2.3 C 0 km/h
2991 22-01-2020 09:30:00 -2.3 C 4 g/m*3 -2.3 C 0 km/h
2992 22-01-2020 09:35:00 -2.3 C 4 g/m*3 -2.3 C 1.6 km/h
2993 22-01-2020 09:40:00 -2.3 C 4 g/m*3 -2.3 C 4.8 km/h
2994 22-01-2020 09:45:00 -2.3 C 4 g/m*3 -2.3 C 1.6 km/h
2995 22-01-2020 09:50:00 -2.2 C 4.03 g/m*3 -2.2 C 4.8 km/h
2996 22-01-2020 09:55:00 -2.2 C 4.03 g/m*3 -2.2 C 4.8 km/h
2997 22-01-2020 10:00:00 -2.2 C 4.03 g/m*3 -2.2 C 1.6 km/h
2998 22-01-2020 10:05:00 -2.2 C 4.03 g/m*3 -2.2 C 1.6 km/h
2999 22-01-2020 10:10:00 -2.3 C 4 g/m*3 -2.3 C 4.8 km/h
3000 22-01-2020 10:15:00 -2.3 C 4 g/m*3 -5.47 C 8.1 km/h
Sensor: Nr:Datum:Temp:Abs-Feuchte:Windchill:Wind:
Aussen-T/F 3001 22-01-2020 10:20:00 -2.3 C 4 g/m*3 -4.84 C 6.4 km/h
3002 22-01-2020 10:25:00 -2.3 C 4 g/m*3 -4.84 C 6.4 km/h
3003 22-01-2020 10:30:00 -2.3 C 4 g/m*3 -2.3 C 4.8 km/h
3004 22-01-2020 10:35:00 -2.4 C 3.98 g/m*3 -2.4 C 4.8 km/h
3005 22-01-2020 10:40:00 -2.4 C 3.98 g/m*3 -2.4 C 0 km/h
3006 22-01-2020 10:45:00 -2.4 C 3.98 g/m*3 -2.4 C 0 km/h
3007 22-01-2020 10:50:00 -2.4 C 3.98 g/m*3 -2.4 C 0 km/h
3008 22-01-2020 10:55:00 -2.3 C 4 g/m*3 -2.3 C 0 km/h
3009 22-01-2020 11:00:00 -2.3 C 4 g/m*3 -2.3 C 0 km/h
3010 22-01-2020 11:05:00 -2.2 C 4.03 g/m*3 -2.2 C 0 km/h
3011 22-01-2020 11:10:00 -2.1 C 4.06 g/m*3 -2.1 C 0 km/h
3012 22-01-2020 11:15:00 -2 C 4.09 g/m*3 -2 C 0 km/h
3013 22-01-2020 11:20:00 -1.9 C 4.12 g/m*3 -1.9 C 0 km/h
3014 22-01-2020 11:25:00 -1.8 C 4.15 g/m*3 -1.8 C 0 km/h
3015 22-01-2020 11:30:00 -1.7 C 4.18 g/m*3 -1.7 C 0 km/h
3016 22-01-2020 11:35:00 -1.6 C 4.21 g/m*3 -1.6 C 3.2 km/h
3017 22-01-2020 11:40:00 -1.5 C 4.23 g/m*3 -1.5 C 3.2 km/h
3018 22-01-2020 11:45:00 -1.4 C 4.26 g/m*3 -1.4 C 3.2 km/h
3019 22-01-2020 11:50:00 -1.3 C 4.29 g/m*3 -1.3 C 3.2 km/h
3020 22-01-2020 11:55:00 -1.2 C 4.32 g/m*3 -1.2 C 3.2 km/h
3021 22-01-2020 12:00:00 -1.2 C 4.32 g/m*3 -1.2 C 1.6 km/h
3022 22-01-2020 12:05:00 -1.1 C 4.35 g/m*3 -1.1 C 1.6 km/h
3023 22-01-2020 12:10:00 -1 C 4.38 g/m*3 -1 C 0 km/h
3024 22-01-2020 12:15:00 -0.9 C 4.42 g/m*3 -0.9 C 0 km/h
3025 22-01-2020 12:20:00 -0.9 C 4.42 g/m*3 -0.9 C 3.2 km/h
Sensor: Nr:Datum:Temp:Abs-Feuchte:Windchill:Wind:
Aussen-T/F 3026 22-01-2020 12:25:00 -0.9 C 4.42 g/m*3 -0.9 C 3.2 km/h
3027 22-01-2020 12:30:00 -0.9 C 4.42 g/m*3 -0.9 C 3.2 km/h
3028 22-01-2020 12:35:00 -0.9 C 4.42 g/m*3 -0.9 C 1.6 km/h
3029 22-01-2020 12:40:00 -0.9 C 4.42 g/m*3 -0.9 C 1.6 km/h
3030 22-01-2020 12:45:00 -0.8 C 4.45 g/m*3 -0.8 C 1.6 km/h
3031 22-01-2020 12:50:00 -0.8 C 4.45 g/m*3 -0.8 C 1.6 km/h
3032 22-01-2020 12:55:00 -0.8 C 4.45 g/m*3 -0.8 C 1.6 km/h
3033 22-01-2020 13:00:00 -0.7 C 4.48 g/m*3 -0.7 C 3.2 km/h
3034 22-01-2020 13:05:00 -0.7 C 4.48 g/m*3 -0.7 C 3.2 km/h
3035 22-01-2020 13:10:00 -0.6 C 4.56 g/m*3 -0.6 C 0 km/h
3036 22-01-2020 13:15:00 -0.6 C 4.56 g/m*3 -0.6 C 0 km/h
3037 22-01-2020 13:20:00 -0.5 C 4.54 g/m*3 -0.5 C 0 km/h
3038 22-01-2020 13:25:00 -0.4 C 4.57 g/m*3 -0.4 C 0 km/h
3039 22-01-2020 13:30:00 -0.4 C 4.57 g/m*3 -0.4 C 0 km/h
3040 22-01-2020 13:35:00 -0.3 C 4.6 g/m*3 -0.3 C 0 km/h
3041 22-01-2020 13:40:00 -0.3 C 4.6 g/m*3 -0.3 C 1.6 km/h
3042 22-01-2020 13:45:00 -0.3 C 4.65 g/m*3 -0.3 C 0 km/h
3043 22-01-2020 13:50:00 -0.2 C 4.68 g/m*3 -0.2 C 0 km/h
3044 22-01-2020 13:55:00 -0.2 C 4.68 g/m*3 -0.2 C 1.6 km/h
3045 22-01-2020 14:00:00 -0.2 C 4.68 g/m*3 -0.2 C 0 km/h
3046 22-01-2020 14:05:00 -0.2 C 4.68 g/m*3 -0.2 C 0 km/h
3047 22-01-2020 14:10:00 -0.2 C 4.68 g/m*3 -0.2 C 0 km/h
3048 22-01-2020 14:15:00 -0.2 C 4.68 g/m*3 -0.2 C 0 km/h
3049 22-01-2020 14:20:00 -0.2 C 4.64 g/m*3 -0.2 C 0 km/h
3050 22-01-2020 14:25:00 -0.2 C 4.64 g/m*3 -0.2 C 1.6 km/h
Sensor: Nr:Datum:Temp:Abs-Feuchte:Windchill:Wind:
Aussen-T/F 3051 22-01-2020 14:30:00 -0.2 C 4.64 g/m*3 -0.2 C 0 km/h
3052 22-01-2020 14:35:00 -0.2 C 4.64 g/m*3 -0.2 C 0 km/h
3053 22-01-2020 14:40:00 -0.1 C 4.67 g/m*3 -0.1 C 0 km/h
3054 22-01-2020 14:45:00 -0.1 C 4.67 g/m*3 -0.1 C 0 km/h
3055 22-01-2020 14:50:00 -0.1 C 4.67 g/m*3 -0.1 C 0 km/h
3056 22-01-2020 14:55:00 -0.1 C 4.67 g/m*3 -0.1 C 0 km/h
3057 22-01-2020 15:00:00 -0.1 C 4.72 g/m*3 -0.1 C 0 km/h
3058 22-01-2020 15:05:00 0 C 4.75 g/m*3 0 C 0 km/h
3059 22-01-2020 15:10:00 0 C 4.75 g/m*3 0 C 0 km/h
3060 22-01-2020 15:15:00 0 C 4.75 g/m*3 0 C 0 km/h
3061 22-01-2020 15:20:00 0.1 C 4.78 g/m*3 0.1 C 0 km/h
3062 22-01-2020 15:25:00 0.1 C 4.78 g/m*3 0.1 C 0 km/h
3063 22-01-2020 15:30:00 0.1 C 4.73 g/m*3 0.1 C 0 km/h
3064 22-01-2020 15:35:00 0.1 C 4.73 g/m*3 0.1 C 0 km/h
3065 22-01-2020 15:40:00 0.2 C 4.77 g/m*3 0.2 C 0 km/h
3066 22-01-2020 15:45:00 0.2 C 4.77 g/m*3 0.2 C 0 km/h
3067 22-01-2020 15:50:00 0.2 C 4.77 g/m*3 0.2 C 0 km/h
3068 22-01-2020 15:55:00 0.2 C 4.77 g/m*3 0.2 C 0 km/h
3069 22-01-2020 16:00:00 0.2 C 4.77 g/m*3 0.2 C 0 km/h
3070 22-01-2020 16:05:00 0.2 C 4.77 g/m*3 0.2 C 0 km/h
3071 22-01-2020 16:10:00 0.3 C 4.85 g/m*3 0.3 C 0 km/h
3072 22-01-2020 16:15:00 0.3 C 4.85 g/m*3 0.3 C 0 km/h
3073 22-01-2020 16:20:00 0.3 C 4.8 g/m*3 0.3 C 0 km/h
3074 22-01-2020 16:25:00 0.3 C 4.8 g/m*3 0.3 C 0 km/h
3075 22-01-2020 16:30:00 0.3 C 4.8 g/m*3 0.3 C 0 km/h
Sensor: Nr:Datum:Temp:Abs-Feuchte:Windchill:Wind:
Aussen-T/F 3076 22-01-2020 16:35:00 0.3 C 4.85 g/m*3 0.3 C 0 km/h
3077 22-01-2020 16:40:00 0.3 C 4.8 g/m*3 0.3 C 0 km/h
3078 22-01-2020 16:45:00 0.3 C 4.85 g/m*3 0.3 C 0 km/h
3079 22-01-2020 16:50:00 0.3 C 4.8 g/m*3 0.3 C 0 km/h
3080 22-01-2020 16:55:00 0.3 C 4.85 g/m*3 0.3 C 0 km/h
3081 22-01-2020 17:00:00 0.3 C 4.85 g/m*3 0.3 C 0 km/h
3082 22-01-2020 17:05:00 0.3 C 4.85 g/m*3 0.3 C 0 km/h
3083 22-01-2020 17:10:00 0.3 C 4.85 g/m*3 0.3 C 0 km/h
3084 22-01-2020 17:15:00 0.3 C 4.85 g/m*3 0.3 C 0 km/h
3085 22-01-2020 17:20:00 0.3 C 4.85 g/m*3 0.3 C 0 km/h
3086 22-01-2020 17:25:00 0.3 C 4.85 g/m*3 0.3 C 0 km/h
3087 22-01-2020 17:30:00 0.3 C 4.85 g/m*3 0.3 C 0 km/h
3088 22-01-2020 17:35:00 0.3 C 4.85 g/m*3 0.3 C 0 km/h
3089 22-01-2020 17:40:00 0.3 C 4.85 g/m*3 0.3 C 0 km/h
3090 22-01-2020 17:45:00 0.3 C 4.85 g/m*3 0.3 C 0 km/h
3091 22-01-2020 17:50:00 0.3 C 4.85 g/m*3 0.3 C 0 km/h
3092 22-01-2020 17:55:00 0.3 C 4.85 g/m*3 0.3 C 0 km/h
3093 22-01-2020 18:00:00 0.3 C 4.85 g/m*3 0.3 C 0 km/h
3094 22-01-2020 18:05:00 0.3 C 4.85 g/m*3 0.3 C 0 km/h
3095 22-01-2020 18:10:00 0.3 C 4.85 g/m*3 0.3 C 0 km/h
3096 22-01-2020 18:15:00 0.3 C 4.85 g/m*3 0.3 C 0 km/h
3097 22-01-2020 18:20:00 0.3 C 4.85 g/m*3 0.3 C 0 km/h
3098 22-01-2020 18:25:00 0.3 C 4.85 g/m*3 0.3 C 0 km/h
3099 22-01-2020 18:30:00 0.3 C 4.85 g/m*3 0.3 C 0 km/h
3100 22-01-2020 18:35:00 0.2 C 4.81 g/m*3 0.2 C 0 km/h
Sensor: Nr:Datum:Temp:Abs-Feuchte:Windchill:Wind:
Aussen-T/F 3101 22-01-2020 18:40:00 0.2 C 4.77 g/m*3 0.2 C 0 km/h
3102 22-01-2020 18:45:00 0.2 C 4.77 g/m*3 0.2 C 0 km/h
3103 22-01-2020 18:50:00 0.2 C 4.77 g/m*3 0.2 C 0 km/h
3104 22-01-2020 18:55:00 0.2 C 4.77 g/m*3 0.2 C 0 km/h
3105 22-01-2020 19:00:00 0.3 C 4.85 g/m*3 0.3 C 0 km/h
3106 22-01-2020 19:05:00 0.3 C 4.85 g/m*3 0.3 C 0 km/h
3107 22-01-2020 19:10:00 0.3 C 4.85 g/m*3 0.3 C 0 km/h
3108 22-01-2020 19:15:00 0.3 C 4.85 g/m*3 0.3 C 0 km/h
3109 22-01-2020 19:20:00 0.3 C 4.85 g/m*3 0.3 C 0 km/h
3110 22-01-2020 19:25:00 0.3 C 4.85 g/m*3 0.3 C 0 km/h
3111 22-01-2020 19:30:00 0.4 C 4.88 g/m*3 0.4 C 0 km/h
3112 22-01-2020 19:35:00 0.4 C 4.88 g/m*3 0.4 C 0 km/h
3113 22-01-2020 19:40:00 0.4 C 4.88 g/m*3 0.4 C 0 km/h
3114 22-01-2020 19:45:00 0.4 C 4.88 g/m*3 0.4 C 0 km/h
3115 22-01-2020 19:50:00 0.4 C 4.88 g/m*3 0.4 C 0 km/h
3116 22-01-2020 19:55:00 0.4 C 4.88 g/m*3 0.4 C 0 km/h
3117 22-01-2020 20:00:00 0.5 C 4.91 g/m*3 0.5 C 0 km/h
3118 22-01-2020 20:05:00 0.5 C 4.91 g/m*3 0.5 C 0 km/h
3119 22-01-2020 20:10:00 0.5 C 4.91 g/m*3 0.5 C 0 km/h
3120 22-01-2020 20:15:00 0.5 C 4.91 g/m*3 0.5 C 0 km/h
3121 22-01-2020 20:20:00 0.5 C 4.91 g/m*3 0.5 C 0 km/h
3122 22-01-2020 20:25:00 0.6 C 4.95 g/m*3 0.6 C 0 km/h
3123 22-01-2020 20:30:00 0.6 C 4.95 g/m*3 0.6 C 0 km/h
3124 22-01-2020 20:35:00 0.6 C 4.95 g/m*3 0.6 C 0 km/h
3125 22-01-2020 20:40:00 0.6 C 4.95 g/m*3 0.6 C 0 km/h
Sensor: Nr:Datum:Temp:Abs-Feuchte:Windchill:Wind:
Aussen-T/F 3126 22-01-2020 20:45:00 0.6 C 4.95 g/m*3 0.6 C 0 km/h
3127 22-01-2020 20:50:00 0.6 C 4.95 g/m*3 0.6 C 0 km/h
3128 22-01-2020 20:55:00 0.6 C 4.95 g/m*3 0.6 C 0 km/h
3129 22-01-2020 21:00:00 0.6 C 4.95 g/m*3 0.6 C 0 km/h
3130 22-01-2020 21:05:00 0.6 C 4.95 g/m*3 0.6 C 0 km/h
3131 22-01-2020 21:10:00 0.6 C 4.95 g/m*3 0.6 C 0 km/h
3132 22-01-2020 21:15:00 0.6 C 4.95 g/m*3 0.6 C 0 km/h
3133 22-01-2020 21:20:00 0.7 C 4.98 g/m*3 0.7 C 0 km/h
3134 22-01-2020 21:25:00 0.7 C 4.98 g/m*3 0.7 C 0 km/h
3135 22-01-2020 21:30:00 0.7 C 4.98 g/m*3 0.7 C 0 km/h
3136 22-01-2020 21:35:00 0.7 C 4.98 g/m*3 0.7 C 0 km/h
3137 22-01-2020 21:40:00 0.7 C 4.98 g/m*3 0.7 C 0 km/h
3138 22-01-2020 21:45:00 0.7 C 4.98 g/m*3 0.7 C 0 km/h
3139 22-01-2020 21:50:00 0.7 C 4.98 g/m*3 0.7 C 0 km/h
3140 22-01-2020 21:55:00 0.7 C 4.98 g/m*3 0.7 C 0 km/h
3141 22-01-2020 22:00:00 0.7 C 4.98 g/m*3 0.7 C 0 km/h
3142 22-01-2020 22:05:00 0.7 C 4.98 g/m*3 0.7 C 0 km/h
3143 22-01-2020 22:10:00 0.7 C 4.98 g/m*3 0.7 C 0 km/h
3144 22-01-2020 22:15:00 0.7 C 4.98 g/m*3 0.7 C 0 km/h
3145 22-01-2020 22:20:00 0.7 C 4.98 g/m*3 0.7 C 0 km/h
3146 22-01-2020 22:25:00 0.7 C 4.98 g/m*3 0.7 C 0 km/h
3147 22-01-2020 22:30:00 0.7 C 4.98 g/m*3 0.7 C 0 km/h
3148 22-01-2020 22:35:00 0.7 C 4.98 g/m*3 0.7 C 0 km/h
3149 22-01-2020 22:40:00 0.7 C 4.98 g/m*3 0.7 C 0 km/h
3150 22-01-2020 22:45:00 0.8 C 5.02 g/m*3 0.8 C 0 km/h
Sensor: Nr:Datum:Temp:Abs-Feuchte:Windchill:Wind:
Aussen-T/F 3151 22-01-2020 22:50:00 0.8 C 5.02 g/m*3 0.8 C 0 km/h
3152 22-01-2020 22:55:00 0.8 C 5.02 g/m*3 0.8 C 0 km/h
3153 22-01-2020 23:00:00 0.8 C 5.02 g/m*3 0.8 C 0 km/h
3154 22-01-2020 23:05:00 0.8 C 5.02 g/m*3 0.8 C 0 km/h
3155 22-01-2020 23:10:00 0.8 C 5.02 g/m*3 0.8 C 0 km/h
3156 22-01-2020 23:15:00 0.8 C 5.02 g/m*3 0.8 C 0 km/h
3157 22-01-2020 23:20:00 0.8 C 5.02 g/m*3 0.8 C 0 km/h
3158 22-01-2020 23:25:00 0.8 C 5.02 g/m*3 0.8 C 0 km/h
3159 22-01-2020 23:30:00 0.8 C 5.02 g/m*3 0.8 C 0 km/h
3160 22-01-2020 23:35:00 0.8 C 5.02 g/m*3 0.8 C 0 km/h
3161 22-01-2020 23:40:00 0.8 C 5.02 g/m*3 0.8 C 0 km/h
3162 22-01-2020 23:45:00 0.8 C 5.02 g/m*3 0.8 C 0 km/h
3163 22-01-2020 23:50:00 0.8 C 5.02 g/m*3 0.8 C 0 km/h
3164 22-01-2020 23:55:00 0.8 C 5.02 g/m*3 0.8 C 0 km/h
3165 23-01-2020 00:00:00 0.8 C 5.02 g/m*3 0.8 C 0 km/h
3166 23-01-2020 00:05:00 0.8 C 5.02 g/m*3 0.8 C 0 km/h
3167 23-01-2020 00:10:00 0.8 C 5.02 g/m*3 0.8 C 0 km/h
3168 23-01-2020 00:15:00 0.8 C 5.02 g/m*3 0.8 C 0 km/h
3169 23-01-2020 00:20:00 0.8 C 5.02 g/m*3 0.8 C 0 km/h
3170 23-01-2020 00:25:00 0.9 C 5.05 g/m*3 0.9 C 0 km/h
3171 23-01-2020 00:30:00 0.9 C 5.05 g/m*3 0.9 C 0 km/h
3172 23-01-2020 00:35:00 0.9 C 5.05 g/m*3 0.9 C 0 km/h
3173 23-01-2020 00:40:00 0.9 C 5.05 g/m*3 0.9 C 0 km/h
3174 23-01-2020 00:45:00 0.9 C 5.05 g/m*3 0.9 C 0 km/h
3175 23-01-2020 00:50:00 0.9 C 5.05 g/m*3 0.9 C 0 km/h
Sensor: Nr:Datum:Temp:Abs-Feuchte:Windchill:Wind:
Aussen-T/F 3176 23-01-2020 00:55:00 0.9 C 5.05 g/m*3 0.9 C 0 km/h
3177 23-01-2020 01:00:00 0.9 C 5.05 g/m*3 0.9 C 0 km/h
3178 23-01-2020 01:05:00 0.9 C 5.05 g/m*3 0.9 C 0 km/h
3179 23-01-2020 01:10:00 0.9 C 5.05 g/m*3 0.9 C 0 km/h
3180 23-01-2020 01:15:00 0.9 C 5.05 g/m*3 0.9 C 0 km/h
3181 23-01-2020 01:20:00 0.9 C 5.05 g/m*3 0.9 C 0 km/h
3182 23-01-2020 01:25:00 0.9 C 5.05 g/m*3 0.9 C 0 km/h
3183 23-01-2020 01:30:00 0.9 C 5.05 g/m*3 0.9 C 0 km/h
3184 23-01-2020 01:35:00 0.9 C 5.05 g/m*3 0.9 C 0 km/h
3185 23-01-2020 01:40:00 0.9 C 5.05 g/m*3 0.9 C 0 km/h
3186 23-01-2020 01:45:00 0.9 C 5.05 g/m*3 0.9 C 0 km/h
3187 23-01-2020 01:50:00 0.9 C 5.05 g/m*3 0.9 C 0 km/h
3188 23-01-2020 01:55:00 0.9 C 5.05 g/m*3 0.9 C 0 km/h
3189 23-01-2020 02:00:00 0.9 C 5.05 g/m*3 0.9 C 0 km/h
3190 23-01-2020 02:05:00 0.9 C 5.05 g/m*3 0.9 C 0 km/h
3191 23-01-2020 02:10:00 0.9 C 5.05 g/m*3 0.9 C 0 km/h
3192 23-01-2020 02:15:00 0.9 C 5.05 g/m*3 0.9 C 0 km/h
3193 23-01-2020 02:20:00 1 C 5.09 g/m*3 1 C 0 km/h
3194 23-01-2020 02:25:00 1 C 5.09 g/m*3 1 C 0 km/h
3195 23-01-2020 02:30:00 1 C 5.09 g/m*3 1 C 0 km/h
3196 23-01-2020 02:35:00 1 C 5.09 g/m*3 1 C 0 km/h
3197 23-01-2020 02:40:00 1.1 C 5.12 g/m*3 1.1 C 0 km/h
3198 23-01-2020 02:45:00 1.1 C 5.12 g/m*3 1.1 C 0 km/h
3199 23-01-2020 02:50:00 1.1 C 5.12 g/m*3 1.1 C 0 km/h
3200 23-01-2020 02:55:00 1.1 C 5.12 g/m*3 1.1 C 0 km/h
Sensor: Nr:Datum:Temp:Abs-Feuchte:Windchill:Wind:
Aussen-T/F 3201 23-01-2020 03:00:00 1.1 C 5.12 g/m*3 1.1 C 0 km/h
3202 23-01-2020 03:05:00 1.1 C 5.12 g/m*3 1.1 C 0 km/h
3203 23-01-2020 03:10:00 1.1 C 5.12 g/m*3 1.1 C 0 km/h
3204 23-01-2020 03:15:00 1.1 C 5.12 g/m*3 1.1 C 0 km/h
3205 23-01-2020 03:20:00 1.1 C 5.12 g/m*3 1.1 C 0 km/h
3206 23-01-2020 03:25:00 1.1 C 5.12 g/m*3 1.1 C 0 km/h
3207 23-01-2020 03:30:00 1.1 C 5.12 g/m*3 1.1 C 0 km/h
3208 23-01-2020 03:35:00 1.1 C 5.12 g/m*3 1.1 C 0 km/h
3209 23-01-2020 03:40:00 1.1 C 5.12 g/m*3 1.1 C 0 km/h
3210 23-01-2020 03:45:00 1.1 C 5.12 g/m*3 1.1 C 0 km/h
3211 23-01-2020 03:50:00 1.1 C 5.12 g/m*3 1.1 C 0 km/h
3212 23-01-2020 03:55:00 1.1 C 5.12 g/m*3 1.1 C 0 km/h
3213 23-01-2020 04:00:00 1.1 C 5.12 g/m*3 1.1 C 0 km/h
3214 23-01-2020 04:05:00 1.1 C 5.12 g/m*3 1.1 C 0 km/h
3215 23-01-2020 04:10:00 1.1 C 5.12 g/m*3 1.1 C 0 km/h
3216 23-01-2020 04:15:00 1.1 C 5.12 g/m*3 1.1 C 0 km/h
3217 23-01-2020 04:20:00 1.1 C 5.12 g/m*3 1.1 C 0 km/h
3218 23-01-2020 04:25:00 1.1 C 5.12 g/m*3 1.1 C 0 km/h
3219 23-01-2020 04:30:00 1.1 C 5.12 g/m*3 1.1 C 0 km/h
3220 23-01-2020 04:35:00 1.1 C 5.12 g/m*3 1.1 C 0 km/h
3221 23-01-2020 04:40:00 1.1 C 5.12 g/m*3 1.1 C 0 km/h
3222 23-01-2020 04:45:00 1.1 C 5.12 g/m*3 1.1 C 0 km/h
3223 23-01-2020 04:50:00 1.1 C 5.12 g/m*3 1.1 C 0 km/h
3224 23-01-2020 04:55:00 1.2 C 5.16 g/m*3 1.2 C 0 km/h
3225 23-01-2020 05:00:00 1.2 C 5.16 g/m*3 1.2 C 0 km/h
Sensor: Nr:Datum:Temp:Abs-Feuchte:Windchill: